<?xml version="1.0" encoding="UTF-8" standalone="no" ?>
<gpx xmlns="http://www.topografix.com/GPX/1/1" xmlns:xsi="http://www.w3.org/2001/XMLSchema-instance" xsi:schemaLocation="http://www.topografix.com/GPX/1/1 http://www.topografix.com/GPX/1/1/gpx.xsd" version="1.1" creator="VisuGPX - https://www.visugpx.com">
  <metadata>
    <name>figaa</name>
  </metadata>
  <wpt lat="43.57065" lon="6.48296">
    <ele>414.1</ele>
    <name><![CDATA[1 En face]]></name>
  </wpt>
  <wpt lat="43.57247" lon="6.47458">
    <ele>457.8</ele>
    <name><![CDATA[GAUCHE]]></name>
  </wpt>
  <wpt lat="43.56667" lon="6.46327">
    <ele>517.8</ele>
    <name><![CDATA[DROITE]]></name>
  </wpt>
  <wpt lat="43.56979" lon="6.4825">
    <ele>423.2</ele>
    <name><![CDATA[GAUCHE]]></name>
  </wpt>
  <wpt lat="43.5722" lon="6.4759">
    <ele>461.9</ele>
    <name><![CDATA[DROITE]]></name>
  </wpt>
  <wpt lat="43.57435" lon="6.4771">
    <ele>482.9</ele>
    <name><![CDATA[GAUCHE]]></name>
  </wpt>
  <wpt lat="43.57446" lon="6.47796">
    <ele>482.2</ele>
    <name><![CDATA[GAUCHE]]></name>
  </wpt>
  <wpt lat="43.57655" lon="6.47564">
    <ele>509</ele>
    <name><![CDATA[1 GAUCHE]]></name>
  </wpt>
  <wpt lat="43.57843" lon="6.47453">
    <ele>493.9</ele>
    <name><![CDATA[GAUCHE]]></name>
  </wpt>
  <wpt lat="43.58267" lon="6.47794">
    <ele>459.2</ele>
    <name><![CDATA[1 TOUT DROIT]]></name>
  </wpt>
  <wpt lat="43.5883" lon="6.47516">
    <ele>509.1</ele>
    <name><![CDATA[GAUCHE]]></name>
  </wpt>
  <wpt lat="43.59325" lon="6.47698">
    <ele>622.1</ele>
    <name><![CDATA[TOUT DROIT]]></name>
  </wpt>
  <wpt lat="43.59357" lon="6.48281">
    <ele>666.5</ele>
    <name><![CDATA[2 A DROITE]]></name>
  </wpt>
  <wpt lat="43.59252" lon="6.48412">
    <ele>684.9</ele>
    <name><![CDATA[TOUT DROIT]]></name>
  </wpt>
  <wpt lat="43.59341" lon="6.4772">
    <ele>627.8</ele>
    <name><![CDATA[TOUT DROIT]]></name>
  </wpt>
  <wpt lat="43.5827" lon="6.47808">
    <ele>459.9</ele>
    <name><![CDATA[2 A GAUCHE]]></name>
  </wpt>
  <wpt lat="43.58187" lon="6.47826">
    <ele>434.2</ele>
    <name><![CDATA[2 a gauche]]></name>
  </wpt>
  <wpt lat="43.57672" lon="6.47554">
    <ele>506.3</ele>
    <name><![CDATA[2 GAUCHE]]></name>
  </wpt>
  <wpt lat="43.57058" lon="6.48272">
    <ele>416.3</ele>
    <name><![CDATA[GAUCHE]]></name>
  </wpt>
  <trk>
    <name><![CDATA[figaa]]></name>
    <trkseg>
      <trkpt lat="43.57093" lon="6.49642">
        <ele>313.90740966797</ele>
        <time>2020-05-26T19:21:16.000Z</time>
      </trkpt>
      <trkpt lat="43.57107" lon="6.49627">
        <ele>315.03768920898</ele>
        <time>2020-05-26T19:21:16.004Z</time>
      </trkpt>
      <trkpt lat="43.57141" lon="6.49603">
        <ele>318.5100402832</ele>
        <time>2020-05-26T19:21:16.015Z</time>
      </trkpt>
      <trkpt lat="43.57174" lon="6.49576">
        <ele>322.64935302734</ele>
        <time>2020-05-26T19:21:16.034Z</time>
      </trkpt>
      <trkpt lat="43.57194" lon="6.49532">
        <ele>328.79605102539</ele>
        <time>2020-05-26T19:21:16.060Z</time>
      </trkpt>
      <trkpt lat="43.57236" lon="6.49511">
        <ele>335.65542602539</ele>
        <time>2020-05-26T19:21:16.095Z</time>
      </trkpt>
      <trkpt lat="43.57252" lon="6.49499">
        <ele>337.28717041016</ele>
        <time>2020-05-26T19:21:16.134Z</time>
      </trkpt>
      <trkpt lat="43.57272" lon="6.49475">
        <ele>340.13632202148</ele>
        <time>2020-05-26T19:21:16.178Z</time>
      </trkpt>
      <trkpt lat="43.57285" lon="6.49431">
        <ele>345.01953125</ele>
        <time>2020-05-26T19:21:16.229Z</time>
      </trkpt>
      <trkpt lat="43.573" lon="6.49364">
        <ele>348.26443481445</ele>
        <time>2020-05-26T19:21:16.290Z</time>
      </trkpt>
      <trkpt lat="43.57307" lon="6.49342">
        <ele>349.32809448242</ele>
        <time>2020-05-26T19:21:16.355Z</time>
      </trkpt>
      <trkpt lat="43.5729" lon="6.49336">
        <ele>349.06414794922</ele>
        <time>2020-05-26T19:21:16.423Z</time>
      </trkpt>
      <trkpt lat="43.57285" lon="6.49328">
        <ele>349.13613891602</ele>
        <time>2020-05-26T19:21:16.493Z</time>
      </trkpt>
      <trkpt lat="43.57282" lon="6.49311">
        <ele>349.60580444336</ele>
        <time>2020-05-26T19:21:16.565Z</time>
      </trkpt>
      <trkpt lat="43.57285" lon="6.49297">
        <ele>350.34967041016</ele>
        <time>2020-05-26T19:21:16.640Z</time>
      </trkpt>
      <trkpt lat="43.57327" lon="6.49211">
        <ele>355.39993286133</ele>
        <time>2020-05-26T19:21:16.730Z</time>
      </trkpt>
      <trkpt lat="43.57325" lon="6.49202">
        <ele>356.37176513672</ele>
        <time>2020-05-26T19:21:16.821Z</time>
      </trkpt>
      <trkpt lat="43.57281" lon="6.49215">
        <ele>354.96798706055</ele>
        <time>2020-05-26T19:21:16.921Z</time>
      </trkpt>
      <trkpt lat="43.57243" lon="6.49237">
        <ele>350.72766113281</ele>
        <time>2020-05-26T19:21:17.029Z</time>
      </trkpt>
      <trkpt lat="43.57241" lon="6.49201">
        <ele>353.25238037109</ele>
        <time>2020-05-26T19:21:17.143Z</time>
      </trkpt>
      <trkpt lat="43.57246" lon="6.49174">
        <ele>356.76779174805</ele>
        <time>2020-05-26T19:21:17.261Z</time>
      </trkpt>
      <trkpt lat="43.57244" lon="6.49167">
        <ele>357.28372192383</ele>
        <time>2020-05-26T19:21:17.380Z</time>
      </trkpt>
      <trkpt lat="43.57237" lon="6.49158">
        <ele>357.41567993164</ele>
        <time>2020-05-26T19:21:17.501Z</time>
      </trkpt>
      <trkpt lat="43.57222" lon="6.49147">
        <ele>357.25268554688</ele>
        <time>2020-05-26T19:21:17.625Z</time>
      </trkpt>
      <trkpt lat="43.57214" lon="6.49139">
        <ele>358.40451049805</ele>
        <time>2020-05-26T19:21:17.751Z</time>
      </trkpt>
      <trkpt lat="43.5719" lon="6.49101">
        <ele>365.55529785156</ele>
        <time>2020-05-26T19:21:17.884Z</time>
      </trkpt>
      <trkpt lat="43.57173" lon="6.49083">
        <ele>368.26684570312</ele>
        <time>2020-05-26T19:21:18.022Z</time>
      </trkpt>
      <trkpt lat="43.57173" lon="6.49082">
        <ele>368.53082275391</ele>
        <time>2020-05-26T19:21:18.160Z</time>
      </trkpt>
      <trkpt lat="43.57166" lon="6.49075">
        <ele>369.53863525391</ele>
        <time>2020-05-26T19:21:18.299Z</time>
      </trkpt>
      <trkpt lat="43.57132" lon="6.49053">
        <ele>369.48059082031</ele>
        <time>2020-05-26T19:21:18.446Z</time>
      </trkpt>
      <trkpt lat="43.57113" lon="6.49032">
        <ele>369.97250366211</ele>
        <time>2020-05-26T19:21:18.598Z</time>
      </trkpt>
      <trkpt lat="43.57107" lon="6.4902">
        <ele>370.83636474609</ele>
        <time>2020-05-26T19:21:18.752Z</time>
      </trkpt>
      <trkpt lat="43.57104" lon="6.49003">
        <ele>372.72003173828</ele>
        <time>2020-05-26T19:21:18.909Z</time>
      </trkpt>
      <trkpt lat="43.57106" lon="6.48975">
        <ele>376.90240478516</ele>
        <time>2020-05-26T19:21:19.070Z</time>
      </trkpt>
      <trkpt lat="43.57104" lon="6.48956">
        <ele>378.79809570312</ele>
        <time>2020-05-26T19:21:19.233Z</time>
      </trkpt>
      <trkpt lat="43.5709" lon="6.48917">
        <ele>379.31097412109</ele>
        <time>2020-05-26T19:21:19.403Z</time>
      </trkpt>
      <trkpt lat="43.57056" lon="6.48847">
        <ele>377.96325683594</ele>
        <time>2020-05-26T19:21:19.585Z</time>
      </trkpt>
      <trkpt lat="43.57045" lon="6.48777">
        <ele>382.10922241211</ele>
        <time>2020-05-26T19:21:19.777Z</time>
      </trkpt>
      <trkpt lat="43.57032" lon="6.48723">
        <ele>381.43740844727</ele>
        <time>2020-05-26T19:21:19.978Z</time>
      </trkpt>
      <trkpt lat="43.57022" lon="6.48695">
        <ele>379.5657043457</ele>
        <time>2020-05-26T19:21:20.183Z</time>
      </trkpt>
      <trkpt lat="43.57021" lon="6.48673">
        <ele>380.0696105957</ele>
        <time>2020-05-26T19:21:20.391Z</time>
      </trkpt>
      <trkpt lat="43.57025" lon="6.48649">
        <ele>381.56158447266</ele>
        <time>2020-05-26T19:21:20.603Z</time>
      </trkpt>
      <trkpt lat="43.57036" lon="6.48614">
        <ele>384.77703857422</ele>
        <time>2020-05-26T19:21:20.821Z</time>
      </trkpt>
      <trkpt lat="43.57033" lon="6.48573">
        <ele>385.42218017578</ele>
        <time>2020-05-26T19:21:21.044Z</time>
      </trkpt>
      <trkpt lat="43.57033" lon="6.48572">
        <ele>385.48217773438</ele>
        <time>2020-05-26T19:21:21.268Z</time>
      </trkpt>
      <trkpt lat="43.57032" lon="6.48544">
        <ele>386.90994262695</ele>
        <time>2020-05-26T19:21:21.496Z</time>
      </trkpt>
      <trkpt lat="43.57035" lon="6.48529">
        <ele>388.56564331055</ele>
        <time>2020-05-26T19:21:21.726Z</time>
      </trkpt>
      <trkpt lat="43.57041" lon="6.48513">
        <ele>391.03723144531</ele>
        <time>2020-05-26T19:21:21.959Z</time>
      </trkpt>
      <trkpt lat="43.57052" lon="6.48496">
        <ele>394.31887817383</ele>
        <time>2020-05-26T19:21:22.195Z</time>
      </trkpt>
      <trkpt lat="43.57073" lon="6.48471">
        <ele>399.86074829102</ele>
        <time>2020-05-26T19:21:22.436Z</time>
      </trkpt>
      <trkpt lat="43.57079" lon="6.48457">
        <ele>401.4709777832</ele>
        <time>2020-05-26T19:21:22.680Z</time>
      </trkpt>
      <trkpt lat="43.57087" lon="6.48396">
        <ele>403.50796508789</ele>
        <time>2020-05-26T19:21:22.933Z</time>
      </trkpt>
      <trkpt lat="43.57095" lon="6.48371">
        <ele>407.29818725586</ele>
        <time>2020-05-26T19:21:23.190Z</time>
      </trkpt>
      <trkpt lat="43.57075" lon="6.48332">
        <ele>406.97424316406</ele>
        <time>2020-05-26T19:21:23.454Z</time>
      </trkpt>
      <trkpt lat="43.57073" lon="6.48314">
        <ele>408.29922485352</ele>
        <time>2020-05-26T19:21:23.720Z</time>
      </trkpt>
      <trkpt lat="43.57057" lon="6.48276">
        <ele>411.34674072266</ele>
        <time>2020-05-26T19:21:23.993Z</time>
      </trkpt>
      <trkpt lat="43.57043" lon="6.48249">
        <ele>413.25924682617</ele>
        <time>2020-05-26T19:21:24.271Z</time>
      </trkpt>
      <trkpt lat="43.57043" lon="6.48209">
        <ele>420.74670410156</ele>
        <time>2020-05-26T19:21:24.554Z</time>
      </trkpt>
      <trkpt lat="43.57073" lon="6.48149">
        <ele>431.11468505859</ele>
        <time>2020-05-26T19:21:24.848Z</time>
      </trkpt>
      <trkpt lat="43.57085" lon="6.48086">
        <ele>435.138671875</ele>
        <time>2020-05-26T19:21:25.151Z</time>
      </trkpt>
      <trkpt lat="43.57087" lon="6.48078">
        <ele>434.8747253418</ele>
        <time>2020-05-26T19:21:25.456Z</time>
      </trkpt>
      <trkpt lat="43.57117" lon="6.4802">
        <ele>439.62368774414</ele>
        <time>2020-05-26T19:21:25.771Z</time>
      </trkpt>
      <trkpt lat="43.57146" lon="6.47962">
        <ele>447.97674560547</ele>
        <time>2020-05-26T19:21:26.096Z</time>
      </trkpt>
      <trkpt lat="43.57177" lon="6.4791">
        <ele>446.84365844727</ele>
        <time>2020-05-26T19:21:26.431Z</time>
      </trkpt>
      <trkpt lat="43.57197" lon="6.4784">
        <ele>447.31817626953</ele>
        <time>2020-05-26T19:21:26.777Z</time>
      </trkpt>
      <trkpt lat="43.5721" lon="6.47737">
        <ele>452.60498046875</ele>
        <time>2020-05-26T19:21:27.138Z</time>
      </trkpt>
      <trkpt lat="43.57216" lon="6.47616">
        <ele>461.43933105469</ele>
        <time>2020-05-26T19:21:27.517Z</time>
      </trkpt>
      <trkpt lat="43.57229" lon="6.47553">
        <ele>461.8899230957</ele>
        <time>2020-05-26T19:21:27.905Z</time>
      </trkpt>
      <trkpt lat="43.57241" lon="6.4749">
        <ele>457.83142089844</ele>
        <time>2020-05-26T19:21:28.303Z</time>
      </trkpt>
      <trkpt lat="43.57284" lon="6.47446">
        <ele>460.47720336914</ele>
        <time>2020-05-26T19:21:28.712Z</time>
      </trkpt>
      <trkpt lat="43.57282" lon="6.47343">
        <ele>463.44647216797</ele>
        <time>2020-05-26T19:21:29.136Z</time>
      </trkpt>
      <trkpt lat="43.57292" lon="6.47269">
        <ele>473.51318359375</ele>
        <time>2020-05-26T19:21:29.570Z</time>
      </trkpt>
      <trkpt lat="43.57297" lon="6.47215">
        <ele>475.80334472656</ele>
        <time>2020-05-26T19:21:30.012Z</time>
      </trkpt>
      <trkpt lat="43.57285" lon="6.47156">
        <ele>479.25527954102</ele>
        <time>2020-05-26T19:21:30.463Z</time>
      </trkpt>
      <trkpt lat="43.57267" lon="6.47105">
        <ele>481.77841186523</ele>
        <time>2020-05-26T19:21:30.923Z</time>
      </trkpt>
      <trkpt lat="43.57267" lon="6.47104">
        <ele>481.76641845703</ele>
        <time>2020-05-26T19:21:31.383Z</time>
      </trkpt>
      <trkpt lat="43.57247" lon="6.47045">
        <ele>487.00723266602</ele>
        <time>2020-05-26T19:21:31.852Z</time>
      </trkpt>
      <trkpt lat="43.5724" lon="6.46993">
        <ele>487.40316772461</ele>
        <time>2020-05-26T19:21:32.329Z</time>
      </trkpt>
      <trkpt lat="43.57241" lon="6.46899">
        <ele>485.20016479492</ele>
        <time>2020-05-26T19:21:32.820Z</time>
      </trkpt>
      <trkpt lat="43.57241" lon="6.46805">
        <ele>484.38394165039</ele>
        <time>2020-05-26T19:21:33.324Z</time>
      </trkpt>
      <trkpt lat="43.57229" lon="6.4676">
        <ele>484.18646240234</ele>
        <time>2020-05-26T19:21:33.835Z</time>
      </trkpt>
      <trkpt lat="43.57195" lon="6.46714">
        <ele>488.56802368164</ele>
        <time>2020-05-26T19:21:34.356Z</time>
      </trkpt>
      <trkpt lat="43.57182" lon="6.46686">
        <ele>490.08062744141</ele>
        <time>2020-05-26T19:21:34.882Z</time>
      </trkpt>
      <trkpt lat="43.57175" lon="6.46624">
        <ele>489.37524414062</ele>
        <time>2020-05-26T19:21:35.417Z</time>
      </trkpt>
      <trkpt lat="43.57152" lon="6.46578">
        <ele>492.68670654297</ele>
        <time>2020-05-26T19:21:35.960Z</time>
      </trkpt>
      <trkpt lat="43.57126" lon="6.46548">
        <ele>494.25674438477</ele>
        <time>2020-05-26T19:21:36.510Z</time>
      </trkpt>
      <trkpt lat="43.57106" lon="6.46535">
        <ele>495.57653808594</ele>
        <time>2020-05-26T19:21:37.064Z</time>
      </trkpt>
      <trkpt lat="43.57083" lon="6.46534">
        <ele>497.45745849609</ele>
        <time>2020-05-26T19:21:37.623Z</time>
      </trkpt>
      <trkpt lat="43.57075" lon="6.46535">
        <ele>498.15335083008</ele>
        <time>2020-05-26T19:21:38.183Z</time>
      </trkpt>
      <trkpt lat="43.57063" lon="6.46535">
        <ele>498.59182739258</ele>
        <time>2020-05-26T19:21:38.746Z</time>
      </trkpt>
      <trkpt lat="43.57046" lon="6.4653">
        <ele>498.49584960938</ele>
        <time>2020-05-26T19:21:39.312Z</time>
      </trkpt>
      <trkpt lat="43.56985" lon="6.465">
        <ele>495.45690917969</ele>
        <time>2020-05-26T19:21:39.891Z</time>
      </trkpt>
      <trkpt lat="43.56972" lon="6.46496">
        <ele>494.5930480957</ele>
        <time>2020-05-26T19:21:40.473Z</time>
      </trkpt>
      <trkpt lat="43.56954" lon="6.46501">
        <ele>494.02914428711</ele>
        <time>2020-05-26T19:21:41.058Z</time>
      </trkpt>
      <trkpt lat="43.56892" lon="6.46533">
        <ele>497.25903320312</ele>
        <time>2020-05-26T19:21:41.657Z</time>
      </trkpt>
      <trkpt lat="43.56887" lon="6.46533">
        <ele>497.49899291992</ele>
        <time>2020-05-26T19:21:42.257Z</time>
      </trkpt>
      <trkpt lat="43.56813" lon="6.46493">
        <ele>506.84857177734</ele>
        <time>2020-05-26T19:21:42.872Z</time>
      </trkpt>
      <trkpt lat="43.56803" lon="6.46486">
        <ele>509.14019775391</ele>
        <time>2020-05-26T19:21:43.490Z</time>
      </trkpt>
      <trkpt lat="43.56773" lon="6.46458">
        <ele>512.75274658203</ele>
        <time>2020-05-26T19:21:44.115Z</time>
      </trkpt>
      <trkpt lat="43.56731" lon="6.46422">
        <ele>520.14447021484</ele>
        <time>2020-05-26T19:21:44.750Z</time>
      </trkpt>
      <trkpt lat="43.56731" lon="6.46421">
        <ele>519.95251464844</ele>
        <time>2020-05-26T19:21:45.385Z</time>
      </trkpt>
      <trkpt lat="43.5669" lon="6.46377">
        <ele>526.84753417969</ele>
        <time>2020-05-26T19:21:46.030Z</time>
      </trkpt>
      <trkpt lat="43.56661" lon="6.46341">
        <ele>526.68627929688</ele>
        <time>2020-05-26T19:21:46.683Z</time>
      </trkpt>
      <trkpt lat="43.56646" lon="6.46314">
        <ele>525.02728271484</ele>
        <time>2020-05-26T19:21:47.341Z</time>
      </trkpt>
      <trkpt lat="43.56631" lon="6.46302">
        <ele>526.71899414062</ele>
        <time>2020-05-26T19:21:48.003Z</time>
      </trkpt>
      <trkpt lat="43.56592" lon="6.46289">
        <ele>529.47485351562</ele>
        <time>2020-05-26T19:21:48.673Z</time>
      </trkpt>
      <trkpt lat="43.56599" lon="6.46248">
        <ele>529.16290283203</ele>
        <time>2020-05-26T19:21:49.349Z</time>
      </trkpt>
      <trkpt lat="43.56611" lon="6.46213">
        <ele>529.70922851562</ele>
        <time>2020-05-26T19:21:50.030Z</time>
      </trkpt>
      <trkpt lat="43.56614" lon="6.46208">
        <ele>529.86517333984</ele>
        <time>2020-05-26T19:21:50.712Z</time>
      </trkpt>
      <trkpt lat="43.56612" lon="6.46191">
        <ele>530.98101806641</ele>
        <time>2020-05-26T19:21:51.397Z</time>
      </trkpt>
      <trkpt lat="43.56604" lon="6.46153">
        <ele>533.64459228516</ele>
        <time>2020-05-26T19:21:52.088Z</time>
      </trkpt>
      <trkpt lat="43.56612" lon="6.46124">
        <ele>537.34936523438</ele>
        <time>2020-05-26T19:21:52.783Z</time>
      </trkpt>
      <trkpt lat="43.56628" lon="6.46098">
        <ele>540.78076171875</ele>
        <time>2020-05-26T19:21:53.483Z</time>
      </trkpt>
      <trkpt lat="43.56643" lon="6.46057">
        <ele>543.96533203125</ele>
        <time>2020-05-26T19:21:54.190Z</time>
      </trkpt>
      <trkpt lat="43.56646" lon="6.45979">
        <ele>548.5712890625</ele>
        <time>2020-05-26T19:21:54.908Z</time>
      </trkpt>
      <trkpt lat="43.56654" lon="6.45919">
        <ele>548.08709716797</ele>
        <time>2020-05-26T19:21:55.635Z</time>
      </trkpt>
      <trkpt lat="43.56662" lon="6.45879">
        <ele>544.95910644531</ele>
        <time>2020-05-26T19:21:56.368Z</time>
      </trkpt>
      <trkpt lat="43.56689" lon="6.45795">
        <ele>543.25323486328</ele>
        <time>2020-05-26T19:21:57.114Z</time>
      </trkpt>
      <trkpt lat="43.56689" lon="6.4578">
        <ele>543.61315917969</ele>
        <time>2020-05-26T19:21:57.863Z</time>
      </trkpt>
      <trkpt lat="43.56705" lon="6.45778">
        <ele>539.24591064453</ele>
        <time>2020-05-26T19:21:58.615Z</time>
      </trkpt>
      <trkpt lat="43.56712" lon="6.45775">
        <ele>537.38616943359</ele>
        <time>2020-05-26T19:21:59.368Z</time>
      </trkpt>
      <trkpt lat="43.56716" lon="6.45777">
        <ele>536.234375</ele>
        <time>2020-05-26T19:22:00.122Z</time>
      </trkpt>
      <trkpt lat="43.56725" lon="6.45761">
        <ele>535.88739013672</ele>
        <time>2020-05-26T19:22:00.879Z</time>
      </trkpt>
      <trkpt lat="43.56724" lon="6.4575">
        <ele>537.86706542969</ele>
        <time>2020-05-26T19:22:01.638Z</time>
      </trkpt>
      <trkpt lat="43.56729" lon="6.45736">
        <ele>539.55877685547</ele>
        <time>2020-05-26T19:22:02.399Z</time>
      </trkpt>
      <trkpt lat="43.56749" lon="6.45712">
        <ele>538.78729248047</ele>
        <time>2020-05-26T19:22:03.165Z</time>
      </trkpt>
      <trkpt lat="43.56749" lon="6.457">
        <ele>539.93914794922</ele>
        <time>2020-05-26T19:22:03.933Z</time>
      </trkpt>
      <trkpt lat="43.56753" lon="6.45693">
        <ele>540.22705078125</ele>
        <time>2020-05-26T19:22:04.702Z</time>
      </trkpt>
      <trkpt lat="43.56768" lon="6.45651">
        <ele>542.78106689453</ele>
        <time>2020-05-26T19:22:05.478Z</time>
      </trkpt>
      <trkpt lat="43.56767" lon="6.45641">
        <ele>543.51715087891</ele>
        <time>2020-05-26T19:22:06.256Z</time>
      </trkpt>
      <trkpt lat="43.56784" lon="6.45624">
        <ele>539.66302490234</ele>
        <time>2020-05-26T19:22:07.038Z</time>
      </trkpt>
      <trkpt lat="43.56785" lon="6.45619">
        <ele>539.66302490234</ele>
        <time>2020-05-26T19:22:07.821Z</time>
      </trkpt>
      <trkpt lat="43.56792" lon="6.45603">
        <ele>538.52319335938</ele>
        <time>2020-05-26T19:22:08.606Z</time>
      </trkpt>
      <trkpt lat="43.56792" lon="6.45578">
        <ele>540.02294921875</ele>
        <time>2020-05-26T19:22:09.395Z</time>
      </trkpt>
      <trkpt lat="43.568" lon="6.4556">
        <ele>538.27502441406</ele>
        <time>2020-05-26T19:22:10.187Z</time>
      </trkpt>
      <trkpt lat="43.56797" lon="6.45548">
        <ele>539.03088378906</ele>
        <time>2020-05-26T19:22:10.981Z</time>
      </trkpt>
      <trkpt lat="43.56812" lon="6.45485">
        <ele>536.28240966797</ele>
        <time>2020-05-26T19:22:11.784Z</time>
      </trkpt>
      <trkpt lat="43.56805" lon="6.45473">
        <ele>537.38616943359</ele>
        <time>2020-05-26T19:22:12.590Z</time>
      </trkpt>
      <trkpt lat="43.56818" lon="6.45407">
        <ele>532.57049560547</ele>
        <time>2020-05-26T19:22:13.406Z</time>
      </trkpt>
      <trkpt lat="43.56824" lon="6.45357">
        <ele>525.33428955078</ele>
        <time>2020-05-26T19:22:14.229Z</time>
      </trkpt>
      <trkpt lat="43.56807" lon="6.45318">
        <ele>523.99053955078</ele>
        <time>2020-05-26T19:22:15.059Z</time>
      </trkpt>
      <trkpt lat="43.56773" lon="6.45333">
        <ele>525.82092285156</ele>
        <time>2020-05-26T19:22:15.896Z</time>
      </trkpt>
      <trkpt lat="43.5674" lon="6.45344">
        <ele>528.06610107422</ele>
        <time>2020-05-26T19:22:16.739Z</time>
      </trkpt>
      <trkpt lat="43.5672" lon="6.45348">
        <ele>528.21008300781</ele>
        <time>2020-05-26T19:22:17.587Z</time>
      </trkpt>
      <trkpt lat="43.56703" lon="6.45353">
        <ele>528.90075683594</ele>
        <time>2020-05-26T19:22:18.438Z</time>
      </trkpt>
      <trkpt lat="43.56667" lon="6.45348">
        <ele>527.94500732422</ele>
        <time>2020-05-26T19:22:19.296Z</time>
      </trkpt>
      <trkpt lat="43.56632" lon="6.45328">
        <ele>524.64556884766</ele>
        <time>2020-05-26T19:22:20.162Z</time>
      </trkpt>
      <trkpt lat="43.56604" lon="6.45328">
        <ele>524.21600341797</ele>
        <time>2020-05-26T19:22:21.033Z</time>
      </trkpt>
      <trkpt lat="43.56589" lon="6.45332">
        <ele>523.14056396484</ele>
        <time>2020-05-26T19:22:21.907Z</time>
      </trkpt>
      <trkpt lat="43.56584" lon="6.45327">
        <ele>522.36065673828</ele>
        <time>2020-05-26T19:22:22.783Z</time>
      </trkpt>
      <trkpt lat="43.56579" lon="6.45269">
        <ele>519.98461914062</ele>
        <time>2020-05-26T19:22:23.667Z</time>
      </trkpt>
      <trkpt lat="43.56564" lon="6.45201">
        <ele>518.12774658203</ele>
        <time>2020-05-26T19:22:24.562Z</time>
      </trkpt>
      <trkpt lat="43.56548" lon="6.45132">
        <ele>518.53851318359</ele>
        <time>2020-05-26T19:22:25.467Z</time>
      </trkpt>
      <trkpt lat="43.56551" lon="6.45083">
        <ele>518.98352050781</ele>
        <time>2020-05-26T19:22:26.379Z</time>
      </trkpt>
      <trkpt lat="43.56547" lon="6.45053">
        <ele>518.49652099609</ele>
        <time>2020-05-26T19:22:27.296Z</time>
      </trkpt>
      <trkpt lat="43.56551" lon="6.45029">
        <ele>518.30456542969</ele>
        <time>2020-05-26T19:22:28.216Z</time>
      </trkpt>
      <trkpt lat="43.56561" lon="6.45005">
        <ele>519.68395996094</ele>
        <time>2020-05-26T19:22:29.140Z</time>
      </trkpt>
      <trkpt lat="43.56586" lon="6.44987">
        <ele>523.71527099609</ele>
        <time>2020-05-26T19:22:30.070Z</time>
      </trkpt>
      <trkpt lat="43.56639" lon="6.44956">
        <ele>533.22619628906</ele>
        <time>2020-05-26T19:22:31.011Z</time>
      </trkpt>
      <trkpt lat="43.56663" lon="6.44902">
        <ele>535.96966552734</ele>
        <time>2020-05-26T19:22:31.962Z</time>
      </trkpt>
      <trkpt lat="43.5669" lon="6.44822">
        <ele>543.34844970703</ele>
        <time>2020-05-26T19:22:32.925Z</time>
      </trkpt>
      <trkpt lat="43.56687" lon="6.44776">
        <ele>543.52221679688</ele>
        <time>2020-05-26T19:22:33.895Z</time>
      </trkpt>
      <trkpt lat="43.56695" lon="6.44687">
        <ele>541.15643310547</ele>
        <time>2020-05-26T19:22:34.878Z</time>
      </trkpt>
      <trkpt lat="43.56683" lon="6.44642">
        <ele>537.44647216797</ele>
        <time>2020-05-26T19:22:35.868Z</time>
      </trkpt>
      <trkpt lat="43.56679" lon="6.44603">
        <ele>534.99884033203</ele>
        <time>2020-05-26T19:22:36.864Z</time>
      </trkpt>
      <trkpt lat="43.56686" lon="6.44579">
        <ele>534.65277099609</ele>
        <time>2020-05-26T19:22:37.864Z</time>
      </trkpt>
      <trkpt lat="43.56697" lon="6.44582">
        <ele>534.9287109375</ele>
        <time>2020-05-26T19:22:38.866Z</time>
      </trkpt>
      <trkpt lat="43.56737" lon="6.44522">
        <ele>526.10882568359</ele>
        <time>2020-05-26T19:22:39.880Z</time>
      </trkpt>
      <trkpt lat="43.56746" lon="6.4449">
        <ele>524.02117919922</ele>
        <time>2020-05-26T19:22:40.899Z</time>
      </trkpt>
      <trkpt lat="43.56762" lon="6.44479">
        <ele>523.11889648438</ele>
        <time>2020-05-26T19:22:41.921Z</time>
      </trkpt>
      <trkpt lat="43.56765" lon="6.44463">
        <ele>521.52990722656</ele>
        <time>2020-05-26T19:22:42.946Z</time>
      </trkpt>
      <trkpt lat="43.56763" lon="6.44437">
        <ele>518.45837402344</ele>
        <time>2020-05-26T19:22:43.975Z</time>
      </trkpt>
      <trkpt lat="43.56783" lon="6.44376">
        <ele>512.33233642578</ele>
        <time>2020-05-26T19:22:45.013Z</time>
      </trkpt>
      <trkpt lat="43.5678" lon="6.44351">
        <ele>510.3766784668</ele>
        <time>2020-05-26T19:22:46.055Z</time>
      </trkpt>
      <trkpt lat="43.56738" lon="6.44333">
        <ele>502.65277099609</ele>
        <time>2020-05-26T19:22:47.106Z</time>
      </trkpt>
      <trkpt lat="43.56707" lon="6.44366">
        <ele>501.01907348633</ele>
        <time>2020-05-26T19:22:48.165Z</time>
      </trkpt>
      <trkpt lat="43.56696" lon="6.44391">
        <ele>504.06658935547</ele>
        <time>2020-05-26T19:22:49.228Z</time>
      </trkpt>
      <trkpt lat="43.56659" lon="6.44398">
        <ele>499.43521118164</ele>
        <time>2020-05-26T19:22:50.298Z</time>
      </trkpt>
      <trkpt lat="43.56601" lon="6.44339">
        <ele>474.12817382812</ele>
        <time>2020-05-26T19:22:51.383Z</time>
      </trkpt>
      <trkpt lat="43.56571" lon="6.44319">
        <ele>465.96954345703</ele>
        <time>2020-05-26T19:22:52.474Z</time>
      </trkpt>
      <trkpt lat="43.5653" lon="6.44277">
        <ele>454.66635131836</ele>
        <time>2020-05-26T19:22:53.576Z</time>
      </trkpt>
      <trkpt lat="43.56489" lon="6.44235">
        <ele>443.67620849609</ele>
        <time>2020-05-26T19:22:54.688Z</time>
      </trkpt>
      <trkpt lat="43.56464" lon="6.44231">
        <ele>440.73834228516</ele>
        <time>2020-05-26T19:22:55.805Z</time>
      </trkpt>
      <trkpt lat="43.56438" lon="6.44203">
        <ele>436.22708129883</ele>
        <time>2020-05-26T19:22:56.928Z</time>
      </trkpt>
      <trkpt lat="43.56425" lon="6.44151">
        <ele>431.12280273438</ele>
        <time>2020-05-26T19:22:58.059Z</time>
      </trkpt>
      <trkpt lat="43.56382" lon="6.44108">
        <ele>418.95199584961</ele>
        <time>2020-05-26T19:22:59.201Z</time>
      </trkpt>
      <trkpt lat="43.56354" lon="6.44087">
        <ele>412.1491394043</ele>
        <time>2020-05-26T19:23:00.349Z</time>
      </trkpt>
      <trkpt lat="43.56307" lon="6.44044">
        <ele>398.79818725586</ele>
        <time>2020-05-26T19:23:01.509Z</time>
      </trkpt>
      <trkpt lat="43.5627" lon="6.44018">
        <ele>389.85968017578</ele>
        <time>2020-05-26T19:23:02.677Z</time>
      </trkpt>
      <trkpt lat="43.56255" lon="6.44">
        <ele>385.07247924805</ele>
        <time>2020-05-26T19:23:03.849Z</time>
      </trkpt>
      <trkpt lat="43.56264" lon="6.43937">
        <ele>381.15179443359</ele>
        <time>2020-05-26T19:23:05.030Z</time>
      </trkpt>
      <trkpt lat="43.56242" lon="6.43938">
        <ele>377.24044799805</ele>
        <time>2020-05-26T19:23:06.216Z</time>
      </trkpt>
      <trkpt lat="43.56213" lon="6.43911">
        <ele>370.72555541992</ele>
        <time>2020-05-26T19:23:07.409Z</time>
      </trkpt>
      <trkpt lat="43.56192" lon="6.43899">
        <ele>366.37023925781</ele>
        <time>2020-05-26T19:23:08.606Z</time>
      </trkpt>
      <trkpt lat="43.56182" lon="6.43875">
        <ele>363.50280761719</ele>
        <time>2020-05-26T19:23:09.807Z</time>
      </trkpt>
      <trkpt lat="43.5614" lon="6.4384">
        <ele>360.39532470703</ele>
        <time>2020-05-26T19:23:11.018Z</time>
      </trkpt>
      <trkpt lat="43.56119" lon="6.43818">
        <ele>358.57165527344</ele>
        <time>2020-05-26T19:23:12.234Z</time>
      </trkpt>
      <trkpt lat="43.56083" lon="6.43794">
        <ele>350.16360473633</ele>
        <time>2020-05-26T19:23:13.458Z</time>
      </trkpt>
      <trkpt lat="43.56059" lon="6.43789">
        <ele>345.41592407227</ele>
        <time>2020-05-26T19:23:14.687Z</time>
      </trkpt>
      <trkpt lat="43.56043" lon="6.43776">
        <ele>339.87286376953</ele>
        <time>2020-05-26T19:23:15.920Z</time>
      </trkpt>
      <trkpt lat="43.5603" lon="6.4376">
        <ele>333.93383789062</ele>
        <time>2020-05-26T19:23:17.157Z</time>
      </trkpt>
      <trkpt lat="43.55997" lon="6.43806">
        <ele>338.95907592773</ele>
        <time>2020-05-26T19:23:18.403Z</time>
      </trkpt>
      <trkpt lat="43.55963" lon="6.43851">
        <ele>340.46926879883</ele>
        <time>2020-05-26T19:23:19.658Z</time>
      </trkpt>
      <trkpt lat="43.55954" lon="6.43871">
        <ele>343.1328125</ele>
        <time>2020-05-26T19:23:20.917Z</time>
      </trkpt>
      <trkpt lat="43.55954" lon="6.4387">
        <ele>342.880859375</ele>
        <time>2020-05-26T19:23:22.176Z</time>
      </trkpt>
      <trkpt lat="43.55947" lon="6.43918">
        <ele>353.12686157227</ele>
        <time>2020-05-26T19:23:23.442Z</time>
      </trkpt>
      <trkpt lat="43.55896" lon="6.43992">
        <ele>355.84716796875</ele>
        <time>2020-05-26T19:23:24.723Z</time>
      </trkpt>
      <trkpt lat="43.55882" lon="6.44008">
        <ele>355.41525268555</ele>
        <time>2020-05-26T19:23:26.008Z</time>
      </trkpt>
      <trkpt lat="43.55871" lon="6.44079">
        <ele>364.11294555664</ele>
        <time>2020-05-26T19:23:27.303Z</time>
      </trkpt>
      <trkpt lat="43.55862" lon="6.44091">
        <ele>364.06854248047</ele>
        <time>2020-05-26T19:23:28.601Z</time>
      </trkpt>
      <trkpt lat="43.55838" lon="6.44115">
        <ele>364.21200561523</ele>
        <time>2020-05-26T19:23:29.905Z</time>
      </trkpt>
      <trkpt lat="43.55821" lon="6.4416">
        <ele>369.95037841797</ele>
        <time>2020-05-26T19:23:31.216Z</time>
      </trkpt>
      <trkpt lat="43.55809" lon="6.44177">
        <ele>370.29833984375</ele>
        <time>2020-05-26T19:23:32.530Z</time>
      </trkpt>
      <trkpt lat="43.55798" lon="6.44187">
        <ele>369.47268676758</ele>
        <time>2020-05-26T19:23:33.847Z</time>
      </trkpt>
      <trkpt lat="43.55764" lon="6.44208">
        <ele>364.6794128418</ele>
        <time>2020-05-26T19:23:35.171Z</time>
      </trkpt>
      <trkpt lat="43.55745" lon="6.44233">
        <ele>363.6520690918</ele>
        <time>2020-05-26T19:23:36.501Z</time>
      </trkpt>
      <trkpt lat="43.55737" lon="6.44262">
        <ele>362.11633300781</ele>
        <time>2020-05-26T19:23:37.835Z</time>
      </trkpt>
      <trkpt lat="43.55731" lon="6.44263">
        <ele>360.96453857422</ele>
        <time>2020-05-26T19:23:39.170Z</time>
      </trkpt>
      <trkpt lat="43.55724" lon="6.4429">
        <ele>359.62075805664</ele>
        <time>2020-05-26T19:23:40.510Z</time>
      </trkpt>
      <trkpt lat="43.55729" lon="6.44299">
        <ele>360.58059692383</ele>
        <time>2020-05-26T19:23:41.851Z</time>
      </trkpt>
      <trkpt lat="43.55724" lon="6.44335">
        <ele>361.70056152344</ele>
        <time>2020-05-26T19:23:43.198Z</time>
      </trkpt>
      <trkpt lat="43.55728" lon="6.44372">
        <ele>365.55941772461</ele>
        <time>2020-05-26T19:23:44.550Z</time>
      </trkpt>
      <trkpt lat="43.55725" lon="6.44395">
        <ele>365.59539794922</ele>
        <time>2020-05-26T19:23:45.905Z</time>
      </trkpt>
      <trkpt lat="43.55732" lon="6.44403">
        <ele>368.10668945312</ele>
        <time>2020-05-26T19:23:47.262Z</time>
      </trkpt>
      <trkpt lat="43.55735" lon="6.44411">
        <ele>369.9543762207</ele>
        <time>2020-05-26T19:23:48.621Z</time>
      </trkpt>
      <trkpt lat="43.55733" lon="6.44421">
        <ele>370.74624633789</ele>
        <time>2020-05-26T19:23:49.981Z</time>
      </trkpt>
      <trkpt lat="43.55721" lon="6.44449">
        <ele>370.6399230957</ele>
        <time>2020-05-26T19:23:51.346Z</time>
      </trkpt>
      <trkpt lat="43.55719" lon="6.44464">
        <ele>371.27581787109</ele>
        <time>2020-05-26T19:23:52.713Z</time>
      </trkpt>
      <trkpt lat="43.55722" lon="6.44498">
        <ele>373.75982666016</ele>
        <time>2020-05-26T19:23:54.085Z</time>
      </trkpt>
      <trkpt lat="43.55731" lon="6.4455">
        <ele>376.56735229492</ele>
        <time>2020-05-26T19:23:55.465Z</time>
      </trkpt>
      <trkpt lat="43.55742" lon="6.44665">
        <ele>380.57373046875</ele>
        <time>2020-05-26T19:23:56.862Z</time>
      </trkpt>
      <trkpt lat="43.55749" lon="6.44699">
        <ele>383.3332824707</ele>
        <time>2020-05-26T19:23:58.264Z</time>
      </trkpt>
      <trkpt lat="43.55748" lon="6.44736">
        <ele>383.65270996094</ele>
        <time>2020-05-26T19:23:59.671Z</time>
      </trkpt>
      <trkpt lat="43.55754" lon="6.44748">
        <ele>386.5322265625</ele>
        <time>2020-05-26T19:24:01.080Z</time>
      </trkpt>
      <trkpt lat="43.55755" lon="6.44767">
        <ele>388.23593139648</ele>
        <time>2020-05-26T19:24:02.492Z</time>
      </trkpt>
      <trkpt lat="43.55749" lon="6.44789">
        <ele>387.80401611328</ele>
        <time>2020-05-26T19:24:03.907Z</time>
      </trkpt>
      <trkpt lat="43.55746" lon="6.44814">
        <ele>387.40646362305</ele>
        <time>2020-05-26T19:24:05.326Z</time>
      </trkpt>
      <trkpt lat="43.55756" lon="6.44853">
        <ele>389.60345458984</ele>
        <time>2020-05-26T19:24:06.751Z</time>
      </trkpt>
      <trkpt lat="43.55745" lon="6.44855">
        <ele>385.15219116211</ele>
        <time>2020-05-26T19:24:08.178Z</time>
      </trkpt>
      <trkpt lat="43.5575" lon="6.44866">
        <ele>386.60397338867</ele>
        <time>2020-05-26T19:24:09.607Z</time>
      </trkpt>
      <trkpt lat="43.5578" lon="6.44912">
        <ele>394.3249206543</ele>
        <time>2020-05-26T19:24:11.045Z</time>
      </trkpt>
      <trkpt lat="43.55815" lon="6.44953">
        <ele>400.46789550781</ele>
        <time>2020-05-26T19:24:12.492Z</time>
      </trkpt>
      <trkpt lat="43.55845" lon="6.44984">
        <ele>406.43347167969</ele>
        <time>2020-05-26T19:24:13.947Z</time>
      </trkpt>
      <trkpt lat="43.55853" lon="6.44989">
        <ele>408.98852539062</ele>
        <time>2020-05-26T19:24:15.404Z</time>
      </trkpt>
      <trkpt lat="43.55883" lon="6.44998">
        <ele>416.26177978516</ele>
        <time>2020-05-26T19:24:16.867Z</time>
      </trkpt>
      <trkpt lat="43.55886" lon="6.45002">
        <ele>417.00564575195</ele>
        <time>2020-05-26T19:24:18.331Z</time>
      </trkpt>
      <trkpt lat="43.55887" lon="6.45013">
        <ele>417.13763427734</ele>
        <time>2020-05-26T19:24:19.796Z</time>
      </trkpt>
      <trkpt lat="43.55883" lon="6.45018">
        <ele>416.43927001953</ele>
        <time>2020-05-26T19:24:21.262Z</time>
      </trkpt>
      <trkpt lat="43.55857" lon="6.45033">
        <ele>414.31564331055</ele>
        <time>2020-05-26T19:24:22.734Z</time>
      </trkpt>
      <trkpt lat="43.55846" lon="6.45043">
        <ele>413.09234619141</ele>
        <time>2020-05-26T19:24:24.209Z</time>
      </trkpt>
      <trkpt lat="43.55815" lon="6.45048">
        <ele>406.01104736328</ele>
        <time>2020-05-26T19:24:25.690Z</time>
      </trkpt>
      <trkpt lat="43.55795" lon="6.45063">
        <ele>404.3913269043</ele>
        <time>2020-05-26T19:24:27.175Z</time>
      </trkpt>
      <trkpt lat="43.55786" lon="6.45074">
        <ele>404.62252807617</ele>
        <time>2020-05-26T19:24:28.663Z</time>
      </trkpt>
      <trkpt lat="43.55763" lon="6.45116">
        <ele>408.81140136719</ele>
        <time>2020-05-26T19:24:30.158Z</time>
      </trkpt>
      <trkpt lat="43.5573" lon="6.45184">
        <ele>406.74697875977</ele>
        <time>2020-05-26T19:24:31.665Z</time>
      </trkpt>
      <trkpt lat="43.55712" lon="6.45235">
        <ele>410.98880004883</ele>
        <time>2020-05-26T19:24:33.181Z</time>
      </trkpt>
      <trkpt lat="43.55701" lon="6.45258">
        <ele>411.62683105469</ele>
        <time>2020-05-26T19:24:34.701Z</time>
      </trkpt>
      <trkpt lat="43.55685" lon="6.45282">
        <ele>414.79428100586</ele>
        <time>2020-05-26T19:24:36.225Z</time>
      </trkpt>
      <trkpt lat="43.55638" lon="6.45327">
        <ele>410.88726806641</ele>
        <time>2020-05-26T19:24:37.761Z</time>
      </trkpt>
      <trkpt lat="43.55625" lon="6.45346">
        <ele>409.32928466797</ele>
        <time>2020-05-26T19:24:39.301Z</time>
      </trkpt>
      <trkpt lat="43.55624" lon="6.45355">
        <ele>410.45709228516</ele>
        <time>2020-05-26T19:24:40.842Z</time>
      </trkpt>
      <trkpt lat="43.55626" lon="6.45366">
        <ele>412.72473144531</ele>
        <time>2020-05-26T19:24:42.385Z</time>
      </trkpt>
      <trkpt lat="43.5564" lon="6.4539">
        <ele>420.33145141602</ele>
        <time>2020-05-26T19:24:43.932Z</time>
      </trkpt>
      <trkpt lat="43.55651" lon="6.45414">
        <ele>425.34097290039</ele>
        <time>2020-05-26T19:24:45.483Z</time>
      </trkpt>
      <trkpt lat="43.55654" lon="6.45443">
        <ele>427.21267700195</ele>
        <time>2020-05-26T19:24:47.038Z</time>
      </trkpt>
      <trkpt lat="43.55652" lon="6.45513">
        <ele>430.68493652344</ele>
        <time>2020-05-26T19:24:48.604Z</time>
      </trkpt>
      <trkpt lat="43.55652" lon="6.45521">
        <ele>431.16485595703</ele>
        <time>2020-05-26T19:24:50.171Z</time>
      </trkpt>
      <trkpt lat="43.55664" lon="6.45581">
        <ele>437.30059814453</ele>
        <time>2020-05-26T19:24:51.747Z</time>
      </trkpt>
      <trkpt lat="43.55665" lon="6.45607">
        <ele>439.13629150391</ele>
        <time>2020-05-26T19:24:53.327Z</time>
      </trkpt>
      <trkpt lat="43.55661" lon="6.45669">
        <ele>445.47082519531</ele>
        <time>2020-05-26T19:24:54.916Z</time>
      </trkpt>
      <trkpt lat="43.55654" lon="6.45703">
        <ele>450.45742797852</ele>
        <time>2020-05-26T19:24:56.510Z</time>
      </trkpt>
      <trkpt lat="43.55641" lon="6.45725">
        <ele>454.65673828125</ele>
        <time>2020-05-26T19:24:58.108Z</time>
      </trkpt>
      <trkpt lat="43.55631" lon="6.45733">
        <ele>455.42889404297</ele>
        <time>2020-05-26T19:24:59.708Z</time>
      </trkpt>
      <trkpt lat="43.55616" lon="6.4574">
        <ele>455.28491210938</ele>
        <time>2020-05-26T19:25:01.311Z</time>
      </trkpt>
      <trkpt lat="43.55602" lon="6.45742">
        <ele>454.14437866211</ele>
        <time>2020-05-26T19:25:02.917Z</time>
      </trkpt>
      <trkpt lat="43.55555" lon="6.45731">
        <ele>448.42022705078</ele>
        <time>2020-05-26T19:25:04.533Z</time>
      </trkpt>
      <trkpt lat="43.55544" lon="6.45731">
        <ele>447.89233398438</ele>
        <time>2020-05-26T19:25:06.151Z</time>
      </trkpt>
      <trkpt lat="43.55536" lon="6.45734">
        <ele>448.32263183594</ele>
        <time>2020-05-26T19:25:07.771Z</time>
      </trkpt>
      <trkpt lat="43.55499" lon="6.4578">
        <ele>452.62072753906</ele>
        <time>2020-05-26T19:25:09.401Z</time>
      </trkpt>
      <trkpt lat="43.55491" lon="6.45792">
        <ele>453.37551879883</ele>
        <time>2020-05-26T19:25:11.033Z</time>
      </trkpt>
      <trkpt lat="43.5548" lon="6.45823">
        <ele>454.80340576172</ele>
        <time>2020-05-26T19:25:12.670Z</time>
      </trkpt>
      <trkpt lat="43.55467" lon="6.45882">
        <ele>458.58502197266</ele>
        <time>2020-05-26T19:25:14.316Z</time>
      </trkpt>
      <trkpt lat="43.55462" lon="6.45941">
        <ele>460.15216064453</ele>
        <time>2020-05-26T19:25:15.971Z</time>
      </trkpt>
      <trkpt lat="43.55465" lon="6.45986">
        <ele>459.61605834961</ele>
        <time>2020-05-26T19:25:17.632Z</time>
      </trkpt>
      <trkpt lat="43.55481" lon="6.46025">
        <ele>464.24728393555</ele>
        <time>2020-05-26T19:25:19.300Z</time>
      </trkpt>
      <trkpt lat="43.55494" lon="6.46075">
        <ele>465.87124633789</ele>
        <time>2020-05-26T19:25:20.975Z</time>
      </trkpt>
      <trkpt lat="43.55508" lon="6.46146">
        <ele>469.74758911133</ele>
        <time>2020-05-26T19:25:22.661Z</time>
      </trkpt>
      <trkpt lat="43.55525" lon="6.46242">
        <ele>476.67196655273</ele>
        <time>2020-05-26T19:25:24.361Z</time>
      </trkpt>
      <trkpt lat="43.55541" lon="6.46338">
        <ele>479.71850585938</ele>
        <time>2020-05-26T19:25:26.076Z</time>
      </trkpt>
      <trkpt lat="43.55546" lon="6.46359">
        <ele>481.19763183594</ele>
        <time>2020-05-26T19:25:27.794Z</time>
      </trkpt>
      <trkpt lat="43.55578" lon="6.46446">
        <ele>490.28430175781</ele>
        <time>2020-05-26T19:25:29.526Z</time>
      </trkpt>
      <trkpt lat="43.55609" lon="6.46533">
        <ele>501.60498046875</ele>
        <time>2020-05-26T19:25:31.272Z</time>
      </trkpt>
      <trkpt lat="43.55627" lon="6.46558">
        <ele>504.56848144531</ele>
        <time>2020-05-26T19:25:33.023Z</time>
      </trkpt>
      <trkpt lat="43.55643" lon="6.46574">
        <ele>506.01782226562</ele>
        <time>2020-05-26T19:25:34.778Z</time>
      </trkpt>
      <trkpt lat="43.55677" lon="6.46578">
        <ele>507.64956665039</ele>
        <time>2020-05-26T19:25:36.540Z</time>
      </trkpt>
      <trkpt lat="43.55695" lon="6.46566">
        <ele>508.39053344727</ele>
        <time>2020-05-26T19:25:38.306Z</time>
      </trkpt>
      <trkpt lat="43.55706" lon="6.46556">
        <ele>509.26638793945</ele>
        <time>2020-05-26T19:25:40.075Z</time>
      </trkpt>
      <trkpt lat="43.55711" lon="6.46547">
        <ele>509.87829589844</ele>
        <time>2020-05-26T19:25:41.845Z</time>
      </trkpt>
      <trkpt lat="43.55717" lon="6.4654">
        <ele>510.43020629883</ele>
        <time>2020-05-26T19:25:43.617Z</time>
      </trkpt>
      <trkpt lat="43.55722" lon="6.46516">
        <ele>511.97625732422</ele>
        <time>2020-05-26T19:25:45.393Z</time>
      </trkpt>
      <trkpt lat="43.55712" lon="6.465">
        <ele>512.67211914062</ele>
        <time>2020-05-26T19:25:47.172Z</time>
      </trkpt>
      <trkpt lat="43.55707" lon="6.46498">
        <ele>512.44421386719</ele>
        <time>2020-05-26T19:25:48.952Z</time>
      </trkpt>
      <trkpt lat="43.55729" lon="6.46474">
        <ele>516.91107177734</ele>
        <time>2020-05-26T19:25:50.737Z</time>
      </trkpt>
      <trkpt lat="43.55739" lon="6.46468">
        <ele>518.54278564453</ele>
        <time>2020-05-26T19:25:52.525Z</time>
      </trkpt>
      <trkpt lat="43.55758" lon="6.46468">
        <ele>520.07708740234</ele>
        <time>2020-05-26T19:25:54.316Z</time>
      </trkpt>
      <trkpt lat="43.55765" lon="6.46462">
        <ele>521.30090332031</ele>
        <time>2020-05-26T19:25:56.109Z</time>
      </trkpt>
      <trkpt lat="43.55769" lon="6.46452">
        <ele>522.59417724609</ele>
        <time>2020-05-26T19:25:57.904Z</time>
      </trkpt>
      <trkpt lat="43.55767" lon="6.46447">
        <ele>523.24456787109</ele>
        <time>2020-05-26T19:25:59.700Z</time>
      </trkpt>
      <trkpt lat="43.55762" lon="6.46446">
        <ele>523.00463867188</ele>
        <time>2020-05-26T19:26:01.497Z</time>
      </trkpt>
      <trkpt lat="43.5575" lon="6.4642">
        <ele>525.26025390625</ele>
        <time>2020-05-26T19:26:03.298Z</time>
      </trkpt>
      <trkpt lat="43.55749" lon="6.4642">
        <ele>525.18823242188</ele>
        <time>2020-05-26T19:26:05.099Z</time>
      </trkpt>
      <trkpt lat="43.55728" lon="6.46413">
        <ele>524.51635742188</ele>
        <time>2020-05-26T19:26:06.905Z</time>
      </trkpt>
      <trkpt lat="43.55722" lon="6.46406">
        <ele>524.92431640625</ele>
        <time>2020-05-26T19:26:08.712Z</time>
      </trkpt>
      <trkpt lat="43.55723" lon="6.46399">
        <ele>525.82604980469</ele>
        <time>2020-05-26T19:26:10.520Z</time>
      </trkpt>
      <trkpt lat="43.55731" lon="6.46392">
        <ele>527.07385253906</ele>
        <time>2020-05-26T19:26:12.330Z</time>
      </trkpt>
      <trkpt lat="43.5574" lon="6.46299">
        <ele>534.95581054688</ele>
        <time>2020-05-26T19:26:14.154Z</time>
      </trkpt>
      <trkpt lat="43.55756" lon="6.46281">
        <ele>537.96875</ele>
        <time>2020-05-26T19:26:15.982Z</time>
      </trkpt>
      <trkpt lat="43.5577" lon="6.46276">
        <ele>539.70532226562</ele>
        <time>2020-05-26T19:26:17.813Z</time>
      </trkpt>
      <trkpt lat="43.5578" lon="6.46269">
        <ele>539.77728271484</ele>
        <time>2020-05-26T19:26:19.646Z</time>
      </trkpt>
      <trkpt lat="43.55794" lon="6.4627">
        <ele>538.84143066406</ele>
        <time>2020-05-26T19:26:21.482Z</time>
      </trkpt>
      <trkpt lat="43.55805" lon="6.46264">
        <ele>538.83038330078</ele>
        <time>2020-05-26T19:26:23.320Z</time>
      </trkpt>
      <trkpt lat="43.55813" lon="6.46252">
        <ele>539.7421875</ele>
        <time>2020-05-26T19:26:25.160Z</time>
      </trkpt>
      <trkpt lat="43.55822" lon="6.46247">
        <ele>539.85015869141</ele>
        <time>2020-05-26T19:26:27.002Z</time>
      </trkpt>
      <trkpt lat="43.5583" lon="6.46256">
        <ele>538.49438476562</ele>
        <time>2020-05-26T19:26:28.847Z</time>
      </trkpt>
      <trkpt lat="43.55838" lon="6.46261">
        <ele>537.57055664062</ele>
        <time>2020-05-26T19:26:30.693Z</time>
      </trkpt>
      <trkpt lat="43.55847" lon="6.46254">
        <ele>537.89453125</ele>
        <time>2020-05-26T19:26:32.541Z</time>
      </trkpt>
      <trkpt lat="43.55856" lon="6.46237">
        <ele>539.16070556641</ele>
        <time>2020-05-26T19:26:34.392Z</time>
      </trkpt>
      <trkpt lat="43.55868" lon="6.46231">
        <ele>538.55419921875</ele>
        <time>2020-05-26T19:26:36.246Z</time>
      </trkpt>
      <trkpt lat="43.55873" lon="6.46217">
        <ele>539.58605957031</ele>
        <time>2020-05-26T19:26:38.102Z</time>
      </trkpt>
      <trkpt lat="43.5588" lon="6.46238">
        <ele>536.77313232422</ele>
        <time>2020-05-26T19:26:39.962Z</time>
      </trkpt>
      <trkpt lat="43.55892" lon="6.46242">
        <ele>535.28533935547</ele>
        <time>2020-05-26T19:26:41.824Z</time>
      </trkpt>
      <trkpt lat="43.55912" lon="6.46256">
        <ele>532.18988037109</ele>
        <time>2020-05-26T19:26:43.691Z</time>
      </trkpt>
      <trkpt lat="43.55912" lon="6.46255">
        <ele>532.27386474609</ele>
        <time>2020-05-26T19:26:45.558Z</time>
      </trkpt>
      <trkpt lat="43.55918" lon="6.4626">
        <ele>531.27801513672</ele>
        <time>2020-05-26T19:26:47.426Z</time>
      </trkpt>
      <trkpt lat="43.55928" lon="6.46263">
        <ele>530.06622314453</ele>
        <time>2020-05-26T19:26:49.296Z</time>
      </trkpt>
      <trkpt lat="43.55944" lon="6.4626">
        <ele>529.24584960938</ele>
        <time>2020-05-26T19:26:51.169Z</time>
      </trkpt>
      <trkpt lat="43.55953" lon="6.46267">
        <ele>528.22607421875</ele>
        <time>2020-05-26T19:26:53.044Z</time>
      </trkpt>
      <trkpt lat="43.5597" lon="6.46262">
        <ele>527.75354003906</ele>
        <time>2020-05-26T19:26:54.923Z</time>
      </trkpt>
      <trkpt lat="43.55972" lon="6.46254">
        <ele>528.20947265625</ele>
        <time>2020-05-26T19:26:56.803Z</time>
      </trkpt>
      <trkpt lat="43.5597" lon="6.46241">
        <ele>529.26531982422</ele>
        <time>2020-05-26T19:26:58.685Z</time>
      </trkpt>
      <trkpt lat="43.55975" lon="6.46231">
        <ele>529.72662353516</ele>
        <time>2020-05-26T19:27:00.569Z</time>
      </trkpt>
      <trkpt lat="43.55982" lon="6.46229">
        <ele>529.49865722656</ele>
        <time>2020-05-26T19:27:02.454Z</time>
      </trkpt>
      <trkpt lat="43.55993" lon="6.4623">
        <ele>528.74279785156</ele>
        <time>2020-05-26T19:27:04.341Z</time>
      </trkpt>
      <trkpt lat="43.55999" lon="6.46237">
        <ele>527.81353759766</ele>
        <time>2020-05-26T19:27:06.230Z</time>
      </trkpt>
      <trkpt lat="43.5601" lon="6.46237">
        <ele>527.15362548828</ele>
        <time>2020-05-26T19:27:08.121Z</time>
      </trkpt>
      <trkpt lat="43.56012" lon="6.46224">
        <ele>527.96044921875</ele>
        <time>2020-05-26T19:27:10.014Z</time>
      </trkpt>
      <trkpt lat="43.56021" lon="6.46218">
        <ele>526.99603271484</ele>
        <time>2020-05-26T19:27:11.909Z</time>
      </trkpt>
      <trkpt lat="43.56025" lon="6.46221">
        <ele>526.49212646484</ele>
        <time>2020-05-26T19:27:13.805Z</time>
      </trkpt>
      <trkpt lat="43.56031" lon="6.46211">
        <ele>526.08416748047</ele>
        <time>2020-05-26T19:27:15.703Z</time>
      </trkpt>
      <trkpt lat="43.5603" lon="6.46198">
        <ele>526.50408935547</ele>
        <time>2020-05-26T19:27:17.603Z</time>
      </trkpt>
      <trkpt lat="43.56047" lon="6.46169">
        <ele>525.248046875</ele>
        <time>2020-05-26T19:27:19.508Z</time>
      </trkpt>
      <trkpt lat="43.56051" lon="6.46149">
        <ele>525.03076171875</ele>
        <time>2020-05-26T19:27:21.416Z</time>
      </trkpt>
      <trkpt lat="43.5607" lon="6.46139">
        <ele>523.47106933594</ele>
        <time>2020-05-26T19:27:23.328Z</time>
      </trkpt>
      <trkpt lat="43.56064" lon="6.46121">
        <ele>525.48669433594</ele>
        <time>2020-05-26T19:27:25.243Z</time>
      </trkpt>
      <trkpt lat="43.56064" lon="6.46102">
        <ele>525.24169921875</ele>
        <time>2020-05-26T19:27:27.161Z</time>
      </trkpt>
      <trkpt lat="43.56071" lon="6.46072">
        <ele>520.79046630859</ele>
        <time>2020-05-26T19:27:29.084Z</time>
      </trkpt>
      <trkpt lat="43.56077" lon="6.46061">
        <ele>518.93518066406</ele>
        <time>2020-05-26T19:27:31.009Z</time>
      </trkpt>
      <trkpt lat="43.56094" lon="6.46051">
        <ele>514.36437988281</ele>
        <time>2020-05-26T19:27:32.937Z</time>
      </trkpt>
      <trkpt lat="43.56106" lon="6.46029">
        <ele>511.64279174805</ele>
        <time>2020-05-26T19:27:34.869Z</time>
      </trkpt>
      <trkpt lat="43.56135" lon="6.4599">
        <ele>507.95669555664</ele>
        <time>2020-05-26T19:27:36.809Z</time>
      </trkpt>
      <trkpt lat="43.56148" lon="6.45977">
        <ele>506.62036132812</ele>
        <time>2020-05-26T19:27:38.753Z</time>
      </trkpt>
      <trkpt lat="43.56146" lon="6.45991">
        <ele>506.56491088867</ele>
        <time>2020-05-26T19:27:40.699Z</time>
      </trkpt>
      <trkpt lat="43.56166" lon="6.45997">
        <ele>504.28530883789</ele>
        <time>2020-05-26T19:27:42.649Z</time>
      </trkpt>
      <trkpt lat="43.56189" lon="6.4601">
        <ele>502.86016845703</ele>
        <time>2020-05-26T19:27:44.604Z</time>
      </trkpt>
      <trkpt lat="43.56188" lon="6.46064">
        <ele>506.05163574219</ele>
        <time>2020-05-26T19:27:46.567Z</time>
      </trkpt>
      <trkpt lat="43.56158" lon="6.46091">
        <ele>507.8994140625</ele>
        <time>2020-05-26T19:27:48.537Z</time>
      </trkpt>
      <trkpt lat="43.56148" lon="6.46119">
        <ele>509.12384033203</ele>
        <time>2020-05-26T19:27:50.511Z</time>
      </trkpt>
      <trkpt lat="43.56122" lon="6.46199">
        <ele>513.62609863281</ele>
        <time>2020-05-26T19:27:52.498Z</time>
      </trkpt>
      <trkpt lat="43.56105" lon="6.4626">
        <ele>515.97979736328</ele>
        <time>2020-05-26T19:27:54.495Z</time>
      </trkpt>
      <trkpt lat="43.56087" lon="6.46321">
        <ele>515.478515625</ele>
        <time>2020-05-26T19:27:56.501Z</time>
      </trkpt>
      <trkpt lat="43.56068" lon="6.4636">
        <ele>512.63494873047</ele>
        <time>2020-05-26T19:27:58.514Z</time>
      </trkpt>
      <trkpt lat="43.56074" lon="6.46394">
        <ele>508.27227783203</ele>
        <time>2020-05-26T19:28:00.532Z</time>
      </trkpt>
      <trkpt lat="43.56085" lon="6.46437">
        <ele>502.45324707031</ele>
        <time>2020-05-26T19:28:02.557Z</time>
      </trkpt>
      <trkpt lat="43.56079" lon="6.46493">
        <ele>496.56655883789</ele>
        <time>2020-05-26T19:28:04.590Z</time>
      </trkpt>
      <trkpt lat="43.5605" lon="6.46529">
        <ele>495.896484375</ele>
        <time>2020-05-26T19:28:06.631Z</time>
      </trkpt>
      <trkpt lat="43.56056" lon="6.46529">
        <ele>495.75250244141</ele>
        <time>2020-05-26T19:28:08.673Z</time>
      </trkpt>
      <trkpt lat="43.5606" lon="6.46531">
        <ele>495.51254272461</ele>
        <time>2020-05-26T19:28:10.716Z</time>
      </trkpt>
      <trkpt lat="43.56097" lon="6.46575">
        <ele>491.88366699219</ele>
        <time>2020-05-26T19:28:12.769Z</time>
      </trkpt>
      <trkpt lat="43.56096" lon="6.46575">
        <ele>491.90768432617</ele>
        <time>2020-05-26T19:28:14.822Z</time>
      </trkpt>
      <trkpt lat="43.56135" lon="6.4661">
        <ele>498.68893432617</ele>
        <time>2020-05-26T19:28:16.884Z</time>
      </trkpt>
      <trkpt lat="43.56146" lon="6.46613">
        <ele>501.12454223633</ele>
        <time>2020-05-26T19:28:18.948Z</time>
      </trkpt>
      <trkpt lat="43.5616" lon="6.46704">
        <ele>503.98153686523</ele>
        <time>2020-05-26T19:28:21.026Z</time>
      </trkpt>
      <trkpt lat="43.56173" lon="6.46795">
        <ele>509.97946166992</ele>
        <time>2020-05-26T19:28:23.117Z</time>
      </trkpt>
      <trkpt lat="43.56155" lon="6.46868">
        <ele>511.57235717773</ele>
        <time>2020-05-26T19:28:25.220Z</time>
      </trkpt>
      <trkpt lat="43.56147" lon="6.46924">
        <ele>518.78338623047</ele>
        <time>2020-05-26T19:28:27.331Z</time>
      </trkpt>
      <trkpt lat="43.56121" lon="6.46962">
        <ele>520.82946777344</ele>
        <time>2020-05-26T19:28:29.449Z</time>
      </trkpt>
      <trkpt lat="43.56085" lon="6.46991">
        <ele>518.71600341797</ele>
        <time>2020-05-26T19:28:31.576Z</time>
      </trkpt>
      <trkpt lat="43.56031" lon="6.47076">
        <ele>524.00830078125</ele>
        <time>2020-05-26T19:28:33.719Z</time>
      </trkpt>
      <trkpt lat="43.55998" lon="6.4713">
        <ele>524.27801513672</ele>
        <time>2020-05-26T19:28:35.872Z</time>
      </trkpt>
      <trkpt lat="43.55974" lon="6.47184">
        <ele>521.85107421875</ele>
        <time>2020-05-26T19:28:38.035Z</time>
      </trkpt>
      <trkpt lat="43.55961" lon="6.47232">
        <ele>523.25958251953</ele>
        <time>2020-05-26T19:28:40.205Z</time>
      </trkpt>
      <trkpt lat="43.55963" lon="6.47269">
        <ele>524.01104736328</ele>
        <time>2020-05-26T19:28:42.380Z</time>
      </trkpt>
      <trkpt lat="43.55972" lon="6.4731">
        <ele>528.30633544922</ele>
        <time>2020-05-26T19:28:44.562Z</time>
      </trkpt>
      <trkpt lat="43.56018" lon="6.47346">
        <ele>535.89465332031</ele>
        <time>2020-05-26T19:28:46.754Z</time>
      </trkpt>
      <trkpt lat="43.56039" lon="6.47346">
        <ele>538.41424560547</ele>
        <time>2020-05-26T19:28:48.951Z</time>
      </trkpt>
      <trkpt lat="43.5607" lon="6.47303">
        <ele>544.43487548828</ele>
        <time>2020-05-26T19:28:51.156Z</time>
      </trkpt>
      <trkpt lat="43.56094" lon="6.47288">
        <ele>547.49438476562</ele>
        <time>2020-05-26T19:28:53.367Z</time>
      </trkpt>
      <trkpt lat="43.56119" lon="6.47259">
        <ele>549.54876708984</ele>
        <time>2020-05-26T19:28:55.584Z</time>
      </trkpt>
      <trkpt lat="43.56128" lon="6.47241">
        <ele>550.64910888672</ele>
        <time>2020-05-26T19:28:57.804Z</time>
      </trkpt>
      <trkpt lat="43.56139" lon="6.47223">
        <ele>551.61413574219</ele>
        <time>2020-05-26T19:29:00.028Z</time>
      </trkpt>
      <trkpt lat="43.56142" lon="6.47209">
        <ele>551.662109375</ele>
        <time>2020-05-26T19:29:02.254Z</time>
      </trkpt>
      <trkpt lat="43.56127" lon="6.47201">
        <ele>550.486328125</ele>
        <time>2020-05-26T19:29:04.483Z</time>
      </trkpt>
      <trkpt lat="43.56112" lon="6.47127">
        <ele>546.20825195312</ele>
        <time>2020-05-26T19:29:06.723Z</time>
      </trkpt>
      <trkpt lat="43.56148" lon="6.47093">
        <ele>546.57586669922</ele>
        <time>2020-05-26T19:29:08.972Z</time>
      </trkpt>
      <trkpt lat="43.56162" lon="6.47076">
        <ele>547.33172607422</ele>
        <time>2020-05-26T19:29:11.225Z</time>
      </trkpt>
      <trkpt lat="43.56169" lon="6.47075">
        <ele>548.33959960938</ele>
        <time>2020-05-26T19:29:13.479Z</time>
      </trkpt>
      <trkpt lat="43.56185" lon="6.47073">
        <ele>550.65979003906</ele>
        <time>2020-05-26T19:29:15.736Z</time>
      </trkpt>
      <trkpt lat="43.56188" lon="6.47048">
        <ele>547.68206787109</ele>
        <time>2020-05-26T19:29:17.997Z</time>
      </trkpt>
      <trkpt lat="43.56207" lon="6.47021">
        <ele>546.20635986328</ele>
        <time>2020-05-26T19:29:20.263Z</time>
      </trkpt>
      <trkpt lat="43.56224" lon="6.47018">
        <ele>548.45385742188</ele>
        <time>2020-05-26T19:29:22.533Z</time>
      </trkpt>
      <trkpt lat="43.56232" lon="6.46983">
        <ele>546.72613525391</ele>
        <time>2020-05-26T19:29:24.808Z</time>
      </trkpt>
      <trkpt lat="43.56284" lon="6.46928">
        <ele>550.73706054688</ele>
        <time>2020-05-26T19:29:27.096Z</time>
      </trkpt>
      <trkpt lat="43.56281" lon="6.46902">
        <ele>547.00567626953</ele>
        <time>2020-05-26T19:29:29.388Z</time>
      </trkpt>
      <trkpt lat="43.56306" lon="6.46846">
        <ele>547.31176757812</ele>
        <time>2020-05-26T19:29:31.690Z</time>
      </trkpt>
      <trkpt lat="43.56344" lon="6.4681">
        <ele>552.33441162109</ele>
        <time>2020-05-26T19:29:34.001Z</time>
      </trkpt>
      <trkpt lat="43.5635" lon="6.46753">
        <ele>552.99609375</ele>
        <time>2020-05-26T19:29:36.320Z</time>
      </trkpt>
      <trkpt lat="43.56364" lon="6.46743">
        <ele>554.48468017578</ele>
        <time>2020-05-26T19:29:38.642Z</time>
      </trkpt>
      <trkpt lat="43.56351" lon="6.46719">
        <ele>552.48480224609</ele>
        <time>2020-05-26T19:29:40.969Z</time>
      </trkpt>
      <trkpt lat="43.5635" lon="6.46698">
        <ele>551.5009765625</ele>
        <time>2020-05-26T19:29:43.299Z</time>
      </trkpt>
      <trkpt lat="43.5635" lon="6.46697">
        <ele>551.46496582031</ele>
        <time>2020-05-26T19:29:45.629Z</time>
      </trkpt>
      <trkpt lat="43.56342" lon="6.4667">
        <ele>548.66943359375</ele>
        <time>2020-05-26T19:29:47.963Z</time>
      </trkpt>
      <trkpt lat="43.56343" lon="6.46662">
        <ele>548.60943603516</ele>
        <time>2020-05-26T19:29:50.298Z</time>
      </trkpt>
      <trkpt lat="43.56347" lon="6.46654">
        <ele>549.23333740234</ele>
        <time>2020-05-26T19:29:52.635Z</time>
      </trkpt>
      <trkpt lat="43.56341" lon="6.46649">
        <ele>547.63024902344</ele>
        <time>2020-05-26T19:29:54.973Z</time>
      </trkpt>
      <trkpt lat="43.56333" lon="6.46647">
        <ele>545.49456787109</ele>
        <time>2020-05-26T19:29:57.313Z</time>
      </trkpt>
      <trkpt lat="43.56328" lon="6.46638">
        <ele>542.95098876953</ele>
        <time>2020-05-26T19:29:59.655Z</time>
      </trkpt>
      <trkpt lat="43.56335" lon="6.46638">
        <ele>544.54675292969</ele>
        <time>2020-05-26T19:30:01.998Z</time>
      </trkpt>
      <trkpt lat="43.56333" lon="6.4663">
        <ele>542.77673339844</ele>
        <time>2020-05-26T19:30:04.342Z</time>
      </trkpt>
      <trkpt lat="43.56336" lon="6.46621">
        <ele>541.48095703125</ele>
        <time>2020-05-26T19:30:06.688Z</time>
      </trkpt>
      <trkpt lat="43.56326" lon="6.46608">
        <ele>537.02966308594</ele>
        <time>2020-05-26T19:30:09.036Z</time>
      </trkpt>
      <trkpt lat="43.56335" lon="6.46601">
        <ele>537.22161865234</ele>
        <time>2020-05-26T19:30:11.386Z</time>
      </trkpt>
      <trkpt lat="43.56336" lon="6.46585">
        <ele>534.13818359375</ele>
        <time>2020-05-26T19:30:13.739Z</time>
      </trkpt>
      <trkpt lat="43.56331" lon="6.46581">
        <ele>532.42242431641</ele>
        <time>2020-05-26T19:30:16.093Z</time>
      </trkpt>
      <trkpt lat="43.56314" lon="6.46588">
        <ele>530.79071044922</ele>
        <time>2020-05-26T19:30:18.450Z</time>
      </trkpt>
      <trkpt lat="43.56317" lon="6.46574">
        <ele>528.47509765625</ele>
        <time>2020-05-26T19:30:20.810Z</time>
      </trkpt>
      <trkpt lat="43.56313" lon="6.46562">
        <ele>524.86340332031</ele>
        <time>2020-05-26T19:30:23.172Z</time>
      </trkpt>
      <trkpt lat="43.56306" lon="6.46554">
        <ele>521.10803222656</ele>
        <time>2020-05-26T19:30:25.535Z</time>
      </trkpt>
      <trkpt lat="43.56298" lon="6.46537">
        <ele>514.36511230469</ele>
        <time>2020-05-26T19:30:27.901Z</time>
      </trkpt>
      <trkpt lat="43.56291" lon="6.46538">
        <ele>513.41729736328</ele>
        <time>2020-05-26T19:30:30.269Z</time>
      </trkpt>
      <trkpt lat="43.56292" lon="6.46534">
        <ele>512.34948730469</ele>
        <time>2020-05-26T19:30:32.637Z</time>
      </trkpt>
      <trkpt lat="43.56289" lon="6.46531">
        <ele>510.87371826172</ele>
        <time>2020-05-26T19:30:35.006Z</time>
      </trkpt>
      <trkpt lat="43.56284" lon="6.46511">
        <ele>503.73489379883</ele>
        <time>2020-05-26T19:30:37.378Z</time>
      </trkpt>
      <trkpt lat="43.56283" lon="6.46509">
        <ele>502.93103027344</ele>
        <time>2020-05-26T19:30:39.750Z</time>
      </trkpt>
      <trkpt lat="43.56311" lon="6.46495">
        <ele>504.34762573242</ele>
        <time>2020-05-26T19:30:42.128Z</time>
      </trkpt>
      <trkpt lat="43.56323" lon="6.46495">
        <ele>506.79522705078</ele>
        <time>2020-05-26T19:30:44.509Z</time>
      </trkpt>
      <trkpt lat="43.5635" lon="6.46501">
        <ele>514.03002929688</ele>
        <time>2020-05-26T19:30:46.895Z</time>
      </trkpt>
      <trkpt lat="43.56365" lon="6.46497">
        <ele>514.6015625</ele>
        <time>2020-05-26T19:30:49.284Z</time>
      </trkpt>
      <trkpt lat="43.56375" lon="6.46488">
        <ele>513.98663330078</ele>
        <time>2020-05-26T19:30:51.676Z</time>
      </trkpt>
      <trkpt lat="43.56391" lon="6.4644">
        <ele>510.60845947266</ele>
        <time>2020-05-26T19:30:54.075Z</time>
      </trkpt>
      <trkpt lat="43.56402" lon="6.46428">
        <ele>510.76034545898</ele>
        <time>2020-05-26T19:30:56.477Z</time>
      </trkpt>
      <trkpt lat="43.56435" lon="6.46405">
        <ele>512.80700683594</ele>
        <time>2020-05-26T19:30:58.887Z</time>
      </trkpt>
      <trkpt lat="43.56443" lon="6.46396">
        <ele>514.03692626953</ele>
        <time>2020-05-26T19:31:01.299Z</time>
      </trkpt>
      <trkpt lat="43.56458" lon="6.46368">
        <ele>516.80847167969</ele>
        <time>2020-05-26T19:31:03.716Z</time>
      </trkpt>
      <trkpt lat="43.56472" lon="6.46347">
        <ele>518.86242675781</ele>
        <time>2020-05-26T19:31:06.137Z</time>
      </trkpt>
      <trkpt lat="43.5648" lon="6.46338">
        <ele>518.71844482422</ele>
        <time>2020-05-26T19:31:08.560Z</time>
      </trkpt>
      <trkpt lat="43.56492" lon="6.46329">
        <ele>519.150390625</ele>
        <time>2020-05-26T19:31:10.986Z</time>
      </trkpt>
      <trkpt lat="43.56536" lon="6.46306">
        <ele>523.18670654297</ele>
        <time>2020-05-26T19:31:13.421Z</time>
      </trkpt>
      <trkpt lat="43.56556" lon="6.463">
        <ele>525.58630371094</ele>
        <time>2020-05-26T19:31:15.860Z</time>
      </trkpt>
      <trkpt lat="43.56572" lon="6.46294">
        <ele>527.50598144531</ele>
        <time>2020-05-26T19:31:18.303Z</time>
      </trkpt>
      <trkpt lat="43.56569" lon="6.46351">
        <ele>530.91760253906</ele>
        <time>2020-05-26T19:31:20.754Z</time>
      </trkpt>
      <trkpt lat="43.56574" lon="6.46368">
        <ele>533.35321044922</ele>
        <time>2020-05-26T19:31:23.208Z</time>
      </trkpt>
      <trkpt lat="43.56594" lon="6.46374">
        <ele>536.40069580078</ele>
        <time>2020-05-26T19:31:25.666Z</time>
      </trkpt>
      <trkpt lat="43.56602" lon="6.46385">
        <ele>538.35858154297</ele>
        <time>2020-05-26T19:31:28.126Z</time>
      </trkpt>
      <trkpt lat="43.56612" lon="6.46394">
        <ele>538.37060546875</ele>
        <time>2020-05-26T19:31:30.588Z</time>
      </trkpt>
      <trkpt lat="43.5662" lon="6.46418">
        <ele>540.41723632812</ele>
        <time>2020-05-26T19:31:33.054Z</time>
      </trkpt>
      <trkpt lat="43.56636" lon="6.46449">
        <ele>541.71887207031</ele>
        <time>2020-05-26T19:31:35.526Z</time>
      </trkpt>
      <trkpt lat="43.56641" lon="6.4648">
        <ele>543.39862060547</ele>
        <time>2020-05-26T19:31:38.002Z</time>
      </trkpt>
      <trkpt lat="43.56639" lon="6.46513">
        <ele>543.63659667969</ele>
        <time>2020-05-26T19:31:40.483Z</time>
      </trkpt>
      <trkpt lat="43.56633" lon="6.46545">
        <ele>546.03771972656</ele>
        <time>2020-05-26T19:31:42.969Z</time>
      </trkpt>
      <trkpt lat="43.56631" lon="6.46642">
        <ele>552.35461425781</ele>
        <time>2020-05-26T19:31:45.469Z</time>
      </trkpt>
      <trkpt lat="43.56621" lon="6.46672">
        <ele>554.21588134766</ele>
        <time>2020-05-26T19:31:47.974Z</time>
      </trkpt>
      <trkpt lat="43.5662" lon="6.46701">
        <ele>554.76776123047</ele>
        <time>2020-05-26T19:31:50.483Z</time>
      </trkpt>
      <trkpt lat="43.56614" lon="6.46733">
        <ele>556.3916015625</ele>
        <time>2020-05-26T19:31:52.997Z</time>
      </trkpt>
      <trkpt lat="43.56615" lon="6.46796">
        <ele>558.68469238281</ele>
        <time>2020-05-26T19:31:55.520Z</time>
      </trkpt>
      <trkpt lat="43.56621" lon="6.46829">
        <ele>559.91748046875</ele>
        <time>2020-05-26T19:31:58.048Z</time>
      </trkpt>
      <trkpt lat="43.56615" lon="6.46861">
        <ele>563.06262207031</ele>
        <time>2020-05-26T19:32:00.581Z</time>
      </trkpt>
      <trkpt lat="43.56632" lon="6.46881">
        <ele>563.07464599609</ele>
        <time>2020-05-26T19:32:03.118Z</time>
      </trkpt>
      <trkpt lat="43.56641" lon="6.46909">
        <ele>564.67626953125</ele>
        <time>2020-05-26T19:32:05.660Z</time>
      </trkpt>
      <trkpt lat="43.56644" lon="6.46947">
        <ele>568.19512939453</ele>
        <time>2020-05-26T19:32:08.207Z</time>
      </trkpt>
      <trkpt lat="43.56656" lon="6.47004">
        <ele>570.35656738281</ele>
        <time>2020-05-26T19:32:10.763Z</time>
      </trkpt>
      <trkpt lat="43.56659" lon="6.47035">
        <ele>571.80834960938</ele>
        <time>2020-05-26T19:32:13.323Z</time>
      </trkpt>
      <trkpt lat="43.56673" lon="6.47066">
        <ele>573.12811279297</ele>
        <time>2020-05-26T19:32:15.889Z</time>
      </trkpt>
      <trkpt lat="43.5667" lon="6.47084">
        <ele>574.02795410156</ele>
        <time>2020-05-26T19:32:18.457Z</time>
      </trkpt>
      <trkpt lat="43.56689" lon="6.4712">
        <ele>575.85394287109</ele>
        <time>2020-05-26T19:32:21.032Z</time>
      </trkpt>
      <trkpt lat="43.56682" lon="6.47145">
        <ele>576.8115234375</ele>
        <time>2020-05-26T19:32:23.611Z</time>
      </trkpt>
      <trkpt lat="43.5671" lon="6.47184">
        <ele>579.64984130859</ele>
        <time>2020-05-26T19:32:26.198Z</time>
      </trkpt>
      <trkpt lat="43.5673" lon="6.47229">
        <ele>581.50952148438</ele>
        <time>2020-05-26T19:32:28.792Z</time>
      </trkpt>
      <trkpt lat="43.5677" lon="6.47304">
        <ele>583.70257568359</ele>
        <time>2020-05-26T19:32:31.400Z</time>
      </trkpt>
      <trkpt lat="43.5677" lon="6.47303">
        <ele>583.73858642578</ele>
        <time>2020-05-26T19:32:34.008Z</time>
      </trkpt>
      <trkpt lat="43.56775" lon="6.47312">
        <ele>584.01452636719</ele>
        <time>2020-05-26T19:32:36.618Z</time>
      </trkpt>
      <trkpt lat="43.56828" lon="6.47328">
        <ele>589.51538085938</ele>
        <time>2020-05-26T19:32:39.239Z</time>
      </trkpt>
      <trkpt lat="43.56839" lon="6.4736">
        <ele>588.91546630859</ele>
        <time>2020-05-26T19:32:41.865Z</time>
      </trkpt>
      <trkpt lat="43.56842" lon="6.47392">
        <ele>587.37463378906</ele>
        <time>2020-05-26T19:32:44.495Z</time>
      </trkpt>
      <trkpt lat="43.56855" lon="6.47409">
        <ele>586.30584716797</ele>
        <time>2020-05-26T19:32:47.129Z</time>
      </trkpt>
      <trkpt lat="43.56848" lon="6.47444">
        <ele>579.66534423828</ele>
        <time>2020-05-26T19:32:49.768Z</time>
      </trkpt>
      <trkpt lat="43.56852" lon="6.47457">
        <ele>577.66729736328</ele>
        <time>2020-05-26T19:32:52.409Z</time>
      </trkpt>
      <trkpt lat="43.56849" lon="6.47487">
        <ele>572.3076171875</ele>
        <time>2020-05-26T19:32:55.055Z</time>
      </trkpt>
      <trkpt lat="43.56843" lon="6.47495">
        <ele>570.81988525391</ele>
        <time>2020-05-26T19:32:57.702Z</time>
      </trkpt>
      <trkpt lat="43.56835" lon="6.47519">
        <ele>567.07647705078</ele>
        <time>2020-05-26T19:33:00.353Z</time>
      </trkpt>
      <trkpt lat="43.56823" lon="6.47545">
        <ele>562.53344726562</ele>
        <time>2020-05-26T19:33:03.009Z</time>
      </trkpt>
      <trkpt lat="43.56814" lon="6.47572">
        <ele>557.23223876953</ele>
        <time>2020-05-26T19:33:05.669Z</time>
      </trkpt>
      <trkpt lat="43.56827" lon="6.47631">
        <ele>550.71649169922</ele>
        <time>2020-05-26T19:33:08.338Z</time>
      </trkpt>
      <trkpt lat="43.56818" lon="6.47714">
        <ele>533.32330322266</ele>
        <time>2020-05-26T19:33:11.019Z</time>
      </trkpt>
      <trkpt lat="43.56803" lon="6.47728">
        <ele>528.14013671875</ele>
        <time>2020-05-26T19:33:13.704Z</time>
      </trkpt>
      <trkpt lat="43.5679" lon="6.47742">
        <ele>523.24499511719</ele>
        <time>2020-05-26T19:33:16.392Z</time>
      </trkpt>
      <trkpt lat="43.5681" lon="6.47801">
        <ele>514.31274414062</ele>
        <time>2020-05-26T19:33:19.090Z</time>
      </trkpt>
      <trkpt lat="43.56805" lon="6.47833">
        <ele>508.2138671875</ele>
        <time>2020-05-26T19:33:21.792Z</time>
      </trkpt>
      <trkpt lat="43.56785" lon="6.47846">
        <ele>504.62005615234</ele>
        <time>2020-05-26T19:33:24.499Z</time>
      </trkpt>
      <trkpt lat="43.56775" lon="6.47901">
        <ele>498.2490234375</ele>
        <time>2020-05-26T19:33:27.214Z</time>
      </trkpt>
      <trkpt lat="43.5678" lon="6.4794">
        <ele>496.69454956055</ele>
        <time>2020-05-26T19:33:29.935Z</time>
      </trkpt>
      <trkpt lat="43.56777" lon="6.47966">
        <ele>495.72268676758</ele>
        <time>2020-05-26T19:33:32.660Z</time>
      </trkpt>
      <trkpt lat="43.56807" lon="6.48013">
        <ele>491.8727722168</ele>
        <time>2020-05-26T19:33:35.394Z</time>
      </trkpt>
      <trkpt lat="43.56807" lon="6.48052">
        <ele>489.69622802734</ele>
        <time>2020-05-26T19:33:38.133Z</time>
      </trkpt>
      <trkpt lat="43.56832" lon="6.48097">
        <ele>482.60113525391</ele>
        <time>2020-05-26T19:33:40.881Z</time>
      </trkpt>
      <trkpt lat="43.56835" lon="6.48118">
        <ele>479.10971069336</ele>
        <time>2020-05-26T19:33:43.632Z</time>
      </trkpt>
      <trkpt lat="43.56852" lon="6.48131">
        <ele>475.77792358398</ele>
        <time>2020-05-26T19:33:46.387Z</time>
      </trkpt>
      <trkpt lat="43.56867" lon="6.48164">
        <ele>466.22540283203</ele>
        <time>2020-05-26T19:33:49.147Z</time>
      </trkpt>
      <trkpt lat="43.56888" lon="6.48161">
        <ele>463.56185913086</ele>
        <time>2020-05-26T19:33:51.911Z</time>
      </trkpt>
      <trkpt lat="43.56891" lon="6.48187">
        <ele>455.57119750977</ele>
        <time>2020-05-26T19:33:54.679Z</time>
      </trkpt>
      <trkpt lat="43.56916" lon="6.48212">
        <ele>444.17309570312</ele>
        <time>2020-05-26T19:33:57.453Z</time>
      </trkpt>
      <trkpt lat="43.56917" lon="6.48213">
        <ele>443.71716308594</ele>
        <time>2020-05-26T19:34:00.228Z</time>
      </trkpt>
      <trkpt lat="43.56941" lon="6.48204">
        <ele>441.49877929688</ele>
        <time>2020-05-26T19:34:03.008Z</time>
      </trkpt>
      <trkpt lat="43.56958" lon="6.48202">
        <ele>437.17950439453</ele>
        <time>2020-05-26T19:34:05.791Z</time>
      </trkpt>
      <trkpt lat="43.56965" lon="6.48198">
        <ele>436.31564331055</ele>
        <time>2020-05-26T19:34:08.576Z</time>
      </trkpt>
      <trkpt lat="43.56973" lon="6.48194">
        <ele>435.16381835938</ele>
        <time>2020-05-26T19:34:11.362Z</time>
      </trkpt>
      <trkpt lat="43.56983" lon="6.48221">
        <ele>424.50961303711</ele>
        <time>2020-05-26T19:34:14.153Z</time>
      </trkpt>
      <trkpt lat="43.5698" lon="6.48256">
        <ele>418.32290649414</ele>
        <time>2020-05-26T19:34:16.949Z</time>
      </trkpt>
      <trkpt lat="43.56987" lon="6.48261">
        <ele>415.52737426758</ele>
        <time>2020-05-26T19:34:19.746Z</time>
      </trkpt>
      <trkpt lat="43.57025" lon="6.48245">
        <ele>410.42288208008</ele>
        <time>2020-05-26T19:34:22.551Z</time>
      </trkpt>
      <trkpt lat="43.57043" lon="6.48249">
        <ele>413.25924682617</ele>
        <time>2020-05-26T19:34:25.360Z</time>
      </trkpt>
      <trkpt lat="43.57043" lon="6.48209">
        <ele>420.74670410156</ele>
        <time>2020-05-26T19:34:28.175Z</time>
      </trkpt>
      <trkpt lat="43.57073" lon="6.48149">
        <ele>431.11468505859</ele>
        <time>2020-05-26T19:34:31.000Z</time>
      </trkpt>
      <trkpt lat="43.57087" lon="6.48078">
        <ele>434.8747253418</ele>
        <time>2020-05-26T19:34:33.836Z</time>
      </trkpt>
      <trkpt lat="43.57128" lon="6.47997">
        <ele>442.94714355469</ele>
        <time>2020-05-26T19:34:36.687Z</time>
      </trkpt>
      <trkpt lat="43.57146" lon="6.47962">
        <ele>447.97674560547</ele>
        <time>2020-05-26T19:34:39.544Z</time>
      </trkpt>
      <trkpt lat="43.57177" lon="6.4791">
        <ele>446.84365844727</ele>
        <time>2020-05-26T19:34:42.411Z</time>
      </trkpt>
      <trkpt lat="43.57196" lon="6.47848">
        <ele>447.36614990234</ele>
        <time>2020-05-26T19:34:45.287Z</time>
      </trkpt>
      <trkpt lat="43.5721" lon="6.47737">
        <ele>452.60498046875</ele>
        <time>2020-05-26T19:34:48.180Z</time>
      </trkpt>
      <trkpt lat="43.57216" lon="6.47616">
        <ele>461.43933105469</ele>
        <time>2020-05-26T19:34:51.090Z</time>
      </trkpt>
      <trkpt lat="43.57229" lon="6.47553">
        <ele>461.8899230957</ele>
        <time>2020-05-26T19:34:54.010Z</time>
      </trkpt>
      <trkpt lat="43.57241" lon="6.4749">
        <ele>457.83142089844</ele>
        <time>2020-05-26T19:34:56.939Z</time>
      </trkpt>
      <trkpt lat="43.57284" lon="6.47446">
        <ele>460.47720336914</ele>
        <time>2020-05-26T19:34:59.879Z</time>
      </trkpt>
      <trkpt lat="43.57323" lon="6.4743">
        <ele>465.3454284668</ele>
        <time>2020-05-26T19:35:02.827Z</time>
      </trkpt>
      <trkpt lat="43.57345" lon="6.47426">
        <ele>466.35327148438</ele>
        <time>2020-05-26T19:35:05.780Z</time>
      </trkpt>
      <trkpt lat="43.5736" lon="6.47424">
        <ele>466.61999511719</ele>
        <time>2020-05-26T19:35:08.736Z</time>
      </trkpt>
      <trkpt lat="43.57399" lon="6.47439">
        <ele>470.24819946289</ele>
        <time>2020-05-26T19:35:11.700Z</time>
      </trkpt>
      <trkpt lat="43.5741" lon="6.47477">
        <ele>474.85061645508</ele>
        <time>2020-05-26T19:35:14.670Z</time>
      </trkpt>
      <trkpt lat="43.57426" lon="6.47555">
        <ele>480.22015380859</ele>
        <time>2020-05-26T19:35:17.651Z</time>
      </trkpt>
      <trkpt lat="43.57435" lon="6.47619">
        <ele>482.89270019531</ele>
        <time>2020-05-26T19:35:20.642Z</time>
      </trkpt>
      <trkpt lat="43.57436" lon="6.47709">
        <ele>483.25390625</ele>
        <time>2020-05-26T19:35:23.646Z</time>
      </trkpt>
      <trkpt lat="43.57419" lon="6.4779">
        <ele>482.7541809082</ele>
        <time>2020-05-26T19:35:26.662Z</time>
      </trkpt>
      <trkpt lat="43.57424" lon="6.47802">
        <ele>482.10629272461</ele>
        <time>2020-05-26T19:35:29.680Z</time>
      </trkpt>
      <trkpt lat="43.57437" lon="6.47794">
        <ele>481.62225341797</ele>
        <time>2020-05-26T19:35:32.701Z</time>
      </trkpt>
      <trkpt lat="43.57448" lon="6.47796">
        <ele>481.97021484375</ele>
        <time>2020-05-26T19:35:35.724Z</time>
      </trkpt>
      <trkpt lat="43.57456" lon="6.47764">
        <ele>483.02603149414</ele>
        <time>2020-05-26T19:35:38.752Z</time>
      </trkpt>
      <trkpt lat="43.57468" lon="6.47743">
        <ele>482.55920410156</ele>
        <time>2020-05-26T19:35:41.784Z</time>
      </trkpt>
      <trkpt lat="43.57478" lon="6.47739">
        <ele>482.17526245117</ele>
        <time>2020-05-26T19:35:44.818Z</time>
      </trkpt>
      <trkpt lat="43.57496" lon="6.47749">
        <ele>482.10330200195</ele>
        <time>2020-05-26T19:35:47.856Z</time>
      </trkpt>
      <trkpt lat="43.57513" lon="6.47745">
        <ele>481.55139160156</ele>
        <time>2020-05-26T19:35:50.898Z</time>
      </trkpt>
      <trkpt lat="43.57528" lon="6.47735">
        <ele>482.93103027344</ele>
        <time>2020-05-26T19:35:53.943Z</time>
      </trkpt>
      <trkpt lat="43.5754" lon="6.47708">
        <ele>485.83395385742</ele>
        <time>2020-05-26T19:35:56.992Z</time>
      </trkpt>
      <trkpt lat="43.57558" lon="6.47695">
        <ele>489.60131835938</ele>
        <time>2020-05-26T19:36:00.046Z</time>
      </trkpt>
      <trkpt lat="43.57558" lon="6.47683">
        <ele>489.88928222656</ele>
        <time>2020-05-26T19:36:03.101Z</time>
      </trkpt>
      <trkpt lat="43.57559" lon="6.47662">
        <ele>490.58517456055</ele>
        <time>2020-05-26T19:36:06.159Z</time>
      </trkpt>
      <trkpt lat="43.5755" lon="6.47646">
        <ele>489.41549682617</ele>
        <time>2020-05-26T19:36:09.220Z</time>
      </trkpt>
      <trkpt lat="43.57561" lon="6.47635">
        <ele>492.31903076172</ele>
        <time>2020-05-26T19:36:12.284Z</time>
      </trkpt>
      <trkpt lat="43.5757" lon="6.47619">
        <ele>495.19854736328</ele>
        <time>2020-05-26T19:36:15.351Z</time>
      </trkpt>
      <trkpt lat="43.57604" lon="6.4762">
        <ele>501.81372070312</ele>
        <time>2020-05-26T19:36:18.425Z</time>
      </trkpt>
      <trkpt lat="43.57626" lon="6.4763">
        <ele>503.61340332031</ele>
        <time>2020-05-26T19:36:21.503Z</time>
      </trkpt>
      <trkpt lat="43.57642" lon="6.47604">
        <ele>507.42947387695</ele>
        <time>2020-05-26T19:36:24.586Z</time>
      </trkpt>
      <trkpt lat="43.5764" lon="6.47576">
        <ele>507.04553222656</ele>
        <time>2020-05-26T19:36:27.673Z</time>
      </trkpt>
      <trkpt lat="43.57645" lon="6.4757">
        <ele>507.09353637695</ele>
        <time>2020-05-26T19:36:30.762Z</time>
      </trkpt>
      <trkpt lat="43.57673" lon="6.47554">
        <ele>509.13229370117</ele>
        <time>2020-05-26T19:36:33.857Z</time>
      </trkpt>
      <trkpt lat="43.57679" lon="6.47515">
        <ele>509.63619995117</ele>
        <time>2020-05-26T19:36:36.958Z</time>
      </trkpt>
      <trkpt lat="43.57698" lon="6.47486">
        <ele>508.259765625</ele>
        <time>2020-05-26T19:36:40.064Z</time>
      </trkpt>
      <trkpt lat="43.57703" lon="6.47465">
        <ele>507.57110595703</ele>
        <time>2020-05-26T19:36:43.174Z</time>
      </trkpt>
      <trkpt lat="43.57707" lon="6.4745">
        <ele>507.17517089844</ele>
        <time>2020-05-26T19:36:46.286Z</time>
      </trkpt>
      <trkpt lat="43.5771" lon="6.47413">
        <ele>506.75698852539</ele>
        <time>2020-05-26T19:36:49.403Z</time>
      </trkpt>
      <trkpt lat="43.57735" lon="6.47423">
        <ele>502.49771118164</ele>
        <time>2020-05-26T19:36:52.525Z</time>
      </trkpt>
      <trkpt lat="43.5774" lon="6.47431">
        <ele>501.78982543945</ele>
        <time>2020-05-26T19:36:55.649Z</time>
      </trkpt>
      <trkpt lat="43.5774" lon="6.4743">
        <ele>501.76583862305</ele>
        <time>2020-05-26T19:36:58.773Z</time>
      </trkpt>
      <trkpt lat="43.57749" lon="6.47445">
        <ele>500.50604248047</ele>
        <time>2020-05-26T19:37:01.900Z</time>
      </trkpt>
      <trkpt lat="43.5776" lon="6.47454">
        <ele>498.74234008789</ele>
        <time>2020-05-26T19:37:05.030Z</time>
      </trkpt>
      <trkpt lat="43.57776" lon="6.47446">
        <ele>496.63278198242</ele>
        <time>2020-05-26T19:37:08.163Z</time>
      </trkpt>
      <trkpt lat="43.57794" lon="6.47423">
        <ele>495.15725708008</ele>
        <time>2020-05-26T19:37:11.301Z</time>
      </trkpt>
      <trkpt lat="43.57806" lon="6.47424">
        <ele>495.12124633789</ele>
        <time>2020-05-26T19:37:14.441Z</time>
      </trkpt>
      <trkpt lat="43.57836" lon="6.47438">
        <ele>494.61734008789</ele>
        <time>2020-05-26T19:37:17.588Z</time>
      </trkpt>
      <trkpt lat="43.5787" lon="6.47447">
        <ele>492.50134277344</ele>
        <time>2020-05-26T19:37:20.742Z</time>
      </trkpt>
      <trkpt lat="43.57881" lon="6.47415">
        <ele>494.47888183594</ele>
        <time>2020-05-26T19:37:23.901Z</time>
      </trkpt>
      <trkpt lat="43.57912" lon="6.4734">
        <ele>502.71347045898</ele>
        <time>2020-05-26T19:37:27.072Z</time>
      </trkpt>
      <trkpt lat="43.57919" lon="6.47333">
        <ele>504.30920410156</ele>
        <time>2020-05-26T19:37:30.245Z</time>
      </trkpt>
      <trkpt lat="43.57919" lon="6.47334">
        <ele>504.20123291016</ele>
        <time>2020-05-26T19:37:33.418Z</time>
      </trkpt>
      <trkpt lat="43.57944" lon="6.47315">
        <ele>509.30477905273</ele>
        <time>2020-05-26T19:37:36.597Z</time>
      </trkpt>
      <trkpt lat="43.57976" lon="6.47311">
        <ele>513.76800537109</ele>
        <time>2020-05-26T19:37:39.782Z</time>
      </trkpt>
      <trkpt lat="43.58009" lon="6.47325">
        <ele>516.33740234375</ele>
        <time>2020-05-26T19:37:42.974Z</time>
      </trkpt>
      <trkpt lat="43.58013" lon="6.47311">
        <ele>518.65637207031</ele>
        <time>2020-05-26T19:37:46.168Z</time>
      </trkpt>
      <trkpt lat="43.58002" lon="6.47295">
        <ele>518.28442382812</ele>
        <time>2020-05-26T19:37:49.366Z</time>
      </trkpt>
      <trkpt lat="43.58005" lon="6.47271">
        <ele>520.76800537109</ele>
        <time>2020-05-26T19:37:52.567Z</time>
      </trkpt>
      <trkpt lat="43.58004" lon="6.47257">
        <ele>521.78784179688</ele>
        <time>2020-05-26T19:37:55.770Z</time>
      </trkpt>
      <trkpt lat="43.58006" lon="6.47231">
        <ele>524.41961669922</ele>
        <time>2020-05-26T19:37:58.977Z</time>
      </trkpt>
      <trkpt lat="43.57985" lon="6.47167">
        <ele>531.52087402344</ele>
        <time>2020-05-26T19:38:02.194Z</time>
      </trkpt>
      <trkpt lat="43.57959" lon="6.4714">
        <ele>531.91784667969</ele>
        <time>2020-05-26T19:38:05.418Z</time>
      </trkpt>
      <trkpt lat="43.57942" lon="6.47129">
        <ele>531.17401123047</ele>
        <time>2020-05-26T19:38:08.645Z</time>
      </trkpt>
      <trkpt lat="43.5794" lon="6.47123">
        <ele>531.98986816406</ele>
        <time>2020-05-26T19:38:11.873Z</time>
      </trkpt>
      <trkpt lat="43.5794" lon="6.47122">
        <ele>532.18182373047</ele>
        <time>2020-05-26T19:38:15.101Z</time>
      </trkpt>
      <trkpt lat="43.57939" lon="6.47114">
        <ele>533.54962158203</ele>
        <time>2020-05-26T19:38:18.331Z</time>
      </trkpt>
      <trkpt lat="43.57926" lon="6.47086">
        <ele>537.46978759766</ele>
        <time>2020-05-26T19:38:21.565Z</time>
      </trkpt>
      <trkpt lat="43.57904" lon="6.47005">
        <ele>550.81097412109</ele>
        <time>2020-05-26T19:38:24.812Z</time>
      </trkpt>
      <trkpt lat="43.57905" lon="6.46987">
        <ele>553.40252685547</ele>
        <time>2020-05-26T19:38:28.062Z</time>
      </trkpt>
      <trkpt lat="43.57903" lon="6.46942">
        <ele>559.0009765625</ele>
        <time>2020-05-26T19:38:31.318Z</time>
      </trkpt>
      <trkpt lat="43.57957" lon="6.46953">
        <ele>556.23608398438</ele>
        <time>2020-05-26T19:38:34.585Z</time>
      </trkpt>
      <trkpt lat="43.57956" lon="6.46953">
        <ele>556.20007324219</ele>
        <time>2020-05-26T19:38:37.852Z</time>
      </trkpt>
      <trkpt lat="43.57968" lon="6.46956">
        <ele>556.48803710938</ele>
        <time>2020-05-26T19:38:41.122Z</time>
      </trkpt>
      <trkpt lat="43.57987" lon="6.46978">
        <ele>556.11608886719</ele>
        <time>2020-05-26T19:38:44.397Z</time>
      </trkpt>
      <trkpt lat="43.57997" lon="6.47005">
        <ele>554.91448974609</ele>
        <time>2020-05-26T19:38:47.676Z</time>
      </trkpt>
      <trkpt lat="43.58038" lon="6.47024">
        <ele>556.6884765625</ele>
        <time>2020-05-26T19:38:50.964Z</time>
      </trkpt>
      <trkpt lat="43.5805" lon="6.47034">
        <ele>557.38433837891</ele>
        <time>2020-05-26T19:38:54.255Z</time>
      </trkpt>
      <trkpt lat="43.58061" lon="6.47013">
        <ele>559.52416992188</ele>
        <time>2020-05-26T19:38:57.549Z</time>
      </trkpt>
      <trkpt lat="43.5808" lon="6.47016">
        <ele>561.01190185547</ele>
        <time>2020-05-26T19:39:00.847Z</time>
      </trkpt>
      <trkpt lat="43.58083" lon="6.47024">
        <ele>560.97589111328</ele>
        <time>2020-05-26T19:39:04.147Z</time>
      </trkpt>
      <trkpt lat="43.58107" lon="6.47025">
        <ele>562.01013183594</ele>
        <time>2020-05-26T19:39:07.451Z</time>
      </trkpt>
      <trkpt lat="43.58104" lon="6.47034">
        <ele>561.93817138672</ele>
        <time>2020-05-26T19:39:10.757Z</time>
      </trkpt>
      <trkpt lat="43.58125" lon="6.47043">
        <ele>559.85052490234</ele>
        <time>2020-05-26T19:39:14.067Z</time>
      </trkpt>
      <trkpt lat="43.58121" lon="6.47051">
        <ele>559.89849853516</ele>
        <time>2020-05-26T19:39:17.379Z</time>
      </trkpt>
      <trkpt lat="43.58147" lon="6.47039">
        <ele>558.14678955078</ele>
        <time>2020-05-26T19:39:20.696Z</time>
      </trkpt>
      <trkpt lat="43.58163" lon="6.47033">
        <ele>558.12078857422</ele>
        <time>2020-05-26T19:39:24.016Z</time>
      </trkpt>
      <trkpt lat="43.58171" lon="6.47037">
        <ele>557.68884277344</ele>
        <time>2020-05-26T19:39:27.338Z</time>
      </trkpt>
      <trkpt lat="43.58177" lon="6.4706">
        <ele>554.87133789062</ele>
        <time>2020-05-26T19:39:30.664Z</time>
      </trkpt>
      <trkpt lat="43.582" lon="6.47066">
        <ele>551.82592773438</ele>
        <time>2020-05-26T19:39:33.994Z</time>
      </trkpt>
      <trkpt lat="43.58226" lon="6.47051">
        <ele>550.06219482422</ele>
        <time>2020-05-26T19:39:37.330Z</time>
      </trkpt>
      <trkpt lat="43.58253" lon="6.47046">
        <ele>546.89630126953</ele>
        <time>2020-05-26T19:39:40.671Z</time>
      </trkpt>
      <trkpt lat="43.58287" lon="6.47061">
        <ele>539.11358642578</ele>
        <time>2020-05-26T19:39:44.020Z</time>
      </trkpt>
      <trkpt lat="43.58282" lon="6.47074">
        <ele>538.29534912109</ele>
        <time>2020-05-26T19:39:47.371Z</time>
      </trkpt>
      <trkpt lat="43.58289" lon="6.47074">
        <ele>536.95153808594</ele>
        <time>2020-05-26T19:39:50.723Z</time>
      </trkpt>
      <trkpt lat="43.58289" lon="6.47096">
        <ele>533.51605224609</ele>
        <time>2020-05-26T19:39:54.078Z</time>
      </trkpt>
      <trkpt lat="43.58281" lon="6.47123">
        <ele>529.38873291016</ele>
        <time>2020-05-26T19:39:57.438Z</time>
      </trkpt>
      <trkpt lat="43.58296" lon="6.47139">
        <ele>524.33758544922</ele>
        <time>2020-05-26T19:40:00.801Z</time>
      </trkpt>
      <trkpt lat="43.58289" lon="6.47159">
        <ele>521.76239013672</ele>
        <time>2020-05-26T19:40:04.168Z</time>
      </trkpt>
      <trkpt lat="43.58289" lon="6.47162">
        <ele>521.29443359375</ele>
        <time>2020-05-26T19:40:07.535Z</time>
      </trkpt>
      <trkpt lat="43.58298" lon="6.47157">
        <ele>520.88653564453</ele>
        <time>2020-05-26T19:40:10.904Z</time>
      </trkpt>
      <trkpt lat="43.583" lon="6.47169">
        <ele>518.75085449219</ele>
        <time>2020-05-26T19:40:14.275Z</time>
      </trkpt>
      <trkpt lat="43.583" lon="6.47182">
        <ele>516.71069335938</ele>
        <time>2020-05-26T19:40:17.648Z</time>
      </trkpt>
      <trkpt lat="43.58305" lon="6.47189">
        <ele>514.91101074219</ele>
        <time>2020-05-26T19:40:21.022Z</time>
      </trkpt>
      <trkpt lat="43.58321" lon="6.47195">
        <ele>511.92401123047</ele>
        <time>2020-05-26T19:40:24.399Z</time>
      </trkpt>
      <trkpt lat="43.58351" lon="6.47181">
        <ele>510.14831542969</ele>
        <time>2020-05-26T19:40:27.783Z</time>
      </trkpt>
      <trkpt lat="43.58357" lon="6.47187">
        <ele>507.81732177734</ele>
        <time>2020-05-26T19:40:31.168Z</time>
      </trkpt>
      <trkpt lat="43.58365" lon="6.47181">
        <ele>506.83349609375</ele>
        <time>2020-05-26T19:40:34.555Z</time>
      </trkpt>
      <trkpt lat="43.58383" lon="6.47154">
        <ele>506.39996337891</ele>
        <time>2020-05-26T19:40:37.947Z</time>
      </trkpt>
      <trkpt lat="43.58384" lon="6.47146">
        <ele>507.25729370117</ele>
        <time>2020-05-26T19:40:41.340Z</time>
      </trkpt>
      <trkpt lat="43.58393" lon="6.47128">
        <ele>507.36526489258</ele>
        <time>2020-05-26T19:40:44.737Z</time>
      </trkpt>
      <trkpt lat="43.58394" lon="6.47141">
        <ele>505.39761352539</ele>
        <time>2020-05-26T19:40:48.136Z</time>
      </trkpt>
      <trkpt lat="43.58401" lon="6.47141">
        <ele>503.63391113281</ele>
        <time>2020-05-26T19:40:51.536Z</time>
      </trkpt>
      <trkpt lat="43.58409" lon="6.47138">
        <ele>502.01416015625</ele>
        <time>2020-05-26T19:40:54.938Z</time>
      </trkpt>
      <trkpt lat="43.58417" lon="6.47151">
        <ele>498.26531982422</ele>
        <time>2020-05-26T19:40:58.342Z</time>
      </trkpt>
      <trkpt lat="43.58417" lon="6.4716">
        <ele>496.96954345703</ele>
        <time>2020-05-26T19:41:01.747Z</time>
      </trkpt>
      <trkpt lat="43.58429" lon="6.4716">
        <ele>493.94604492188</ele>
        <time>2020-05-26T19:41:05.155Z</time>
      </trkpt>
      <trkpt lat="43.58429" lon="6.47172">
        <ele>492.21835327148</ele>
        <time>2020-05-26T19:41:08.565Z</time>
      </trkpt>
      <trkpt lat="43.58437" lon="6.47184">
        <ele>488.50183105469</ele>
        <time>2020-05-26T19:41:11.977Z</time>
      </trkpt>
      <trkpt lat="43.58445" lon="6.47188">
        <ele>486.00625610352</ele>
        <time>2020-05-26T19:41:15.391Z</time>
      </trkpt>
      <trkpt lat="43.58458" lon="6.47182">
        <ele>483.75064086914</ele>
        <time>2020-05-26T19:41:18.807Z</time>
      </trkpt>
      <trkpt lat="43.58463" lon="6.47171">
        <ele>483.56475830078</ele>
        <time>2020-05-26T19:41:22.225Z</time>
      </trkpt>
      <trkpt lat="43.58472" lon="6.47171">
        <ele>480.64926147461</ele>
        <time>2020-05-26T19:41:25.645Z</time>
      </trkpt>
      <trkpt lat="43.58478" lon="6.47208">
        <ele>475.20803833008</ele>
        <time>2020-05-26T19:41:29.071Z</time>
      </trkpt>
      <trkpt lat="43.58491" lon="6.4722">
        <ele>470.36087036133</ele>
        <time>2020-05-26T19:41:32.500Z</time>
      </trkpt>
      <trkpt lat="43.58491" lon="6.4723">
        <ele>468.92111206055</ele>
        <time>2020-05-26T19:41:35.930Z</time>
      </trkpt>
      <trkpt lat="43.5848" lon="6.4725">
        <ele>471.34954833984</ele>
        <time>2020-05-26T19:41:39.364Z</time>
      </trkpt>
      <trkpt lat="43.58486" lon="6.47268">
        <ele>470.12576293945</ele>
        <time>2020-05-26T19:41:42.801Z</time>
      </trkpt>
      <trkpt lat="43.58484" lon="6.47294">
        <ele>468.78167724609</ele>
        <time>2020-05-26T19:41:46.241Z</time>
      </trkpt>
      <trkpt lat="43.58489" lon="6.47309">
        <ele>465.96212768555</ele>
        <time>2020-05-26T19:41:49.684Z</time>
      </trkpt>
      <trkpt lat="43.5849" lon="6.47311">
        <ele>465.56619262695</ele>
        <time>2020-05-26T19:41:53.127Z</time>
      </trkpt>
      <trkpt lat="43.5848" lon="6.47346">
        <ele>465.28607177734</ele>
        <time>2020-05-26T19:41:56.576Z</time>
      </trkpt>
      <trkpt lat="43.5845" lon="6.47428">
        <ele>451.85531616211</ele>
        <time>2020-05-26T19:42:00.038Z</time>
      </trkpt>
      <trkpt lat="43.58398" lon="6.47496">
        <ele>446.90090942383</ele>
        <time>2020-05-26T19:42:03.514Z</time>
      </trkpt>
      <trkpt lat="43.5834" lon="6.47554">
        <ele>444.19091796875</ele>
        <time>2020-05-26T19:42:07.005Z</time>
      </trkpt>
      <trkpt lat="43.58282" lon="6.47612">
        <ele>442.05239868164</ele>
        <time>2020-05-26T19:42:10.510Z</time>
      </trkpt>
      <trkpt lat="43.58241" lon="6.47668">
        <ele>438.51718139648</ele>
        <time>2020-05-26T19:42:14.027Z</time>
      </trkpt>
      <trkpt lat="43.58208" lon="6.4774">
        <ele>433.58486938477</ele>
        <time>2020-05-26T19:42:17.556Z</time>
      </trkpt>
      <trkpt lat="43.582" lon="6.47761">
        <ele>432.88070678711</ele>
        <time>2020-05-26T19:42:21.088Z</time>
      </trkpt>
      <trkpt lat="43.58187" lon="6.47822">
        <ele>429.02551269531</ele>
        <time>2020-05-26T19:42:24.630Z</time>
      </trkpt>
      <trkpt lat="43.58186" lon="6.47875">
        <ele>430.5732421875</ele>
        <time>2020-05-26T19:42:28.179Z</time>
      </trkpt>
      <trkpt lat="43.58168" lon="6.47949">
        <ele>432.54113769531</ele>
        <time>2020-05-26T19:42:31.740Z</time>
      </trkpt>
      <trkpt lat="43.58149" lon="6.48023">
        <ele>436.52224731445</ele>
        <time>2020-05-26T19:42:35.312Z</time>
      </trkpt>
      <trkpt lat="43.58151" lon="6.48029">
        <ele>437.72204589844</ele>
        <time>2020-05-26T19:42:38.885Z</time>
      </trkpt>
      <trkpt lat="43.58156" lon="6.48029">
        <ele>438.38192749023</ele>
        <time>2020-05-26T19:42:42.459Z</time>
      </trkpt>
      <trkpt lat="43.58174" lon="6.48006">
        <ele>437.17013549805</ele>
        <time>2020-05-26T19:42:46.038Z</time>
      </trkpt>
      <trkpt lat="43.58185" lon="6.47973">
        <ele>434.63403320312</ele>
        <time>2020-05-26T19:42:49.622Z</time>
      </trkpt>
      <trkpt lat="43.58203" lon="6.47933">
        <ele>440.05712890625</ele>
        <time>2020-05-26T19:42:53.213Z</time>
      </trkpt>
      <trkpt lat="43.58227" lon="6.4786">
        <ele>444.79086303711</ele>
        <time>2020-05-26T19:42:56.816Z</time>
      </trkpt>
      <trkpt lat="43.5825" lon="6.47815">
        <ele>446.03051757812</ele>
        <time>2020-05-26T19:43:00.427Z</time>
      </trkpt>
      <trkpt lat="43.58269" lon="6.47791">
        <ele>448.98413085938</ele>
        <time>2020-05-26T19:43:04.043Z</time>
      </trkpt>
      <trkpt lat="43.58275" lon="6.47792">
        <ele>451.74365234375</ele>
        <time>2020-05-26T19:43:07.660Z</time>
      </trkpt>
      <trkpt lat="43.58317" lon="6.47732">
        <ele>459.9443359375</ele>
        <time>2020-05-26T19:43:11.289Z</time>
      </trkpt>
      <trkpt lat="43.58342" lon="6.47685">
        <ele>460.5315246582</ele>
        <time>2020-05-26T19:43:14.927Z</time>
      </trkpt>
      <trkpt lat="43.58351" lon="6.47672">
        <ele>460.19555664062</ele>
        <time>2020-05-26T19:43:18.567Z</time>
      </trkpt>
      <trkpt lat="43.58365" lon="6.47657">
        <ele>461.44375610352</ele>
        <time>2020-05-26T19:43:22.211Z</time>
      </trkpt>
      <trkpt lat="43.5838" lon="6.47646">
        <ele>462.93627929688</ele>
        <time>2020-05-26T19:43:25.858Z</time>
      </trkpt>
      <trkpt lat="43.58452" lon="6.47612">
        <ele>475.7785949707</ele>
        <time>2020-05-26T19:43:29.521Z</time>
      </trkpt>
      <trkpt lat="43.58493" lon="6.47592">
        <ele>479.09957885742</ele>
        <time>2020-05-26T19:43:33.192Z</time>
      </trkpt>
      <trkpt lat="43.58505" lon="6.47588">
        <ele>479.62750244141</ele>
        <time>2020-05-26T19:43:36.866Z</time>
      </trkpt>
      <trkpt lat="43.58515" lon="6.47587">
        <ele>480.7673034668</ele>
        <time>2020-05-26T19:43:40.542Z</time>
      </trkpt>
      <trkpt lat="43.58572" lon="6.47599">
        <ele>492.22680664062</ele>
        <time>2020-05-26T19:43:44.229Z</time>
      </trkpt>
      <trkpt lat="43.58605" lon="6.47594">
        <ele>492.13739013672</ele>
        <time>2020-05-26T19:43:47.923Z</time>
      </trkpt>
      <trkpt lat="43.58618" lon="6.47594">
        <ele>491.51348876953</ele>
        <time>2020-05-26T19:43:51.619Z</time>
      </trkpt>
      <trkpt lat="43.5864" lon="6.47596">
        <ele>492.43838500977</ele>
        <time>2020-05-26T19:43:55.320Z</time>
      </trkpt>
      <trkpt lat="43.58666" lon="6.47602">
        <ele>496.27774047852</ele>
        <time>2020-05-26T19:43:59.026Z</time>
      </trkpt>
      <trkpt lat="43.58705" lon="6.47623">
        <ele>500.98617553711</ele>
        <time>2020-05-26T19:44:02.741Z</time>
      </trkpt>
      <trkpt lat="43.58722" lon="6.47636">
        <ele>502.32995605469</ele>
        <time>2020-05-26T19:44:06.459Z</time>
      </trkpt>
      <trkpt lat="43.58735" lon="6.47654">
        <ele>504.58477783203</ele>
        <time>2020-05-26T19:44:10.181Z</time>
      </trkpt>
      <trkpt lat="43.58753" lon="6.47686">
        <ele>503.74493408203</ele>
        <time>2020-05-26T19:44:13.909Z</time>
      </trkpt>
      <trkpt lat="43.5876" lon="6.47694">
        <ele>503.20501708984</ele>
        <time>2020-05-26T19:44:17.639Z</time>
      </trkpt>
      <trkpt lat="43.58769" lon="6.47699">
        <ele>502.41027832031</ele>
        <time>2020-05-26T19:44:21.371Z</time>
      </trkpt>
      <trkpt lat="43.58775" lon="6.477">
        <ele>502.74624633789</ele>
        <time>2020-05-26T19:44:25.104Z</time>
      </trkpt>
      <trkpt lat="43.58785" lon="6.47696">
        <ele>503.0341796875</ele>
        <time>2020-05-26T19:44:28.839Z</time>
      </trkpt>
      <trkpt lat="43.58793" lon="6.47681">
        <ele>502.6982421875</ele>
        <time>2020-05-26T19:44:32.577Z</time>
      </trkpt>
      <trkpt lat="43.58796" lon="6.47671">
        <ele>502.59548950195</ele>
        <time>2020-05-26T19:44:36.316Z</time>
      </trkpt>
      <trkpt lat="43.58805" lon="6.47587">
        <ele>504.23345947266</ele>
        <time>2020-05-26T19:44:40.068Z</time>
      </trkpt>
      <trkpt lat="43.58816" lon="6.47551">
        <ele>508.73376464844</ele>
        <time>2020-05-26T19:44:43.825Z</time>
      </trkpt>
      <trkpt lat="43.58829" lon="6.47519">
        <ele>511.05218505859</ele>
        <time>2020-05-26T19:44:47.588Z</time>
      </trkpt>
      <trkpt lat="43.58838" lon="6.4752">
        <ele>510.4162902832</ele>
        <time>2020-05-26T19:44:51.352Z</time>
      </trkpt>
      <trkpt lat="43.58845" lon="6.47517">
        <ele>509.87640380859</ele>
        <time>2020-05-26T19:44:55.118Z</time>
      </trkpt>
      <trkpt lat="43.58855" lon="6.47495">
        <ele>509.56512451172</ele>
        <time>2020-05-26T19:44:58.888Z</time>
      </trkpt>
      <trkpt lat="43.58873" lon="6.47477">
        <ele>511.79357910156</ele>
        <time>2020-05-26T19:45:02.662Z</time>
      </trkpt>
      <trkpt lat="43.58885" lon="6.47467">
        <ele>513.59326171875</ele>
        <time>2020-05-26T19:45:06.439Z</time>
      </trkpt>
      <trkpt lat="43.58889" lon="6.47465">
        <ele>514.14520263672</ele>
        <time>2020-05-26T19:45:10.217Z</time>
      </trkpt>
      <trkpt lat="43.58903" lon="6.47464">
        <ele>515.86090087891</ele>
        <time>2020-05-26T19:45:13.998Z</time>
      </trkpt>
      <trkpt lat="43.58914" lon="6.47473">
        <ele>516.85675048828</ele>
        <time>2020-05-26T19:45:17.781Z</time>
      </trkpt>
      <trkpt lat="43.58928" lon="6.47506">
        <ele>518.45562744141</ele>
        <time>2020-05-26T19:45:21.570Z</time>
      </trkpt>
      <trkpt lat="43.58969" lon="6.47518">
        <ele>522.28936767578</ele>
        <time>2020-05-26T19:45:25.367Z</time>
      </trkpt>
      <trkpt lat="43.58981" lon="6.47527">
        <ele>523.30487060547</ele>
        <time>2020-05-26T19:45:29.167Z</time>
      </trkpt>
      <trkpt lat="43.58993" lon="6.47543">
        <ele>524.60498046875</ele>
        <time>2020-05-26T19:45:32.970Z</time>
      </trkpt>
      <trkpt lat="43.59017" lon="6.47594">
        <ele>527.89770507812</ele>
        <time>2020-05-26T19:45:36.782Z</time>
      </trkpt>
      <trkpt lat="43.59033" lon="6.47621">
        <ele>533.05621337891</ele>
        <time>2020-05-26T19:45:40.599Z</time>
      </trkpt>
      <trkpt lat="43.59037" lon="6.47632">
        <ele>534.55596923828</ele>
        <time>2020-05-26T19:45:44.418Z</time>
      </trkpt>
      <trkpt lat="43.59046" lon="6.47678">
        <ele>539.36254882812</ele>
        <time>2020-05-26T19:45:48.244Z</time>
      </trkpt>
      <trkpt lat="43.59045" lon="6.47694">
        <ele>539.63854980469</ele>
        <time>2020-05-26T19:45:52.072Z</time>
      </trkpt>
      <trkpt lat="43.59045" lon="6.47703">
        <ele>539.96246337891</ele>
        <time>2020-05-26T19:45:55.901Z</time>
      </trkpt>
      <trkpt lat="43.59035" lon="6.47737">
        <ele>538.23504638672</ele>
        <time>2020-05-26T19:45:59.736Z</time>
      </trkpt>
      <trkpt lat="43.59034" lon="6.47747">
        <ele>538.4150390625</ele>
        <time>2020-05-26T19:46:03.572Z</time>
      </trkpt>
      <trkpt lat="43.59037" lon="6.47755">
        <ele>539.73736572266</ele>
        <time>2020-05-26T19:46:07.410Z</time>
      </trkpt>
      <trkpt lat="43.59042" lon="6.47759">
        <ele>541.41711425781</ele>
        <time>2020-05-26T19:46:11.249Z</time>
      </trkpt>
      <trkpt lat="43.5905" lon="6.47756">
        <ele>543.64617919922</ele>
        <time>2020-05-26T19:46:15.089Z</time>
      </trkpt>
      <trkpt lat="43.59079" lon="6.4772">
        <ele>550.77264404297</ele>
        <time>2020-05-26T19:46:18.937Z</time>
      </trkpt>
      <trkpt lat="43.59088" lon="6.47706">
        <ele>552.64587402344</ele>
        <time>2020-05-26T19:46:22.788Z</time>
      </trkpt>
      <trkpt lat="43.59113" lon="6.47641">
        <ele>555.78289794922</ele>
        <time>2020-05-26T19:46:26.650Z</time>
      </trkpt>
      <trkpt lat="43.59119" lon="6.4763">
        <ele>556.85070800781</ele>
        <time>2020-05-26T19:46:30.514Z</time>
      </trkpt>
      <trkpt lat="43.59127" lon="6.47623">
        <ele>558.734375</ele>
        <time>2020-05-26T19:46:34.379Z</time>
      </trkpt>
      <trkpt lat="43.59136" lon="6.47622">
        <ele>561.26599121094</ele>
        <time>2020-05-26T19:46:38.246Z</time>
      </trkpt>
      <trkpt lat="43.59141" lon="6.47626">
        <ele>562.94567871094</ele>
        <time>2020-05-26T19:46:42.114Z</time>
      </trkpt>
      <trkpt lat="43.59161" lon="6.47663">
        <ele>571.40563964844</ele>
        <time>2020-05-26T19:46:45.989Z</time>
      </trkpt>
      <trkpt lat="43.59171" lon="6.47666">
        <ele>574.57312011719</ele>
        <time>2020-05-26T19:46:49.866Z</time>
      </trkpt>
      <trkpt lat="43.59185" lon="6.47661">
        <ele>578.13140869141</ele>
        <time>2020-05-26T19:46:53.746Z</time>
      </trkpt>
      <trkpt lat="43.59218" lon="6.47636">
        <ele>585.46118164062</ele>
        <time>2020-05-26T19:46:57.634Z</time>
      </trkpt>
      <trkpt lat="43.59231" lon="6.47628">
        <ele>588.49664306641</ele>
        <time>2020-05-26T19:47:01.524Z</time>
      </trkpt>
      <trkpt lat="43.59238" lon="6.47625">
        <ele>590.27233886719</ele>
        <time>2020-05-26T19:47:05.416Z</time>
      </trkpt>
      <trkpt lat="43.59244" lon="6.47625">
        <ele>592.04357910156</ele>
        <time>2020-05-26T19:47:09.309Z</time>
      </trkpt>
      <trkpt lat="43.5925" lon="6.47632">
        <ele>594.62762451172</ele>
        <time>2020-05-26T19:47:13.204Z</time>
      </trkpt>
      <trkpt lat="43.59251" lon="6.47641">
        <ele>595.8994140625</ele>
        <time>2020-05-26T19:47:17.100Z</time>
      </trkpt>
      <trkpt lat="43.59246" lon="6.47664">
        <ele>597.40057373047</ele>
        <time>2020-05-26T19:47:21.000Z</time>
      </trkpt>
      <trkpt lat="43.59243" lon="6.47687">
        <ele>599.81213378906</ele>
        <time>2020-05-26T19:47:24.903Z</time>
      </trkpt>
      <trkpt lat="43.59242" lon="6.47701">
        <ele>601.52789306641</ele>
        <time>2020-05-26T19:47:28.808Z</time>
      </trkpt>
      <trkpt lat="43.59231" lon="6.47741">
        <ele>601.71917724609</ele>
        <time>2020-05-26T19:47:32.719Z</time>
      </trkpt>
      <trkpt lat="43.59233" lon="6.4775">
        <ele>603.17095947266</ele>
        <time>2020-05-26T19:47:36.632Z</time>
      </trkpt>
      <trkpt lat="43.59239" lon="6.47758">
        <ele>605.93048095703</ele>
        <time>2020-05-26T19:47:40.546Z</time>
      </trkpt>
      <trkpt lat="43.59247" lon="6.47758">
        <ele>608.71405029297</ele>
        <time>2020-05-26T19:47:44.462Z</time>
      </trkpt>
      <trkpt lat="43.59254" lon="6.47755">
        <ele>610.89764404297</ele>
        <time>2020-05-26T19:47:48.379Z</time>
      </trkpt>
      <trkpt lat="43.59288" lon="6.47711">
        <ele>615.81665039062</ele>
        <time>2020-05-26T19:47:52.306Z</time>
      </trkpt>
      <trkpt lat="43.59298" lon="6.47702">
        <ele>617.04046630859</ele>
        <time>2020-05-26T19:47:56.235Z</time>
      </trkpt>
      <trkpt lat="43.5931" lon="6.47697">
        <ele>619.34405517578</ele>
        <time>2020-05-26T19:48:00.166Z</time>
      </trkpt>
      <trkpt lat="43.59323" lon="6.47695">
        <ele>622.55700683594</ele>
        <time>2020-05-26T19:48:04.100Z</time>
      </trkpt>
      <trkpt lat="43.5933" lon="6.47697">
        <ele>624.72863769531</ele>
        <time>2020-05-26T19:48:08.036Z</time>
      </trkpt>
      <trkpt lat="43.59342" lon="6.47705">
        <ele>628.99993896484</ele>
        <time>2020-05-26T19:48:11.974Z</time>
      </trkpt>
      <trkpt lat="43.59351" lon="6.47724">
        <ele>633.76318359375</ele>
        <time>2020-05-26T19:48:15.916Z</time>
      </trkpt>
      <trkpt lat="43.5935" lon="6.47783">
        <ele>638.203125</ele>
        <time>2020-05-26T19:48:19.866Z</time>
      </trkpt>
      <trkpt lat="43.59345" lon="6.47843">
        <ele>641.98175048828</ele>
        <time>2020-05-26T19:48:23.825Z</time>
      </trkpt>
      <trkpt lat="43.59346" lon="6.47905">
        <ele>648.24560546875</ele>
        <time>2020-05-26T19:48:27.793Z</time>
      </trkpt>
      <trkpt lat="43.59356" lon="6.47952">
        <ele>651.86560058594</ele>
        <time>2020-05-26T19:48:31.768Z</time>
      </trkpt>
      <trkpt lat="43.59354" lon="6.47972">
        <ele>653.71325683594</ele>
        <time>2020-05-26T19:48:35.746Z</time>
      </trkpt>
      <trkpt lat="43.59353" lon="6.48003">
        <ele>655.61822509766</ele>
        <time>2020-05-26T19:48:39.728Z</time>
      </trkpt>
      <trkpt lat="43.5934" lon="6.48083">
        <ele>658.07049560547</ele>
        <time>2020-05-26T19:48:43.722Z</time>
      </trkpt>
      <trkpt lat="43.59323" lon="6.48134">
        <ele>658.58892822266</ele>
        <time>2020-05-26T19:48:47.725Z</time>
      </trkpt>
      <trkpt lat="43.59328" lon="6.48181">
        <ele>664.33947753906</ele>
        <time>2020-05-26T19:48:51.734Z</time>
      </trkpt>
      <trkpt lat="43.59349" lon="6.48221">
        <ele>670.3984375</ele>
        <time>2020-05-26T19:48:55.751Z</time>
      </trkpt>
      <trkpt lat="43.59356" lon="6.48288">
        <ele>673.68206787109</ele>
        <time>2020-05-26T19:48:59.777Z</time>
      </trkpt>
      <trkpt lat="43.59363" lon="6.48355">
        <ele>675.93395996094</ele>
        <time>2020-05-26T19:49:03.813Z</time>
      </trkpt>
      <trkpt lat="43.59374" lon="6.48394">
        <ele>675.95794677734</ele>
        <time>2020-05-26T19:49:07.855Z</time>
      </trkpt>
      <trkpt lat="43.5938" lon="6.48437">
        <ele>678.33111572266</ele>
        <time>2020-05-26T19:49:11.904Z</time>
      </trkpt>
      <trkpt lat="43.59398" lon="6.48482">
        <ele>679.84289550781</ele>
        <time>2020-05-26T19:49:15.960Z</time>
      </trkpt>
      <trkpt lat="43.59394" lon="6.4852">
        <ele>681.72418212891</ele>
        <time>2020-05-26T19:49:20.022Z</time>
      </trkpt>
      <trkpt lat="43.59403" lon="6.48551">
        <ele>681.11755371094</ele>
        <time>2020-05-26T19:49:24.089Z</time>
      </trkpt>
      <trkpt lat="43.59399" lon="6.48585">
        <ele>683.05206298828</ele>
        <time>2020-05-26T19:49:28.161Z</time>
      </trkpt>
      <trkpt lat="43.59355" lon="6.48661">
        <ele>688.16796875</ele>
        <time>2020-05-26T19:49:32.247Z</time>
      </trkpt>
      <trkpt lat="43.59348" lon="6.4872">
        <ele>688.63012695312</ele>
        <time>2020-05-26T19:49:36.341Z</time>
      </trkpt>
      <trkpt lat="43.59349" lon="6.48754">
        <ele>687.99737548828</ele>
        <time>2020-05-26T19:49:40.440Z</time>
      </trkpt>
      <trkpt lat="43.59335" lon="6.48804">
        <ele>688.7412109375</ele>
        <time>2020-05-26T19:49:44.547Z</time>
      </trkpt>
      <trkpt lat="43.59339" lon="6.48844">
        <ele>687.21722412109</ele>
        <time>2020-05-26T19:49:48.660Z</time>
      </trkpt>
      <trkpt lat="43.5931" lon="6.48882">
        <ele>690.34222412109</ele>
        <time>2020-05-26T19:49:52.781Z</time>
      </trkpt>
      <trkpt lat="43.59279" lon="6.48917">
        <ele>694.59252929688</ele>
        <time>2020-05-26T19:49:56.910Z</time>
      </trkpt>
      <trkpt lat="43.59258" lon="6.48935">
        <ele>696.43518066406</ele>
        <time>2020-05-26T19:50:01.044Z</time>
      </trkpt>
      <trkpt lat="43.59255" lon="6.48989">
        <ele>695.04156494141</ele>
        <time>2020-05-26T19:50:05.186Z</time>
      </trkpt>
      <trkpt lat="43.59209" lon="6.49001">
        <ele>698.76092529297</ele>
        <time>2020-05-26T19:50:09.337Z</time>
      </trkpt>
      <trkpt lat="43.59175" lon="6.4902">
        <ele>702.3251953125</ele>
        <time>2020-05-26T19:50:13.496Z</time>
      </trkpt>
      <trkpt lat="43.59125" lon="6.49067">
        <ele>703.29840087891</ele>
        <time>2020-05-26T19:50:17.667Z</time>
      </trkpt>
      <trkpt lat="43.59108" lon="6.49057">
        <ele>702.84881591797</ele>
        <time>2020-05-26T19:50:21.841Z</time>
      </trkpt>
      <trkpt lat="43.59089" lon="6.48993">
        <ele>700.03210449219</ele>
        <time>2020-05-26T19:50:26.025Z</time>
      </trkpt>
      <trkpt lat="43.59093" lon="6.48976">
        <ele>699.5771484375</ele>
        <time>2020-05-26T19:50:30.212Z</time>
      </trkpt>
      <trkpt lat="43.59085" lon="6.48965">
        <ele>697.90515136719</ele>
        <time>2020-05-26T19:50:34.401Z</time>
      </trkpt>
      <trkpt lat="43.59098" lon="6.48928">
        <ele>696.64538574219</ele>
        <time>2020-05-26T19:50:38.596Z</time>
      </trkpt>
      <trkpt lat="43.59119" lon="6.48895">
        <ele>695.37384033203</ele>
        <time>2020-05-26T19:50:42.798Z</time>
      </trkpt>
      <trkpt lat="43.5913" lon="6.4888">
        <ele>694.46197509766</ele>
        <time>2020-05-26T19:50:47.003Z</time>
      </trkpt>
      <trkpt lat="43.59137" lon="6.48853">
        <ele>692.20635986328</ele>
        <time>2020-05-26T19:50:51.212Z</time>
      </trkpt>
      <trkpt lat="43.59157" lon="6.48841">
        <ele>693.12841796875</ele>
        <time>2020-05-26T19:50:55.425Z</time>
      </trkpt>
      <trkpt lat="43.59169" lon="6.48816">
        <ele>692.62475585938</ele>
        <time>2020-05-26T19:50:59.643Z</time>
      </trkpt>
      <trkpt lat="43.59178" lon="6.48814">
        <ele>693.21264648438</ele>
        <time>2020-05-26T19:51:03.862Z</time>
      </trkpt>
      <trkpt lat="43.5919" lon="6.48788">
        <ele>693.37774658203</ele>
        <time>2020-05-26T19:51:08.086Z</time>
      </trkpt>
      <trkpt lat="43.59196" lon="6.48786">
        <ele>693.40173339844</ele>
        <time>2020-05-26T19:51:12.311Z</time>
      </trkpt>
      <trkpt lat="43.59194" lon="6.48758">
        <ele>692.70587158203</ele>
        <time>2020-05-26T19:51:16.540Z</time>
      </trkpt>
      <trkpt lat="43.59206" lon="6.48716">
        <ele>693.42468261719</ele>
        <time>2020-05-26T19:51:20.776Z</time>
      </trkpt>
      <trkpt lat="43.59233" lon="6.48674">
        <ele>696.30200195312</ele>
        <time>2020-05-26T19:51:25.020Z</time>
      </trkpt>
      <trkpt lat="43.59274" lon="6.4866">
        <ele>698.95666503906</ele>
        <time>2020-05-26T19:51:29.272Z</time>
      </trkpt>
      <trkpt lat="43.59283" lon="6.48613">
        <ele>699.37542724609</ele>
        <time>2020-05-26T19:51:33.531Z</time>
      </trkpt>
      <trkpt lat="43.5927" lon="6.48597">
        <ele>701.66705322266</ele>
        <time>2020-05-26T19:51:37.794Z</time>
      </trkpt>
      <trkpt lat="43.59258" lon="6.48528">
        <ele>698.42047119141</ele>
        <time>2020-05-26T19:51:42.067Z</time>
      </trkpt>
      <trkpt lat="43.59258" lon="6.48527">
        <ele>698.33648681641</ele>
        <time>2020-05-26T19:51:46.340Z</time>
      </trkpt>
      <trkpt lat="43.59258" lon="6.48522">
        <ele>697.91656494141</ele>
        <time>2020-05-26T19:51:50.614Z</time>
      </trkpt>
      <trkpt lat="43.59271" lon="6.48454">
        <ele>692.30932617188</ele>
        <time>2020-05-26T19:51:54.898Z</time>
      </trkpt>
      <trkpt lat="43.59257" lon="6.48434">
        <ele>688.22216796875</ele>
        <time>2020-05-26T19:51:59.186Z</time>
      </trkpt>
      <trkpt lat="43.59245" lon="6.48391">
        <ele>680.83734130859</ele>
        <time>2020-05-26T19:52:03.481Z</time>
      </trkpt>
      <trkpt lat="43.59281" lon="6.48291">
        <ele>673.73095703125</ele>
        <time>2020-05-26T19:52:07.792Z</time>
      </trkpt>
      <trkpt lat="43.5928" lon="6.48269">
        <ele>670.32354736328</ele>
        <time>2020-05-26T19:52:12.107Z</time>
      </trkpt>
      <trkpt lat="43.5929" lon="6.48254">
        <ele>667.83319091797</ele>
        <time>2020-05-26T19:52:16.424Z</time>
      </trkpt>
      <trkpt lat="43.59295" lon="6.48248">
        <ele>667.96514892578</ele>
        <time>2020-05-26T19:52:20.743Z</time>
      </trkpt>
      <trkpt lat="43.59297" lon="6.48177">
        <ele>661.99981689453</ele>
        <time>2020-05-26T19:52:25.072Z</time>
      </trkpt>
      <trkpt lat="43.59293" lon="6.48139">
        <ele>657.32916259766</ele>
        <time>2020-05-26T19:52:29.407Z</time>
      </trkpt>
      <trkpt lat="43.59293" lon="6.48113">
        <ele>654.52160644531</ele>
        <time>2020-05-26T19:52:33.746Z</time>
      </trkpt>
      <trkpt lat="43.5929" lon="6.48074">
        <ele>651.14764404297</ele>
        <time>2020-05-26T19:52:38.090Z</time>
      </trkpt>
      <trkpt lat="43.59283" lon="6.48016">
        <ele>646.92761230469</ele>
        <time>2020-05-26T19:52:42.443Z</time>
      </trkpt>
      <trkpt lat="43.59306" lon="6.47978">
        <ele>647.77545166016</ele>
        <time>2020-05-26T19:52:46.803Z</time>
      </trkpt>
      <trkpt lat="43.59298" lon="6.47943">
        <ele>642.00445556641</ele>
        <time>2020-05-26T19:52:51.168Z</time>
      </trkpt>
      <trkpt lat="43.59309" lon="6.47907">
        <ele>640.84289550781</ele>
        <time>2020-05-26T19:52:55.539Z</time>
      </trkpt>
      <trkpt lat="43.59315" lon="6.47864">
        <ele>636.83135986328</ele>
        <time>2020-05-26T19:52:59.916Z</time>
      </trkpt>
      <trkpt lat="43.59319" lon="6.47833">
        <ele>634.78295898438</ele>
        <time>2020-05-26T19:53:04.298Z</time>
      </trkpt>
      <trkpt lat="43.59316" lon="6.47808">
        <ele>631.76330566406</ele>
        <time>2020-05-26T19:53:08.684Z</time>
      </trkpt>
      <trkpt lat="43.59332" lon="6.47788">
        <ele>634.02783203125</ele>
        <time>2020-05-26T19:53:13.074Z</time>
      </trkpt>
      <trkpt lat="43.5934" lon="6.47753">
        <ele>633.52392578125</ele>
        <time>2020-05-26T19:53:17.469Z</time>
      </trkpt>
      <trkpt lat="43.59342" lon="6.47705">
        <ele>628.99993896484</ele>
        <time>2020-05-26T19:53:21.871Z</time>
      </trkpt>
      <trkpt lat="43.59346" lon="6.47669">
        <ele>625.78448486328</ele>
        <time>2020-05-26T19:53:26.279Z</time>
      </trkpt>
      <trkpt lat="43.59334" lon="6.47617">
        <ele>614.09619140625</ele>
        <time>2020-05-26T19:53:30.694Z</time>
      </trkpt>
      <trkpt lat="43.59358" lon="6.47526">
        <ele>600.47595214844</ele>
        <time>2020-05-26T19:53:35.124Z</time>
      </trkpt>
      <trkpt lat="43.59366" lon="6.47495">
        <ele>593.82556152344</ele>
        <time>2020-05-26T19:53:39.558Z</time>
      </trkpt>
      <trkpt lat="43.59373" lon="6.47487">
        <ele>592.21783447266</ele>
        <time>2020-05-26T19:53:43.994Z</time>
      </trkpt>
      <trkpt lat="43.59402" lon="6.47482">
        <ele>590.54370117188</ele>
        <time>2020-05-26T19:53:48.436Z</time>
      </trkpt>
      <trkpt lat="43.59408" lon="6.47474">
        <ele>588.2880859375</ele>
        <time>2020-05-26T19:53:52.880Z</time>
      </trkpt>
      <trkpt lat="43.59411" lon="6.47462">
        <ele>585.04858398438</ele>
        <time>2020-05-26T19:53:57.325Z</time>
      </trkpt>
      <trkpt lat="43.59407" lon="6.47443">
        <ele>580.41754150391</ele>
        <time>2020-05-26T19:54:01.773Z</time>
      </trkpt>
      <trkpt lat="43.59408" lon="6.47415">
        <ele>573.69866943359</ele>
        <time>2020-05-26T19:54:06.225Z</time>
      </trkpt>
      <trkpt lat="43.5941" lon="6.47406">
        <ele>571.53900146484</ele>
        <time>2020-05-26T19:54:10.679Z</time>
      </trkpt>
      <trkpt lat="43.59419" lon="6.47392">
        <ele>567.99749755859</ele>
        <time>2020-05-26T19:54:15.136Z</time>
      </trkpt>
      <trkpt lat="43.59426" lon="6.47386">
        <ele>566.41381835938</ele>
        <time>2020-05-26T19:54:19.594Z</time>
      </trkpt>
      <trkpt lat="43.59438" lon="6.47383">
        <ele>564.9951171875</ele>
        <time>2020-05-26T19:54:24.055Z</time>
      </trkpt>
      <trkpt lat="43.59441" lon="6.47371">
        <ele>561.21575927734</ele>
        <time>2020-05-26T19:54:28.517Z</time>
      </trkpt>
      <trkpt lat="43.5944" lon="6.47357">
        <ele>557.72436523438</ele>
        <time>2020-05-26T19:54:32.981Z</time>
      </trkpt>
      <trkpt lat="43.59426" lon="6.47331">
        <ele>551.89624023438</ele>
        <time>2020-05-26T19:54:37.450Z</time>
      </trkpt>
      <trkpt lat="43.59425" lon="6.47319">
        <ele>548.72875976562</ele>
        <time>2020-05-26T19:54:41.921Z</time>
      </trkpt>
      <trkpt lat="43.59439" lon="6.47278">
        <ele>541.28369140625</ele>
        <time>2020-05-26T19:54:46.399Z</time>
      </trkpt>
      <trkpt lat="43.59455" lon="6.47263">
        <ele>537.6123046875</ele>
        <time>2020-05-26T19:54:50.880Z</time>
      </trkpt>
      <trkpt lat="43.59459" lon="6.47254">
        <ele>535.81262207031</ele>
        <time>2020-05-26T19:54:55.363Z</time>
      </trkpt>
      <trkpt lat="43.5946" lon="6.4724">
        <ele>533.38897705078</ele>
        <time>2020-05-26T19:54:59.848Z</time>
      </trkpt>
      <trkpt lat="43.59455" lon="6.47235">
        <ele>532.90905761719</ele>
        <time>2020-05-26T19:55:04.334Z</time>
      </trkpt>
      <trkpt lat="43.59433" lon="6.47227">
        <ele>532.35498046875</ele>
        <time>2020-05-26T19:55:08.825Z</time>
      </trkpt>
      <trkpt lat="43.59427" lon="6.47221">
        <ele>530.1953125</ele>
        <time>2020-05-26T19:55:13.317Z</time>
      </trkpt>
      <trkpt lat="43.59428" lon="6.47208">
        <ele>527.19580078125</ele>
        <time>2020-05-26T19:55:17.811Z</time>
      </trkpt>
      <trkpt lat="43.59434" lon="6.47194">
        <ele>524.55627441406</ele>
        <time>2020-05-26T19:55:22.308Z</time>
      </trkpt>
      <trkpt lat="43.59433" lon="6.47181">
        <ele>521.31683349609</ele>
        <time>2020-05-26T19:55:26.806Z</time>
      </trkpt>
      <trkpt lat="43.59435" lon="6.4716">
        <ele>516.50360107422</ele>
        <time>2020-05-26T19:55:31.307Z</time>
      </trkpt>
      <trkpt lat="43.5944" lon="6.4714">
        <ele>511.04013061523</ele>
        <time>2020-05-26T19:55:35.812Z</time>
      </trkpt>
      <trkpt lat="43.59453" lon="6.47112">
        <ele>502.60552978516</ele>
        <time>2020-05-26T19:55:40.321Z</time>
      </trkpt>
      <trkpt lat="43.59454" lon="6.47098">
        <ele>499.11410522461</ele>
        <time>2020-05-26T19:55:44.832Z</time>
      </trkpt>
      <trkpt lat="43.59455" lon="6.47038">
        <ele>485.74282836914</ele>
        <time>2020-05-26T19:55:49.352Z</time>
      </trkpt>
      <trkpt lat="43.59452" lon="6.47018">
        <ele>481.74749755859</ele>
        <time>2020-05-26T19:55:53.875Z</time>
      </trkpt>
      <trkpt lat="43.59453" lon="6.47009">
        <ele>479.69583129883</ele>
        <time>2020-05-26T19:55:58.399Z</time>
      </trkpt>
      <trkpt lat="43.59456" lon="6.47004">
        <ele>478.29208374023</ele>
        <time>2020-05-26T19:56:02.924Z</time>
      </trkpt>
      <trkpt lat="43.59462" lon="6.47002">
        <ele>477.49743652344</ele>
        <time>2020-05-26T19:56:07.451Z</time>
      </trkpt>
      <trkpt lat="43.59467" lon="6.47003">
        <ele>477.31747436523</ele>
        <time>2020-05-26T19:56:11.979Z</time>
      </trkpt>
      <trkpt lat="43.59487" lon="6.47018">
        <ele>478.57727050781</ele>
        <time>2020-05-26T19:56:16.511Z</time>
      </trkpt>
      <trkpt lat="43.59487" lon="6.46966">
        <ele>467.80364990234</ele>
        <time>2020-05-26T19:56:21.051Z</time>
      </trkpt>
      <trkpt lat="43.5949" lon="6.46952">
        <ele>464.17047119141</ele>
        <time>2020-05-26T19:56:25.593Z</time>
      </trkpt>
      <trkpt lat="43.5949" lon="6.46935">
        <ele>461.51889038086</ele>
        <time>2020-05-26T19:56:30.137Z</time>
      </trkpt>
      <trkpt lat="43.59477" lon="6.46921">
        <ele>458.86734008789</ele>
        <time>2020-05-26T19:56:34.685Z</time>
      </trkpt>
      <trkpt lat="43.59478" lon="6.46913">
        <ele>457.6555480957</ele>
        <time>2020-05-26T19:56:39.234Z</time>
      </trkpt>
      <trkpt lat="43.59505" lon="6.46873">
        <ele>451.75299072266</ele>
        <time>2020-05-26T19:56:43.791Z</time>
      </trkpt>
      <trkpt lat="43.59509" lon="6.46855">
        <ele>448.34555053711</ele>
        <time>2020-05-26T19:56:48.350Z</time>
      </trkpt>
      <trkpt lat="43.59524" lon="6.46841">
        <ele>444.60140991211</ele>
        <time>2020-05-26T19:56:52.913Z</time>
      </trkpt>
      <trkpt lat="43.59514" lon="6.46827">
        <ele>443.03045654297</ele>
        <time>2020-05-26T19:56:57.479Z</time>
      </trkpt>
      <trkpt lat="43.59473" lon="6.46838">
        <ele>444.65017700195</ele>
        <time>2020-05-26T19:57:02.053Z</time>
      </trkpt>
      <trkpt lat="43.59449" lon="6.46851">
        <ele>446.359375</ele>
        <time>2020-05-26T19:57:06.632Z</time>
      </trkpt>
      <trkpt lat="43.59391" lon="6.46903">
        <ele>452.81488037109</ele>
        <time>2020-05-26T19:57:11.225Z</time>
      </trkpt>
      <trkpt lat="43.59377" lon="6.46911">
        <ele>454.25466918945</ele>
        <time>2020-05-26T19:57:15.821Z</time>
      </trkpt>
      <trkpt lat="43.59348" lon="6.4692">
        <ele>453.87240600586</ele>
        <time>2020-05-26T19:57:20.423Z</time>
      </trkpt>
      <trkpt lat="43.5933" lon="6.46922">
        <ele>456.36801147461</ele>
        <time>2020-05-26T19:57:25.029Z</time>
      </trkpt>
      <trkpt lat="43.59297" lon="6.4692">
        <ele>459.99139404297</ele>
        <time>2020-05-26T19:57:29.642Z</time>
      </trkpt>
      <trkpt lat="43.59289" lon="6.46921">
        <ele>460.9704284668</ele>
        <time>2020-05-26T19:57:34.256Z</time>
      </trkpt>
      <trkpt lat="43.5928" lon="6.46928">
        <ele>459.96258544922</ele>
        <time>2020-05-26T19:57:38.872Z</time>
      </trkpt>
      <trkpt lat="43.59249" lon="6.46956">
        <ele>461.1969909668</ele>
        <time>2020-05-26T19:57:43.496Z</time>
      </trkpt>
      <trkpt lat="43.59191" lon="6.4702">
        <ele>465.82373046875</ele>
        <time>2020-05-26T19:57:48.135Z</time>
      </trkpt>
      <trkpt lat="43.59132" lon="6.47084">
        <ele>470.73571777344</ele>
        <time>2020-05-26T19:57:52.789Z</time>
      </trkpt>
      <trkpt lat="43.59117" lon="6.47091">
        <ele>471.52270507812</ele>
        <time>2020-05-26T19:57:57.446Z</time>
      </trkpt>
      <trkpt lat="43.59109" lon="6.47091">
        <ele>471.04278564453</ele>
        <time>2020-05-26T19:58:02.104Z</time>
      </trkpt>
      <trkpt lat="43.59102" lon="6.47089">
        <ele>470.57489013672</ele>
        <time>2020-05-26T19:58:06.764Z</time>
      </trkpt>
      <trkpt lat="43.59093" lon="6.47081">
        <ele>471.68692016602</ele>
        <time>2020-05-26T19:58:11.426Z</time>
      </trkpt>
      <trkpt lat="43.5909" lon="6.47068">
        <ele>471.84289550781</ele>
        <time>2020-05-26T19:58:16.090Z</time>
      </trkpt>
      <trkpt lat="43.5909" lon="6.47054">
        <ele>473.49249267578</ele>
        <time>2020-05-26T19:58:20.756Z</time>
      </trkpt>
      <trkpt lat="43.59092" lon="6.47046">
        <ele>473.37252807617</ele>
        <time>2020-05-26T19:58:25.423Z</time>
      </trkpt>
      <trkpt lat="43.5913" lon="6.47004">
        <ele>471.0143737793</ele>
        <time>2020-05-26T19:58:30.100Z</time>
      </trkpt>
      <trkpt lat="43.59137" lon="6.4699">
        <ele>470.51043701172</ele>
        <time>2020-05-26T19:58:34.779Z</time>
      </trkpt>
      <trkpt lat="43.5914" lon="6.46977">
        <ele>471.15057373047</ele>
        <time>2020-05-26T19:58:39.460Z</time>
      </trkpt>
      <trkpt lat="43.59138" lon="6.46967">
        <ele>472.78228759766</ele>
        <time>2020-05-26T19:58:44.143Z</time>
      </trkpt>
      <trkpt lat="43.59135" lon="6.46958">
        <ele>474.36602783203</ele>
        <time>2020-05-26T19:58:48.827Z</time>
      </trkpt>
      <trkpt lat="43.59127" lon="6.46947">
        <ele>476.71765136719</ele>
        <time>2020-05-26T19:58:53.514Z</time>
      </trkpt>
      <trkpt lat="43.59122" lon="6.46944">
        <ele>477.62948608398</ele>
        <time>2020-05-26T19:58:58.202Z</time>
      </trkpt>
      <trkpt lat="43.5911" lon="6.46944">
        <ele>478.78131103516</ele>
        <time>2020-05-26T19:59:02.892Z</time>
      </trkpt>
      <trkpt lat="43.59076" lon="6.46961">
        <ele>484.1047668457</ele>
        <time>2020-05-26T19:59:07.589Z</time>
      </trkpt>
      <trkpt lat="43.59056" lon="6.46979">
        <ele>486.12042236328</ele>
        <time>2020-05-26T19:59:12.291Z</time>
      </trkpt>
      <trkpt lat="43.59006" lon="6.47048">
        <ele>489.27667236328</ele>
        <time>2020-05-26T19:59:17.007Z</time>
      </trkpt>
      <trkpt lat="43.58968" lon="6.47083">
        <ele>493.63262939453</ele>
        <time>2020-05-26T19:59:21.732Z</time>
      </trkpt>
      <trkpt lat="43.58912" lon="6.47128">
        <ele>498.33776855469</ele>
        <time>2020-05-26T19:59:26.470Z</time>
      </trkpt>
      <trkpt lat="43.5887" lon="6.47191">
        <ele>509.67514038086</ele>
        <time>2020-05-26T19:59:31.221Z</time>
      </trkpt>
      <trkpt lat="43.58864" lon="6.47204">
        <ele>510.44302368164</ele>
        <time>2020-05-26T19:59:35.974Z</time>
      </trkpt>
      <trkpt lat="43.5886" lon="6.47221">
        <ele>510.75497436523</ele>
        <time>2020-05-26T19:59:40.730Z</time>
      </trkpt>
      <trkpt lat="43.58861" lon="6.47229">
        <ele>510.38302612305</ele>
        <time>2020-05-26T19:59:45.487Z</time>
      </trkpt>
      <trkpt lat="43.58868" lon="6.4724">
        <ele>509.96795654297</ele>
        <time>2020-05-26T19:59:50.246Z</time>
      </trkpt>
      <trkpt lat="43.58875" lon="6.47246">
        <ele>509.50003051758</ele>
        <time>2020-05-26T19:59:55.007Z</time>
      </trkpt>
      <trkpt lat="43.58899" lon="6.47253">
        <ele>506.10461425781</ele>
        <time>2020-05-26T19:59:59.772Z</time>
      </trkpt>
      <trkpt lat="43.5891" lon="6.47261">
        <ele>505.18075561523</ele>
        <time>2020-05-26T20:00:04.540Z</time>
      </trkpt>
      <trkpt lat="43.5892" lon="6.47276">
        <ele>505.36071777344</ele>
        <time>2020-05-26T20:00:09.311Z</time>
      </trkpt>
      <trkpt lat="43.58923" lon="6.47285">
        <ele>506.00860595703</ele>
        <time>2020-05-26T20:00:14.083Z</time>
      </trkpt>
      <trkpt lat="43.58923" lon="6.47293">
        <ele>507.064453125</ele>
        <time>2020-05-26T20:00:18.856Z</time>
      </trkpt>
      <trkpt lat="43.58918" lon="6.47312">
        <ele>508.95959472656</ele>
        <time>2020-05-26T20:00:23.632Z</time>
      </trkpt>
      <trkpt lat="43.58895" lon="6.47366">
        <ele>514.49676513672</ele>
        <time>2020-05-26T20:00:28.417Z</time>
      </trkpt>
      <trkpt lat="43.58872" lon="6.47419">
        <ele>513.68280029297</ele>
        <time>2020-05-26T20:00:33.211Z</time>
      </trkpt>
      <trkpt lat="43.58829" lon="6.47519">
        <ele>511.05218505859</ele>
        <time>2020-05-26T20:00:38.022Z</time>
      </trkpt>
      <trkpt lat="43.58838" lon="6.4752">
        <ele>510.4162902832</ele>
        <time>2020-05-26T20:00:42.835Z</time>
      </trkpt>
      <trkpt lat="43.58845" lon="6.47517">
        <ele>509.87640380859</ele>
        <time>2020-05-26T20:00:47.650Z</time>
      </trkpt>
      <trkpt lat="43.58855" lon="6.47495">
        <ele>509.56512451172</ele>
        <time>2020-05-26T20:00:52.468Z</time>
      </trkpt>
      <trkpt lat="43.58873" lon="6.47477">
        <ele>511.79357910156</ele>
        <time>2020-05-26T20:00:57.291Z</time>
      </trkpt>
      <trkpt lat="43.58889" lon="6.47465">
        <ele>514.14520263672</ele>
        <time>2020-05-26T20:01:02.117Z</time>
      </trkpt>
      <trkpt lat="43.58903" lon="6.47464">
        <ele>515.86090087891</ele>
        <time>2020-05-26T20:01:06.946Z</time>
      </trkpt>
      <trkpt lat="43.58914" lon="6.47473">
        <ele>516.85675048828</ele>
        <time>2020-05-26T20:01:11.778Z</time>
      </trkpt>
      <trkpt lat="43.58928" lon="6.47506">
        <ele>518.45562744141</ele>
        <time>2020-05-26T20:01:16.615Z</time>
      </trkpt>
      <trkpt lat="43.58969" lon="6.47518">
        <ele>522.28936767578</ele>
        <time>2020-05-26T20:01:21.461Z</time>
      </trkpt>
      <trkpt lat="43.58981" lon="6.47527">
        <ele>523.30487060547</ele>
        <time>2020-05-26T20:01:26.310Z</time>
      </trkpt>
      <trkpt lat="43.58993" lon="6.47543">
        <ele>524.60498046875</ele>
        <time>2020-05-26T20:01:31.162Z</time>
      </trkpt>
      <trkpt lat="43.59017" lon="6.47594">
        <ele>527.89770507812</ele>
        <time>2020-05-26T20:01:36.023Z</time>
      </trkpt>
      <trkpt lat="43.59033" lon="6.47621">
        <ele>533.05621337891</ele>
        <time>2020-05-26T20:01:40.889Z</time>
      </trkpt>
      <trkpt lat="43.59037" lon="6.47632">
        <ele>534.55596923828</ele>
        <time>2020-05-26T20:01:45.757Z</time>
      </trkpt>
      <trkpt lat="43.59046" lon="6.47678">
        <ele>539.36254882812</ele>
        <time>2020-05-26T20:01:50.631Z</time>
      </trkpt>
      <trkpt lat="43.59045" lon="6.47703">
        <ele>539.96246337891</ele>
        <time>2020-05-26T20:01:55.509Z</time>
      </trkpt>
      <trkpt lat="43.59035" lon="6.47737">
        <ele>538.23504638672</ele>
        <time>2020-05-26T20:02:00.392Z</time>
      </trkpt>
      <trkpt lat="43.59034" lon="6.47747">
        <ele>538.4150390625</ele>
        <time>2020-05-26T20:02:05.277Z</time>
      </trkpt>
      <trkpt lat="43.59037" lon="6.47755">
        <ele>539.73736572266</ele>
        <time>2020-05-26T20:02:10.163Z</time>
      </trkpt>
      <trkpt lat="43.59042" lon="6.47759">
        <ele>541.41711425781</ele>
        <time>2020-05-26T20:02:15.050Z</time>
      </trkpt>
      <trkpt lat="43.5905" lon="6.47756">
        <ele>543.64617919922</ele>
        <time>2020-05-26T20:02:19.939Z</time>
      </trkpt>
      <trkpt lat="43.59079" lon="6.4772">
        <ele>550.77264404297</ele>
        <time>2020-05-26T20:02:24.836Z</time>
      </trkpt>
      <trkpt lat="43.59088" lon="6.47706">
        <ele>552.64587402344</ele>
        <time>2020-05-26T20:02:29.736Z</time>
      </trkpt>
      <trkpt lat="43.59113" lon="6.47641">
        <ele>555.78289794922</ele>
        <time>2020-05-26T20:02:34.646Z</time>
      </trkpt>
      <trkpt lat="43.59119" lon="6.4763">
        <ele>556.85070800781</ele>
        <time>2020-05-26T20:02:39.558Z</time>
      </trkpt>
      <trkpt lat="43.59127" lon="6.47623">
        <ele>558.734375</ele>
        <time>2020-05-26T20:02:44.472Z</time>
      </trkpt>
      <trkpt lat="43.59136" lon="6.47622">
        <ele>561.26599121094</ele>
        <time>2020-05-26T20:02:49.388Z</time>
      </trkpt>
      <trkpt lat="43.59141" lon="6.47626">
        <ele>562.94567871094</ele>
        <time>2020-05-26T20:02:54.305Z</time>
      </trkpt>
      <trkpt lat="43.59161" lon="6.47663">
        <ele>571.40563964844</ele>
        <time>2020-05-26T20:02:59.229Z</time>
      </trkpt>
      <trkpt lat="43.59171" lon="6.47666">
        <ele>574.57312011719</ele>
        <time>2020-05-26T20:03:04.155Z</time>
      </trkpt>
      <trkpt lat="43.59185" lon="6.47661">
        <ele>578.13140869141</ele>
        <time>2020-05-26T20:03:09.084Z</time>
      </trkpt>
      <trkpt lat="43.59218" lon="6.47636">
        <ele>585.46118164062</ele>
        <time>2020-05-26T20:03:14.020Z</time>
      </trkpt>
      <trkpt lat="43.59231" lon="6.47628">
        <ele>588.49664306641</ele>
        <time>2020-05-26T20:03:18.959Z</time>
      </trkpt>
      <trkpt lat="43.59238" lon="6.47625">
        <ele>590.27233886719</ele>
        <time>2020-05-26T20:03:23.900Z</time>
      </trkpt>
      <trkpt lat="43.59244" lon="6.47625">
        <ele>592.04357910156</ele>
        <time>2020-05-26T20:03:28.842Z</time>
      </trkpt>
      <trkpt lat="43.5925" lon="6.47632">
        <ele>594.62762451172</ele>
        <time>2020-05-26T20:03:33.785Z</time>
      </trkpt>
      <trkpt lat="43.59251" lon="6.47641">
        <ele>595.8994140625</ele>
        <time>2020-05-26T20:03:38.730Z</time>
      </trkpt>
      <trkpt lat="43.59246" lon="6.47664">
        <ele>597.40057373047</ele>
        <time>2020-05-26T20:03:43.678Z</time>
      </trkpt>
      <trkpt lat="43.59242" lon="6.47701">
        <ele>601.52789306641</ele>
        <time>2020-05-26T20:03:48.632Z</time>
      </trkpt>
      <trkpt lat="43.59231" lon="6.47741">
        <ele>601.71917724609</ele>
        <time>2020-05-26T20:03:53.592Z</time>
      </trkpt>
      <trkpt lat="43.59233" lon="6.4775">
        <ele>603.17095947266</ele>
        <time>2020-05-26T20:03:58.553Z</time>
      </trkpt>
      <trkpt lat="43.59239" lon="6.47758">
        <ele>605.93048095703</ele>
        <time>2020-05-26T20:04:03.516Z</time>
      </trkpt>
      <trkpt lat="43.59247" lon="6.47758">
        <ele>608.71405029297</ele>
        <time>2020-05-26T20:04:08.480Z</time>
      </trkpt>
      <trkpt lat="43.59254" lon="6.47755">
        <ele>610.89764404297</ele>
        <time>2020-05-26T20:04:13.446Z</time>
      </trkpt>
      <trkpt lat="43.59288" lon="6.47711">
        <ele>615.81665039062</ele>
        <time>2020-05-26T20:04:18.421Z</time>
      </trkpt>
      <trkpt lat="43.59298" lon="6.47702">
        <ele>617.04046630859</ele>
        <time>2020-05-26T20:04:23.399Z</time>
      </trkpt>
      <trkpt lat="43.5931" lon="6.47697">
        <ele>619.34405517578</ele>
        <time>2020-05-26T20:04:28.379Z</time>
      </trkpt>
      <trkpt lat="43.59323" lon="6.47695">
        <ele>622.55700683594</ele>
        <time>2020-05-26T20:04:33.362Z</time>
      </trkpt>
      <trkpt lat="43.5933" lon="6.47697">
        <ele>624.72863769531</ele>
        <time>2020-05-26T20:04:38.346Z</time>
      </trkpt>
      <trkpt lat="43.59342" lon="6.47705">
        <ele>628.99993896484</ele>
        <time>2020-05-26T20:04:43.333Z</time>
      </trkpt>
      <trkpt lat="43.59351" lon="6.47724">
        <ele>633.76318359375</ele>
        <time>2020-05-26T20:04:48.323Z</time>
      </trkpt>
      <trkpt lat="43.5935" lon="6.47783">
        <ele>638.203125</ele>
        <time>2020-05-26T20:04:53.322Z</time>
      </trkpt>
      <trkpt lat="43.59345" lon="6.47843">
        <ele>641.98175048828</ele>
        <time>2020-05-26T20:04:58.330Z</time>
      </trkpt>
      <trkpt lat="43.59346" lon="6.47905">
        <ele>648.24560546875</ele>
        <time>2020-05-26T20:05:03.347Z</time>
      </trkpt>
      <trkpt lat="43.59356" lon="6.47952">
        <ele>651.86560058594</ele>
        <time>2020-05-26T20:05:08.371Z</time>
      </trkpt>
      <trkpt lat="43.59353" lon="6.48003">
        <ele>655.61822509766</ele>
        <time>2020-05-26T20:05:13.402Z</time>
      </trkpt>
      <trkpt lat="43.5934" lon="6.48083">
        <ele>658.07049560547</ele>
        <time>2020-05-26T20:05:18.445Z</time>
      </trkpt>
      <trkpt lat="43.59337" lon="6.48091">
        <ele>657.96252441406</ele>
        <time>2020-05-26T20:05:23.489Z</time>
      </trkpt>
      <trkpt lat="43.59323" lon="6.48134">
        <ele>658.58892822266</ele>
        <time>2020-05-26T20:05:28.540Z</time>
      </trkpt>
      <trkpt lat="43.59328" lon="6.48181">
        <ele>664.33947753906</ele>
        <time>2020-05-26T20:05:33.598Z</time>
      </trkpt>
      <trkpt lat="43.59349" lon="6.48221">
        <ele>670.3984375</ele>
        <time>2020-05-26T20:05:38.663Z</time>
      </trkpt>
      <trkpt lat="43.59355" lon="6.48279">
        <ele>673.46618652344</ele>
        <time>2020-05-26T20:05:43.737Z</time>
      </trkpt>
      <trkpt lat="43.59355" lon="6.48281">
        <ele>673.56213378906</ele>
        <time>2020-05-26T20:05:48.811Z</time>
      </trkpt>
      <trkpt lat="43.59335" lon="6.48323">
        <ele>676.71429443359</ele>
        <time>2020-05-26T20:05:53.892Z</time>
      </trkpt>
      <trkpt lat="43.59313" lon="6.48384">
        <ele>681.26525878906</ele>
        <time>2020-05-26T20:05:58.983Z</time>
      </trkpt>
      <trkpt lat="43.59293" lon="6.48398">
        <ele>684.04876708984</ele>
        <time>2020-05-26T20:06:04.079Z</time>
      </trkpt>
      <trkpt lat="43.59245" lon="6.48391">
        <ele>680.83734130859</ele>
        <time>2020-05-26T20:06:09.184Z</time>
      </trkpt>
      <trkpt lat="43.59223" lon="6.48392">
        <ele>677.28594970703</ele>
        <time>2020-05-26T20:06:14.294Z</time>
      </trkpt>
      <trkpt lat="43.59205" lon="6.48404">
        <ele>675.88824462891</ele>
        <time>2020-05-26T20:06:19.408Z</time>
      </trkpt>
      <trkpt lat="43.59192" lon="6.48428">
        <ele>677.34478759766</ele>
        <time>2020-05-26T20:06:24.526Z</time>
      </trkpt>
      <trkpt lat="43.59175" lon="6.48495">
        <ele>682.87896728516</ele>
        <time>2020-05-26T20:06:29.654Z</time>
      </trkpt>
      <trkpt lat="43.59157" lon="6.48561">
        <ele>686.05535888672</ele>
        <time>2020-05-26T20:06:34.793Z</time>
      </trkpt>
      <trkpt lat="43.59137" lon="6.48617">
        <ele>681.87219238281</ele>
        <time>2020-05-26T20:06:39.941Z</time>
      </trkpt>
      <trkpt lat="43.59136" lon="6.4862">
        <ele>681.88421630859</ele>
        <time>2020-05-26T20:06:45.089Z</time>
      </trkpt>
      <trkpt lat="43.59127" lon="6.4862">
        <ele>680.04852294922</ele>
        <time>2020-05-26T20:06:50.239Z</time>
      </trkpt>
      <trkpt lat="43.59098" lon="6.48654">
        <ele>676.09008789062</ele>
        <time>2020-05-26T20:06:55.397Z</time>
      </trkpt>
      <trkpt lat="43.59073" lon="6.48703">
        <ele>670.35504150391</ele>
        <time>2020-05-26T20:07:00.563Z</time>
      </trkpt>
      <trkpt lat="43.59058" lon="6.48682">
        <ele>665.09991455078</ele>
        <time>2020-05-26T20:07:05.734Z</time>
      </trkpt>
      <trkpt lat="43.5905" lon="6.48682">
        <ele>662.75738525391</ele>
        <time>2020-05-26T20:07:10.906Z</time>
      </trkpt>
      <trkpt lat="43.59034" lon="6.48697">
        <ele>662.96136474609</ele>
        <time>2020-05-26T20:07:16.082Z</time>
      </trkpt>
      <trkpt lat="43.59009" lon="6.48708">
        <ele>660.26977539062</ele>
        <time>2020-05-26T20:07:21.263Z</time>
      </trkpt>
      <trkpt lat="43.58999" lon="6.48716">
        <ele>659.38366699219</ele>
        <time>2020-05-26T20:07:26.447Z</time>
      </trkpt>
      <trkpt lat="43.58989" lon="6.487">
        <ele>654.03082275391</ele>
        <time>2020-05-26T20:07:31.634Z</time>
      </trkpt>
      <trkpt lat="43.58983" lon="6.48677">
        <ele>648.45172119141</ele>
        <time>2020-05-26T20:07:36.824Z</time>
      </trkpt>
      <trkpt lat="43.5898" lon="6.48678">
        <ele>647.91180419922</ele>
        <time>2020-05-26T20:07:42.015Z</time>
      </trkpt>
      <trkpt lat="43.58964" lon="6.48687">
        <ele>645.98193359375</ele>
        <time>2020-05-26T20:07:47.209Z</time>
      </trkpt>
      <trkpt lat="43.5895" lon="6.48678">
        <ele>641.18267822266</ele>
        <time>2020-05-26T20:07:52.406Z</time>
      </trkpt>
      <trkpt lat="43.58933" lon="6.4867">
        <ele>635.85485839844</ele>
        <time>2020-05-26T20:07:57.607Z</time>
      </trkpt>
      <trkpt lat="43.5892" lon="6.48676">
        <ele>633.56323242188</ele>
        <time>2020-05-26T20:08:02.811Z</time>
      </trkpt>
      <trkpt lat="43.58875" lon="6.48671">
        <ele>620.06549072266</ele>
        <time>2020-05-26T20:08:08.024Z</time>
      </trkpt>
      <trkpt lat="43.58846" lon="6.48683">
        <ele>612.1953125</ele>
        <time>2020-05-26T20:08:13.243Z</time>
      </trkpt>
      <trkpt lat="43.58832" lon="6.48701">
        <ele>611.54742431641</ele>
        <time>2020-05-26T20:08:18.466Z</time>
      </trkpt>
      <trkpt lat="43.58824" lon="6.48717">
        <ele>610.84155273438</ele>
        <time>2020-05-26T20:08:23.692Z</time>
      </trkpt>
      <trkpt lat="43.58811" lon="6.48715">
        <ele>606.71423339844</ele>
        <time>2020-05-26T20:08:28.920Z</time>
      </trkpt>
      <trkpt lat="43.58785" lon="6.48704">
        <ele>598.20764160156</ele>
        <time>2020-05-26T20:08:34.154Z</time>
      </trkpt>
      <trkpt lat="43.58762" lon="6.48672">
        <ele>590.84014892578</ele>
        <time>2020-05-26T20:08:39.394Z</time>
      </trkpt>
      <trkpt lat="43.58747" lon="6.48647">
        <ele>587.73480224609</ele>
        <time>2020-05-26T20:08:44.639Z</time>
      </trkpt>
      <trkpt lat="43.58728" lon="6.48633">
        <ele>584.93927001953</ele>
        <time>2020-05-26T20:08:49.888Z</time>
      </trkpt>
      <trkpt lat="43.58703" lon="6.48637">
        <ele>580.99194335938</ele>
        <time>2020-05-26T20:08:55.142Z</time>
      </trkpt>
      <trkpt lat="43.58677" lon="6.48616">
        <ele>577.28216552734</ele>
        <time>2020-05-26T20:09:00.402Z</time>
      </trkpt>
      <trkpt lat="43.58664" lon="6.48618">
        <ele>575.38647460938</ele>
        <time>2020-05-26T20:09:05.665Z</time>
      </trkpt>
      <trkpt lat="43.58667" lon="6.48625">
        <ele>575.73443603516</ele>
        <time>2020-05-26T20:09:10.929Z</time>
      </trkpt>
      <trkpt lat="43.58654" lon="6.4863">
        <ele>574.33099365234</ele>
        <time>2020-05-26T20:09:16.196Z</time>
      </trkpt>
      <trkpt lat="43.58629" lon="6.4865">
        <ele>572.62664794922</ele>
        <time>2020-05-26T20:09:21.469Z</time>
      </trkpt>
      <trkpt lat="43.5862" lon="6.4867">
        <ele>569.98352050781</ele>
        <time>2020-05-26T20:09:26.745Z</time>
      </trkpt>
      <trkpt lat="43.58607" lon="6.48679">
        <ele>566.66003417969</ele>
        <time>2020-05-26T20:09:32.024Z</time>
      </trkpt>
      <trkpt lat="43.58589" lon="6.48686">
        <ele>561.49981689453</ele>
        <time>2020-05-26T20:09:37.307Z</time>
      </trkpt>
      <trkpt lat="43.58576" lon="6.48679">
        <ele>559.07623291016</ele>
        <time>2020-05-26T20:09:42.592Z</time>
      </trkpt>
      <trkpt lat="43.58566" lon="6.48666">
        <ele>558.30834960938</ele>
        <time>2020-05-26T20:09:47.880Z</time>
      </trkpt>
      <trkpt lat="43.58561" lon="6.48664">
        <ele>557.27648925781</ele>
        <time>2020-05-26T20:09:53.169Z</time>
      </trkpt>
      <trkpt lat="43.5856" lon="6.48664">
        <ele>557.01257324219</ele>
        <time>2020-05-26T20:09:58.458Z</time>
      </trkpt>
      <trkpt lat="43.58546" lon="6.48661">
        <ele>553.74908447266</ele>
        <time>2020-05-26T20:10:03.750Z</time>
      </trkpt>
      <trkpt lat="43.58533" lon="6.4867">
        <ele>549.46807861328</ele>
        <time>2020-05-26T20:10:09.045Z</time>
      </trkpt>
      <trkpt lat="43.58519" lon="6.48683">
        <ele>546.16864013672</ele>
        <time>2020-05-26T20:10:14.344Z</time>
      </trkpt>
      <trkpt lat="43.58507" lon="6.48688">
        <ele>541.71002197266</ele>
        <time>2020-05-26T20:10:19.645Z</time>
      </trkpt>
      <trkpt lat="43.58499" lon="6.48688">
        <ele>538.83050537109</ele>
        <time>2020-05-26T20:10:24.948Z</time>
      </trkpt>
      <trkpt lat="43.58493" lon="6.48672">
        <ele>537.63067626953</ele>
        <time>2020-05-26T20:10:30.253Z</time>
      </trkpt>
      <trkpt lat="43.5848" lon="6.48654">
        <ele>534.03131103516</ele>
        <time>2020-05-26T20:10:35.562Z</time>
      </trkpt>
      <trkpt lat="43.5847" lon="6.48698">
        <ele>529.03680419922</ele>
        <time>2020-05-26T20:10:40.878Z</time>
      </trkpt>
      <trkpt lat="43.58471" lon="6.48711">
        <ele>529.76867675781</ele>
        <time>2020-05-26T20:10:46.196Z</time>
      </trkpt>
      <trkpt lat="43.58451" lon="6.48784">
        <ele>521.09216308594</ele>
        <time>2020-05-26T20:10:51.525Z</time>
      </trkpt>
      <trkpt lat="43.58428" lon="6.48795">
        <ele>516.65240478516</ele>
        <time>2020-05-26T20:10:56.859Z</time>
      </trkpt>
      <trkpt lat="43.58422" lon="6.48819">
        <ele>515.87054443359</ele>
        <time>2020-05-26T20:11:02.196Z</time>
      </trkpt>
      <trkpt lat="43.58366" lon="6.48879">
        <ele>510.25</ele>
        <time>2020-05-26T20:11:07.548Z</time>
      </trkpt>
      <trkpt lat="43.58339" lon="6.48853">
        <ele>508.92367553711</ele>
        <time>2020-05-26T20:11:12.906Z</time>
      </trkpt>
      <trkpt lat="43.58314" lon="6.48847">
        <ele>505.69622802734</ele>
        <time>2020-05-26T20:11:18.269Z</time>
      </trkpt>
      <trkpt lat="43.58303" lon="6.48877">
        <ele>505.41888427734</ele>
        <time>2020-05-26T20:11:23.637Z</time>
      </trkpt>
      <trkpt lat="43.58297" lon="6.4891">
        <ele>503.52209472656</ele>
        <time>2020-05-26T20:11:29.010Z</time>
      </trkpt>
      <trkpt lat="43.58299" lon="6.4893">
        <ele>498.62692260742</ele>
        <time>2020-05-26T20:11:34.386Z</time>
      </trkpt>
      <trkpt lat="43.58286" lon="6.48937">
        <ele>499.61880493164</ele>
        <time>2020-05-26T20:11:39.765Z</time>
      </trkpt>
      <trkpt lat="43.58215" lon="6.48909">
        <ele>495.17337036133</ele>
        <time>2020-05-26T20:11:45.159Z</time>
      </trkpt>
      <trkpt lat="43.58191" lon="6.48919">
        <ele>493.14852905273</ele>
        <time>2020-05-26T20:11:50.558Z</time>
      </trkpt>
      <trkpt lat="43.58191" lon="6.4892">
        <ele>493.26849365234</ele>
        <time>2020-05-26T20:11:55.957Z</time>
      </trkpt>
      <trkpt lat="43.58187" lon="6.48922">
        <ele>493.60446166992</ele>
        <time>2020-05-26T20:12:01.357Z</time>
      </trkpt>
      <trkpt lat="43.58139" lon="6.4896">
        <ele>483.1298828125</ele>
        <time>2020-05-26T20:12:06.768Z</time>
      </trkpt>
      <trkpt lat="43.58111" lon="6.48963">
        <ele>474.4553527832</ele>
        <time>2020-05-26T20:12:12.184Z</time>
      </trkpt>
      <trkpt lat="43.58087" lon="6.4898">
        <ele>467.42916870117</ele>
        <time>2020-05-26T20:12:17.606Z</time>
      </trkpt>
      <trkpt lat="43.58061" lon="6.49008">
        <ele>453.69610595703</ele>
        <time>2020-05-26T20:12:23.034Z</time>
      </trkpt>
      <trkpt lat="43.58056" lon="6.49038">
        <ele>450.01132202148</ele>
        <time>2020-05-26T20:12:28.467Z</time>
      </trkpt>
      <trkpt lat="43.58033" lon="6.49057">
        <ele>441.50473022461</ele>
        <time>2020-05-26T20:12:33.905Z</time>
      </trkpt>
      <trkpt lat="43.58021" lon="6.49083">
        <ele>433.94772338867</ele>
        <time>2020-05-26T20:12:39.348Z</time>
      </trkpt>
      <trkpt lat="43.57962" lon="6.49113">
        <ele>404.50637817383</ele>
        <time>2020-05-26T20:12:44.803Z</time>
      </trkpt>
      <trkpt lat="43.57952" lon="6.49149">
        <ele>399.85116577148</ele>
        <time>2020-05-26T20:12:50.264Z</time>
      </trkpt>
      <trkpt lat="43.57945" lon="6.49176">
        <ele>392.59231567383</ele>
        <time>2020-05-26T20:12:55.729Z</time>
      </trkpt>
      <trkpt lat="43.57944" lon="6.49211">
        <ele>387.3251953125</ele>
        <time>2020-05-26T20:13:01.199Z</time>
      </trkpt>
      <trkpt lat="43.57928" lon="6.49214">
        <ele>383.88674926758</ele>
        <time>2020-05-26T20:13:06.672Z</time>
      </trkpt>
      <trkpt lat="43.57919" lon="6.49244">
        <ele>381.48291015625</ele>
        <time>2020-05-26T20:13:12.150Z</time>
      </trkpt>
      <trkpt lat="43.5792" lon="6.4928">
        <ele>379.75518798828</ele>
        <time>2020-05-26T20:13:17.633Z</time>
      </trkpt>
      <trkpt lat="43.57913" lon="6.49275">
        <ele>379.99514770508</ele>
        <time>2020-05-26T20:13:23.118Z</time>
      </trkpt>
      <trkpt lat="43.57892" lon="6.49282">
        <ele>380.53433227539</ele>
        <time>2020-05-26T20:13:28.607Z</time>
      </trkpt>
      <trkpt lat="43.57872" lon="6.49272">
        <ele>382.09408569336</ele>
        <time>2020-05-26T20:13:34.100Z</time>
      </trkpt>
      <trkpt lat="43.57864" lon="6.49277">
        <ele>383.25787353516</ele>
        <time>2020-05-26T20:13:39.595Z</time>
      </trkpt>
      <trkpt lat="43.57837" lon="6.49366">
        <ele>392.02828979492</ele>
        <time>2020-05-26T20:13:45.104Z</time>
      </trkpt>
      <trkpt lat="43.57818" lon="6.49407">
        <ele>394.90902709961</ele>
        <time>2020-05-26T20:13:50.620Z</time>
      </trkpt>
      <trkpt lat="43.57834" lon="6.49334">
        <ele>390.54055786133</ele>
        <time>2020-05-26T20:13:56.147Z</time>
      </trkpt>
      <trkpt lat="43.57838" lon="6.49303">
        <ele>387.46524047852</ele>
        <time>2020-05-26T20:14:01.679Z</time>
      </trkpt>
      <trkpt lat="43.57841" lon="6.49254">
        <ele>384.23776245117</ele>
        <time>2020-05-26T20:14:07.218Z</time>
      </trkpt>
      <trkpt lat="43.5784" lon="6.49215">
        <ele>382.21865844727</ele>
        <time>2020-05-26T20:14:12.763Z</time>
      </trkpt>
      <trkpt lat="43.57834" lon="6.49153">
        <ele>382.96255493164</ele>
        <time>2020-05-26T20:14:18.317Z</time>
      </trkpt>
      <trkpt lat="43.57834" lon="6.49152">
        <ele>382.97454833984</ele>
        <time>2020-05-26T20:14:23.871Z</time>
      </trkpt>
      <trkpt lat="43.57831" lon="6.49097">
        <ele>382.75607299805</ele>
        <time>2020-05-26T20:14:29.433Z</time>
      </trkpt>
      <trkpt lat="43.57818" lon="6.48975">
        <ele>380.19253540039</ele>
        <time>2020-05-26T20:14:35.013Z</time>
      </trkpt>
      <trkpt lat="43.57814" lon="6.48912">
        <ele>381.3171081543</ele>
        <time>2020-05-26T20:14:40.602Z</time>
      </trkpt>
      <trkpt lat="43.57809" lon="6.48848">
        <ele>382.79898071289</ele>
        <time>2020-05-26T20:14:46.200Z</time>
      </trkpt>
      <trkpt lat="43.57811" lon="6.48785">
        <ele>386.40960693359</ele>
        <time>2020-05-26T20:14:51.808Z</time>
      </trkpt>
      <trkpt lat="43.57824" lon="6.48738">
        <ele>385.53234863281</ele>
        <time>2020-05-26T20:14:57.423Z</time>
      </trkpt>
      <trkpt lat="43.57838" lon="6.48696">
        <ele>386.99813842773</ele>
        <time>2020-05-26T20:15:03.045Z</time>
      </trkpt>
      <trkpt lat="43.57848" lon="6.48678">
        <ele>386.35025024414</ele>
        <time>2020-05-26T20:15:08.670Z</time>
      </trkpt>
      <trkpt lat="43.57861" lon="6.48665">
        <ele>387.76718139648</ele>
        <time>2020-05-26T20:15:14.298Z</time>
      </trkpt>
      <trkpt lat="43.57876" lon="6.4866">
        <ele>388.41842651367</ele>
        <time>2020-05-26T20:15:19.929Z</time>
      </trkpt>
      <trkpt lat="43.57883" lon="6.4866">
        <ele>388.50241088867</ele>
        <time>2020-05-26T20:15:25.562Z</time>
      </trkpt>
      <trkpt lat="43.57898" lon="6.48665">
        <ele>388.74237060547</ele>
        <time>2020-05-26T20:15:31.198Z</time>
      </trkpt>
      <trkpt lat="43.57911" lon="6.48678">
        <ele>389.05432128906</ele>
        <time>2020-05-26T20:15:36.837Z</time>
      </trkpt>
      <trkpt lat="43.57921" lon="6.48699">
        <ele>389.42626953125</ele>
        <time>2020-05-26T20:15:42.480Z</time>
      </trkpt>
      <trkpt lat="43.57924" lon="6.48715">
        <ele>389.65423583984</ele>
        <time>2020-05-26T20:15:48.125Z</time>
      </trkpt>
      <trkpt lat="43.57922" lon="6.48741">
        <ele>389.10250854492</ele>
        <time>2020-05-26T20:15:53.774Z</time>
      </trkpt>
      <trkpt lat="43.57901" lon="6.48839">
        <ele>388.93914794922</ele>
        <time>2020-05-26T20:15:59.438Z</time>
      </trkpt>
      <trkpt lat="43.57904" lon="6.48854">
        <ele>389.47906494141</ele>
        <time>2020-05-26T20:16:05.104Z</time>
      </trkpt>
      <trkpt lat="43.57912" lon="6.48866">
        <ele>390.91882324219</ele>
        <time>2020-05-26T20:16:10.772Z</time>
      </trkpt>
      <trkpt lat="43.57917" lon="6.4887">
        <ele>391.81866455078</ele>
        <time>2020-05-26T20:16:16.441Z</time>
      </trkpt>
      <trkpt lat="43.57931" lon="6.48872">
        <ele>394.33825683594</ele>
        <time>2020-05-26T20:16:22.113Z</time>
      </trkpt>
      <trkpt lat="43.57942" lon="6.48866">
        <ele>398.25088500977</ele>
        <time>2020-05-26T20:16:27.788Z</time>
      </trkpt>
      <trkpt lat="43.57951" lon="6.48854">
        <ele>402.24621582031</ele>
        <time>2020-05-26T20:16:33.465Z</time>
      </trkpt>
      <trkpt lat="43.57956" lon="6.48829">
        <ele>403.51428222656</ele>
        <time>2020-05-26T20:16:39.146Z</time>
      </trkpt>
      <trkpt lat="43.57969" lon="6.48714">
        <ele>400.06552124023</ele>
        <time>2020-05-26T20:16:44.844Z</time>
      </trkpt>
      <trkpt lat="43.57973" lon="6.48699">
        <ele>401.08535766602</ele>
        <time>2020-05-26T20:16:50.544Z</time>
      </trkpt>
      <trkpt lat="43.57989" lon="6.48666">
        <ele>405.03128051758</ele>
        <time>2020-05-26T20:16:56.250Z</time>
      </trkpt>
      <trkpt lat="43.57992" lon="6.48656">
        <ele>405.65518188477</ele>
        <time>2020-05-26T20:17:01.958Z</time>
      </trkpt>
      <trkpt lat="43.57994" lon="6.48627">
        <ele>406.90264892578</ele>
        <time>2020-05-26T20:17:07.670Z</time>
      </trkpt>
      <trkpt lat="43.57991" lon="6.48582">
        <ele>407.65853881836</ele>
        <time>2020-05-26T20:17:13.388Z</time>
      </trkpt>
      <trkpt lat="43.57992" lon="6.48551">
        <ele>410.54501342773</ele>
        <time>2020-05-26T20:17:19.111Z</time>
      </trkpt>
      <trkpt lat="43.5801" lon="6.4847">
        <ele>416.52847290039</ele>
        <time>2020-05-26T20:17:24.846Z</time>
      </trkpt>
      <trkpt lat="43.58019" lon="6.48444">
        <ele>415.94384765625</ele>
        <time>2020-05-26T20:17:30.585Z</time>
      </trkpt>
      <trkpt lat="43.58045" lon="6.48385">
        <ele>424.97393798828</ele>
        <time>2020-05-26T20:17:36.334Z</time>
      </trkpt>
      <trkpt lat="43.58059" lon="6.48328">
        <ele>427.37005615234</ele>
        <time>2020-05-26T20:17:42.092Z</time>
      </trkpt>
      <trkpt lat="43.58075" lon="6.48277">
        <ele>431.36599731445</ele>
        <time>2020-05-26T20:17:47.858Z</time>
      </trkpt>
      <trkpt lat="43.58108" lon="6.48199">
        <ele>431.92324829102</ele>
        <time>2020-05-26T20:17:53.637Z</time>
      </trkpt>
      <trkpt lat="43.58141" lon="6.48121">
        <ele>440.95227050781</ele>
        <time>2020-05-26T20:17:59.429Z</time>
      </trkpt>
      <trkpt lat="43.58161" lon="6.48063">
        <ele>440.92596435547</ele>
        <time>2020-05-26T20:18:05.231Z</time>
      </trkpt>
      <trkpt lat="43.58186" lon="6.48026">
        <ele>442.21157836914</ele>
        <time>2020-05-26T20:18:11.040Z</time>
      </trkpt>
      <trkpt lat="43.58198" lon="6.48003">
        <ele>443.37536621094</ele>
        <time>2020-05-26T20:18:16.853Z</time>
      </trkpt>
      <trkpt lat="43.58231" lon="6.47891">
        <ele>447.34643554688</ele>
        <time>2020-05-26T20:18:22.684Z</time>
      </trkpt>
      <trkpt lat="43.58256" lon="6.4783">
        <ele>449.31140136719</ele>
        <time>2020-05-26T20:18:28.525Z</time>
      </trkpt>
      <trkpt lat="43.58275" lon="6.47792">
        <ele>451.74365234375</ele>
        <time>2020-05-26T20:18:34.373Z</time>
      </trkpt>
      <trkpt lat="43.58269" lon="6.47791">
        <ele>448.98413085938</ele>
        <time>2020-05-26T20:18:40.222Z</time>
      </trkpt>
      <trkpt lat="43.5825" lon="6.47815">
        <ele>446.03051757812</ele>
        <time>2020-05-26T20:18:46.076Z</time>
      </trkpt>
      <trkpt lat="43.58225" lon="6.47863">
        <ele>444.1789855957</ele>
        <time>2020-05-26T20:18:51.939Z</time>
      </trkpt>
      <trkpt lat="43.58203" lon="6.47933">
        <ele>440.05712890625</ele>
        <time>2020-05-26T20:18:57.813Z</time>
      </trkpt>
      <trkpt lat="43.58185" lon="6.47973">
        <ele>434.63403320312</ele>
        <time>2020-05-26T20:19:03.694Z</time>
      </trkpt>
      <trkpt lat="43.58174" lon="6.48006">
        <ele>437.17013549805</ele>
        <time>2020-05-26T20:19:09.580Z</time>
      </trkpt>
      <trkpt lat="43.58156" lon="6.48029">
        <ele>438.38192749023</ele>
        <time>2020-05-26T20:19:15.471Z</time>
      </trkpt>
      <trkpt lat="43.58151" lon="6.48029">
        <ele>437.72204589844</ele>
        <time>2020-05-26T20:19:21.363Z</time>
      </trkpt>
      <trkpt lat="43.58149" lon="6.48023">
        <ele>436.52224731445</ele>
        <time>2020-05-26T20:19:27.256Z</time>
      </trkpt>
      <trkpt lat="43.58168" lon="6.47949">
        <ele>432.54113769531</ele>
        <time>2020-05-26T20:19:33.160Z</time>
      </trkpt>
      <trkpt lat="43.58186" lon="6.47875">
        <ele>430.5732421875</ele>
        <time>2020-05-26T20:19:39.075Z</time>
      </trkpt>
      <trkpt lat="43.58187" lon="6.47822">
        <ele>429.02551269531</ele>
        <time>2020-05-26T20:19:44.998Z</time>
      </trkpt>
      <trkpt lat="43.58137" lon="6.47823">
        <ele>429.95794677734</ele>
        <time>2020-05-26T20:19:50.931Z</time>
      </trkpt>
      <trkpt lat="43.58102" lon="6.47852">
        <ele>429.31793212891</ele>
        <time>2020-05-26T20:19:56.872Z</time>
      </trkpt>
      <trkpt lat="43.58085" lon="6.47832">
        <ele>434.37252807617</ele>
        <time>2020-05-26T20:20:02.818Z</time>
      </trkpt>
      <trkpt lat="43.58078" lon="6.4781">
        <ele>437.26791381836</ele>
        <time>2020-05-26T20:20:08.767Z</time>
      </trkpt>
      <trkpt lat="43.58082" lon="6.47789">
        <ele>437.7106628418</ele>
        <time>2020-05-26T20:20:14.719Z</time>
      </trkpt>
      <trkpt lat="43.58086" lon="6.47771">
        <ele>438.310546875</ele>
        <time>2020-05-26T20:20:20.674Z</time>
      </trkpt>
      <trkpt lat="43.58092" lon="6.47706">
        <ele>442.47332763672</ele>
        <time>2020-05-26T20:20:26.639Z</time>
      </trkpt>
      <trkpt lat="43.58071" lon="6.47651">
        <ele>451.84375</ele>
        <time>2020-05-26T20:20:32.613Z</time>
      </trkpt>
      <trkpt lat="43.58058" lon="6.47569">
        <ele>463.99838256836</ele>
        <time>2020-05-26T20:20:38.599Z</time>
      </trkpt>
      <trkpt lat="43.58029" lon="6.47536">
        <ele>471.40789794922</ele>
        <time>2020-05-26T20:20:44.592Z</time>
      </trkpt>
      <trkpt lat="43.57965" lon="6.47495">
        <ele>481.66647338867</ele>
        <time>2020-05-26T20:20:50.600Z</time>
      </trkpt>
      <trkpt lat="43.57964" lon="6.47495">
        <ele>481.69046020508</ele>
        <time>2020-05-26T20:20:56.608Z</time>
      </trkpt>
      <trkpt lat="43.57903" lon="6.47479">
        <ele>488.18206787109</ele>
        <time>2020-05-26T20:21:02.628Z</time>
      </trkpt>
      <trkpt lat="43.5787" lon="6.47447">
        <ele>492.50134277344</ele>
        <time>2020-05-26T20:21:08.656Z</time>
      </trkpt>
      <trkpt lat="43.57836" lon="6.47438">
        <ele>494.61734008789</ele>
        <time>2020-05-26T20:21:14.691Z</time>
      </trkpt>
      <trkpt lat="43.57806" lon="6.47424">
        <ele>495.12124633789</ele>
        <time>2020-05-26T20:21:20.733Z</time>
      </trkpt>
      <trkpt lat="43.57794" lon="6.47423">
        <ele>495.15725708008</ele>
        <time>2020-05-26T20:21:26.777Z</time>
      </trkpt>
      <trkpt lat="43.57776" lon="6.47446">
        <ele>496.63278198242</ele>
        <time>2020-05-26T20:21:32.826Z</time>
      </trkpt>
      <trkpt lat="43.5776" lon="6.47454">
        <ele>498.74234008789</ele>
        <time>2020-05-26T20:21:38.878Z</time>
      </trkpt>
      <trkpt lat="43.57749" lon="6.47445">
        <ele>500.50604248047</ele>
        <time>2020-05-26T20:21:44.933Z</time>
      </trkpt>
      <trkpt lat="43.57735" lon="6.47423">
        <ele>502.49771118164</ele>
        <time>2020-05-26T20:21:50.992Z</time>
      </trkpt>
      <trkpt lat="43.5771" lon="6.47413">
        <ele>506.75698852539</ele>
        <time>2020-05-26T20:21:57.056Z</time>
      </trkpt>
      <trkpt lat="43.57707" lon="6.4745">
        <ele>507.17517089844</ele>
        <time>2020-05-26T20:22:03.126Z</time>
      </trkpt>
      <trkpt lat="43.57698" lon="6.47486">
        <ele>508.259765625</ele>
        <time>2020-05-26T20:22:09.201Z</time>
      </trkpt>
      <trkpt lat="43.57679" lon="6.47515">
        <ele>509.63619995117</ele>
        <time>2020-05-26T20:22:15.282Z</time>
      </trkpt>
      <trkpt lat="43.57667" lon="6.47591">
        <ele>507.87341308594</ele>
        <time>2020-05-26T20:22:21.374Z</time>
      </trkpt>
      <trkpt lat="43.57678" lon="6.47635">
        <ele>508.66528320312</ele>
        <time>2020-05-26T20:22:27.473Z</time>
      </trkpt>
      <trkpt lat="43.57701" lon="6.47718">
        <ele>508.96505737305</ele>
        <time>2020-05-26T20:22:33.585Z</time>
      </trkpt>
      <trkpt lat="43.57663" lon="6.47747">
        <ele>505.31289672852</ele>
        <time>2020-05-26T20:22:39.706Z</time>
      </trkpt>
      <trkpt lat="43.57623" lon="6.47771">
        <ele>500.12600708008</ele>
        <time>2020-05-26T20:22:45.835Z</time>
      </trkpt>
      <trkpt lat="43.57596" lon="6.47792">
        <ele>495.98486328125</ele>
        <time>2020-05-26T20:22:51.971Z</time>
      </trkpt>
      <trkpt lat="43.57595" lon="6.47792">
        <ele>495.79287719727</ele>
        <time>2020-05-26T20:22:58.107Z</time>
      </trkpt>
      <trkpt lat="43.57562" lon="6.47789">
        <ele>489.88864135742</ele>
        <time>2020-05-26T20:23:04.249Z</time>
      </trkpt>
      <trkpt lat="43.57543" lon="6.47799">
        <ele>487.28506469727</ele>
        <time>2020-05-26T20:23:10.395Z</time>
      </trkpt>
      <trkpt lat="43.57477" lon="6.47795">
        <ele>483.03802490234</ele>
        <time>2020-05-26T20:23:16.555Z</time>
      </trkpt>
      <trkpt lat="43.57448" lon="6.47796">
        <ele>481.97021484375</ele>
        <time>2020-05-26T20:23:22.720Z</time>
      </trkpt>
      <trkpt lat="43.57437" lon="6.47794">
        <ele>481.62225341797</ele>
        <time>2020-05-26T20:23:28.888Z</time>
      </trkpt>
      <trkpt lat="43.57424" lon="6.47802">
        <ele>482.10629272461</ele>
        <time>2020-05-26T20:23:35.058Z</time>
      </trkpt>
      <trkpt lat="43.57419" lon="6.4779">
        <ele>482.7541809082</ele>
        <time>2020-05-26T20:23:41.231Z</time>
      </trkpt>
      <trkpt lat="43.57385" lon="6.47855">
        <ele>485.97512817383</ele>
        <time>2020-05-26T20:23:47.415Z</time>
      </trkpt>
      <trkpt lat="43.57363" lon="6.4794">
        <ele>487.25344848633</ele>
        <time>2020-05-26T20:23:53.612Z</time>
      </trkpt>
      <trkpt lat="43.5734" lon="6.47986">
        <ele>483.81314086914</ele>
        <time>2020-05-26T20:23:59.817Z</time>
      </trkpt>
      <trkpt lat="43.57336" lon="6.47989">
        <ele>483.32122802734</ele>
        <time>2020-05-26T20:24:06.023Z</time>
      </trkpt>
      <trkpt lat="43.57301" lon="6.48023">
        <ele>478.98571777344</ele>
        <time>2020-05-26T20:24:12.238Z</time>
      </trkpt>
      <trkpt lat="43.5729" lon="6.48082">
        <ele>477.20022583008</ele>
        <time>2020-05-26T20:24:18.462Z</time>
      </trkpt>
      <trkpt lat="43.57271" lon="6.48123">
        <ele>471.82427978516</ele>
        <time>2020-05-26T20:24:24.693Z</time>
      </trkpt>
      <trkpt lat="43.57233" lon="6.48137">
        <ele>463.90045166016</ele>
        <time>2020-05-26T20:24:30.932Z</time>
      </trkpt>
      <trkpt lat="43.5719" lon="6.48195">
        <ele>451.24130249023</ele>
        <time>2020-05-26T20:24:37.183Z</time>
      </trkpt>
      <trkpt lat="43.5718" lon="6.48219">
        <ele>447.14788818359</ele>
        <time>2020-05-26T20:24:43.438Z</time>
      </trkpt>
      <trkpt lat="43.57157" lon="6.48235">
        <ele>440.43966674805</ele>
        <time>2020-05-26T20:24:49.698Z</time>
      </trkpt>
      <trkpt lat="43.57109" lon="6.48232">
        <ele>429.84051513672</ele>
        <time>2020-05-26T20:24:55.967Z</time>
      </trkpt>
      <trkpt lat="43.57101" lon="6.48247">
        <ele>425.44918823242</ele>
        <time>2020-05-26T20:25:02.239Z</time>
      </trkpt>
      <trkpt lat="43.57078" lon="6.48246">
        <ele>420.93795776367</ele>
        <time>2020-05-26T20:25:08.516Z</time>
      </trkpt>
      <trkpt lat="43.57064" lon="6.48258">
        <ele>415.92279052734</ele>
        <time>2020-05-26T20:25:14.796Z</time>
      </trkpt>
      <trkpt lat="43.57057" lon="6.48276">
        <ele>411.34674072266</ele>
        <time>2020-05-26T20:25:21.079Z</time>
      </trkpt>
      <trkpt lat="43.57073" lon="6.48314">
        <ele>408.29922485352</ele>
        <time>2020-05-26T20:25:27.368Z</time>
      </trkpt>
      <trkpt lat="43.57075" lon="6.48332">
        <ele>406.97424316406</ele>
        <time>2020-05-26T20:25:33.660Z</time>
      </trkpt>
      <trkpt lat="43.57101" lon="6.48384">
        <ele>407.28619384766</ele>
        <time>2020-05-26T20:25:39.961Z</time>
      </trkpt>
      <trkpt lat="43.57089" lon="6.48404">
        <ele>403.51065063477</ele>
        <time>2020-05-26T20:25:46.266Z</time>
      </trkpt>
      <trkpt lat="43.57084" lon="6.48414">
        <ele>402.49081420898</ele>
        <time>2020-05-26T20:25:52.573Z</time>
      </trkpt>
      <trkpt lat="43.57079" lon="6.48457">
        <ele>401.4709777832</ele>
        <time>2020-05-26T20:25:58.886Z</time>
      </trkpt>
      <trkpt lat="43.57073" lon="6.48471">
        <ele>399.86074829102</ele>
        <time>2020-05-26T20:26:05.202Z</time>
      </trkpt>
      <trkpt lat="43.57052" lon="6.48496">
        <ele>394.31887817383</ele>
        <time>2020-05-26T20:26:11.523Z</time>
      </trkpt>
      <trkpt lat="43.57041" lon="6.48513">
        <ele>391.03723144531</ele>
        <time>2020-05-26T20:26:17.847Z</time>
      </trkpt>
      <trkpt lat="43.57035" lon="6.48529">
        <ele>388.56564331055</ele>
        <time>2020-05-26T20:26:24.174Z</time>
      </trkpt>
      <trkpt lat="43.57032" lon="6.48542">
        <ele>387.02990722656</ele>
        <time>2020-05-26T20:26:30.503Z</time>
      </trkpt>
      <trkpt lat="43.57036" lon="6.48614">
        <ele>384.77703857422</ele>
        <time>2020-05-26T20:26:36.842Z</time>
      </trkpt>
      <trkpt lat="43.57025" lon="6.48649">
        <ele>381.56158447266</ele>
        <time>2020-05-26T20:26:43.187Z</time>
      </trkpt>
      <trkpt lat="43.57021" lon="6.48673">
        <ele>380.0696105957</ele>
        <time>2020-05-26T20:26:49.536Z</time>
      </trkpt>
      <trkpt lat="43.57022" lon="6.48695">
        <ele>379.5657043457</ele>
        <time>2020-05-26T20:26:55.888Z</time>
      </trkpt>
      <trkpt lat="43.57032" lon="6.48723">
        <ele>381.43740844727</ele>
        <time>2020-05-26T20:27:02.244Z</time>
      </trkpt>
      <trkpt lat="43.57045" lon="6.48777">
        <ele>382.10922241211</ele>
        <time>2020-05-26T20:27:08.609Z</time>
      </trkpt>
      <trkpt lat="43.57056" lon="6.48847">
        <ele>377.96325683594</ele>
        <time>2020-05-26T20:27:14.984Z</time>
      </trkpt>
      <trkpt lat="43.57055" lon="6.48858">
        <ele>376.05557250977</ele>
        <time>2020-05-26T20:27:21.361Z</time>
      </trkpt>
      <trkpt lat="43.57077" lon="6.48928">
        <ele>373.77990722656</ele>
        <time>2020-05-26T20:27:27.749Z</time>
      </trkpt>
      <trkpt lat="43.57078" lon="6.48971">
        <ele>369.60586547852</ele>
        <time>2020-05-26T20:27:34.143Z</time>
      </trkpt>
      <trkpt lat="43.57076" lon="6.48979">
        <ele>368.59802246094</ele>
        <time>2020-05-26T20:27:40.538Z</time>
      </trkpt>
      <trkpt lat="43.57062" lon="6.49055">
        <ele>356.50161743164</ele>
        <time>2020-05-26T20:27:46.945Z</time>
      </trkpt>
      <trkpt lat="43.57048" lon="6.49084">
        <ele>349.36575317383</ele>
        <time>2020-05-26T20:27:53.357Z</time>
      </trkpt>
      <trkpt lat="43.57041" lon="6.49105">
        <ele>345.72964477539</ele>
        <time>2020-05-26T20:27:59.772Z</time>
      </trkpt>
      <trkpt lat="43.57036" lon="6.49136">
        <ele>342.95809936523</ele>
        <time>2020-05-26T20:28:06.192Z</time>
      </trkpt>
      <trkpt lat="43.57021" lon="6.49173">
        <ele>338.67483520508</ele>
        <time>2020-05-26T20:28:12.618Z</time>
      </trkpt>
      <trkpt lat="43.57022" lon="6.492">
        <ele>336.8391418457</ele>
        <time>2020-05-26T20:28:19.048Z</time>
      </trkpt>
      <trkpt lat="43.57026" lon="6.49224">
        <ele>335.54333496094</ele>
        <time>2020-05-26T20:28:25.481Z</time>
      </trkpt>
      <trkpt lat="43.57033" lon="6.49252">
        <ele>334.19641113281</ele>
        <time>2020-05-26T20:28:31.919Z</time>
      </trkpt>
      <trkpt lat="43.57015" lon="6.49297">
        <ele>328.39291381836</ele>
        <time>2020-05-26T20:28:38.364Z</time>
      </trkpt>
      <trkpt lat="43.57005" lon="6.49316">
        <ele>327.18975830078</ele>
        <time>2020-05-26T20:28:44.813Z</time>
      </trkpt>
      <trkpt lat="43.57001" lon="6.49318">
        <ele>327.2958984375</ele>
        <time>2020-05-26T20:28:51.262Z</time>
      </trkpt>
      <trkpt lat="43.5699" lon="6.49348">
        <ele>325.70016479492</ele>
        <time>2020-05-26T20:28:57.716Z</time>
      </trkpt>
      <trkpt lat="43.56988" lon="6.4937">
        <ele>324.02044677734</ele>
        <time>2020-05-26T20:29:04.173Z</time>
      </trkpt>
      <trkpt lat="43.56973" lon="6.49388">
        <ele>322.58294677734</ele>
        <time>2020-05-26T20:29:10.634Z</time>
      </trkpt>
      <trkpt lat="43.5697" lon="6.494">
        <ele>321.29196166992</ele>
        <time>2020-05-26T20:29:17.097Z</time>
      </trkpt>
      <trkpt lat="43.56968" lon="6.49419">
        <ele>320.24813842773</ele>
        <time>2020-05-26T20:29:23.563Z</time>
      </trkpt>
      <trkpt lat="43.56987" lon="6.49468">
        <ele>315.83560180664</ele>
        <time>2020-05-26T20:29:30.037Z</time>
      </trkpt>
      <trkpt lat="43.56979" lon="6.49502">
        <ele>314.24145507812</ele>
        <time>2020-05-26T20:29:36.516Z</time>
      </trkpt>
      <trkpt lat="43.56991" lon="6.49532">
        <ele>313.73754882812</ele>
        <time>2020-05-26T20:29:43.000Z</time>
      </trkpt>
      <trkpt lat="43.56989" lon="6.49544">
        <ele>313.46774291992</ele>
        <time>2020-05-26T20:29:49.486Z</time>
      </trkpt>
      <trkpt lat="43.56969" lon="6.49592">
        <ele>313.02297973633</ele>
        <time>2020-05-26T20:29:55.980Z</time>
      </trkpt>
      <trkpt lat="43.56953" lon="6.49618">
        <ele>313.84957885742</ele>
        <time>2020-05-26T20:30:02.479Z</time>
      </trkpt>
      <trkpt lat="43.56945" lon="6.49636">
        <ele>314.49746704102</ele>
        <time>2020-05-26T20:30:08.981Z</time>
      </trkpt>
      <trkpt lat="43.56962" lon="6.49637">
        <ele>314.5334777832</ele>
        <time>2020-05-26T20:30:15.487Z</time>
      </trkpt>
      <trkpt lat="43.56971" lon="6.49641">
        <ele>314.67742919922</ele>
        <time>2020-05-26T20:30:21.994Z</time>
      </trkpt>
      <trkpt lat="43.56995" lon="6.49667">
        <ele>314.38671875</ele>
        <time>2020-05-26T20:30:28.508Z</time>
      </trkpt>
      <trkpt lat="43.57011" lon="6.49671">
        <ele>314.24273681641</ele>
        <time>2020-05-26T20:30:35.025Z</time>
      </trkpt>
      <trkpt lat="43.57034" lon="6.49673">
        <ele>314.94546508789</ele>
        <time>2020-05-26T20:30:41.546Z</time>
      </trkpt>
      <trkpt lat="43.57048" lon="6.4967">
        <ele>315.11920166016</ele>
        <time>2020-05-26T20:30:48.070Z</time>
      </trkpt>
      <trkpt lat="43.57079" lon="6.49656">
        <ele>314.41131591797</ele>
        <time>2020-05-26T20:30:54.601Z</time>
      </trkpt>
    </trkseg>
  </trk>
</gpx>